<?xml version="1.0" encoding="UTF-8" standalone="no" ?>
<gpx xmlns="http://www.topografix.com/GPX/1/1" xmlns:xsi="http://www.w3.org/2001/XMLSchema-instance" xsi:schemaLocation="http://www.topografix.com/GPX/1/1 http://www.topografix.com/GPX/1/1/gpx.xsd" version="1.1" creator="VisuGPX - https://www.visugpx.com">
  <metadata>
    <name>BRAMEFARINE - Table d\'orientation</name>
    <desc><![CDATA[Le Cheylas - Rable d\'orientation en boucle]]></desc>
  </metadata>
  <trk>
    <name><![CDATA[Sequence 1]]></name>
    <trkseg>
      <trkpt lat="45.37701" lon="5.99533">
        <ele>272</ele>
        <time>2014-10-26T13:55:25Z</time>
      </trkpt>
      <trkpt lat="45.37701" lon="5.99532">
        <ele>269</ele>
        <time>2014-10-26T13:55:27Z</time>
      </trkpt>
      <trkpt lat="45.37701" lon="5.99532">
        <ele>268</ele>
        <time>2014-10-26T13:55:33Z</time>
      </trkpt>
      <trkpt lat="45.37701" lon="5.99532">
        <ele>268</ele>
        <time>2014-10-26T13:55:39Z</time>
      </trkpt>
      <trkpt lat="45.37663" lon="5.99506">
        <ele>254</ele>
        <time>2014-10-26T13:55:50Z</time>
      </trkpt>
      <trkpt lat="45.37653" lon="5.99496">
        <ele>249</ele>
        <time>2014-10-26T13:55:54Z</time>
      </trkpt>
      <trkpt lat="45.37647" lon="5.99489">
        <ele>247</ele>
        <time>2014-10-26T13:55:57Z</time>
      </trkpt>
      <trkpt lat="45.37626" lon="5.99467">
        <ele>252</ele>
        <time>2014-10-26T13:56:07Z</time>
      </trkpt>
      <trkpt lat="45.37621" lon="5.99461">
        <ele>258</ele>
        <time>2014-10-26T13:56:10Z</time>
      </trkpt>
      <trkpt lat="45.37612" lon="5.99449">
        <ele>259</ele>
        <time>2014-10-26T13:56:15Z</time>
      </trkpt>
      <trkpt lat="45.37591" lon="5.99435">
        <ele>253</ele>
        <time>2014-10-26T13:56:21Z</time>
      </trkpt>
      <trkpt lat="45.37568" lon="5.99428">
        <ele>247</ele>
        <time>2014-10-26T13:56:27Z</time>
      </trkpt>
      <trkpt lat="45.37552" lon="5.99417">
        <ele>244</ele>
        <time>2014-10-26T13:56:33Z</time>
      </trkpt>
      <trkpt lat="45.37535" lon="5.99408">
        <ele>240</ele>
        <time>2014-10-26T13:56:39Z</time>
      </trkpt>
      <trkpt lat="45.37511" lon="5.99406">
        <ele>241</ele>
        <time>2014-10-26T13:56:50Z</time>
      </trkpt>
      <trkpt lat="45.37508" lon="5.99405">
        <ele>242</ele>
        <time>2014-10-26T13:56:51Z</time>
      </trkpt>
      <trkpt lat="45.3748" lon="5.99388">
        <ele>241</ele>
        <time>2014-10-26T13:57:01Z</time>
      </trkpt>
      <trkpt lat="45.37462" lon="5.99379">
        <ele>243</ele>
        <time>2014-10-26T13:57:07Z</time>
      </trkpt>
      <trkpt lat="45.37453" lon="5.99371">
        <ele>242</ele>
        <time>2014-10-26T13:57:12Z</time>
      </trkpt>
      <trkpt lat="45.37436" lon="5.99361">
        <ele>239</ele>
        <time>2014-10-26T13:57:19Z</time>
      </trkpt>
      <trkpt lat="45.37431" lon="5.99359">
        <ele>239</ele>
        <time>2014-10-26T13:57:21Z</time>
      </trkpt>
      <trkpt lat="45.37419" lon="5.99353">
        <ele>241</ele>
        <time>2014-10-26T13:57:27Z</time>
      </trkpt>
      <trkpt lat="45.37403" lon="5.99348">
        <ele>242</ele>
        <time>2014-10-26T13:57:33Z</time>
      </trkpt>
      <trkpt lat="45.37383" lon="5.99347">
        <ele>243</ele>
        <time>2014-10-26T13:57:39Z</time>
      </trkpt>
      <trkpt lat="45.37361" lon="5.99347">
        <ele>244</ele>
        <time>2014-10-26T13:57:45Z</time>
      </trkpt>
      <trkpt lat="45.3733" lon="5.99332">
        <ele>239</ele>
        <time>2014-10-26T13:57:56Z</time>
      </trkpt>
      <trkpt lat="45.37315" lon="5.9933">
        <ele>245</ele>
        <time>2014-10-26T13:58:02Z</time>
      </trkpt>
      <trkpt lat="45.37313" lon="5.9933">
        <ele>244</ele>
        <time>2014-10-26T13:58:03Z</time>
      </trkpt>
      <trkpt lat="45.37303" lon="5.99343">
        <ele>248</ele>
        <time>2014-10-26T13:58:09Z</time>
      </trkpt>
      <trkpt lat="45.37294" lon="5.99367">
        <ele>248</ele>
        <time>2014-10-26T13:58:15Z</time>
      </trkpt>
      <trkpt lat="45.37285" lon="5.99403">
        <ele>247</ele>
        <time>2014-10-26T13:58:24Z</time>
      </trkpt>
      <trkpt lat="45.37277" lon="5.99425">
        <ele>253</ele>
        <time>2014-10-26T13:58:31Z</time>
      </trkpt>
      <trkpt lat="45.37274" lon="5.99432">
        <ele>253</ele>
        <time>2014-10-26T13:58:33Z</time>
      </trkpt>
      <trkpt lat="45.37256" lon="5.99428">
        <ele>245</ele>
        <time>2014-10-26T13:58:44Z</time>
      </trkpt>
      <trkpt lat="45.37254" lon="5.99425">
        <ele>244</ele>
        <time>2014-10-26T13:58:45Z</time>
      </trkpt>
      <trkpt lat="45.37246" lon="5.99405">
        <ele>243</ele>
        <time>2014-10-26T13:58:51Z</time>
      </trkpt>
      <trkpt lat="45.37241" lon="5.99377">
        <ele>248</ele>
        <time>2014-10-26T13:58:59Z</time>
      </trkpt>
      <trkpt lat="45.37238" lon="5.99363">
        <ele>249</ele>
        <time>2014-10-26T13:59:03Z</time>
      </trkpt>
      <trkpt lat="45.37221" lon="5.99334">
        <ele>244</ele>
        <time>2014-10-26T13:59:13Z</time>
      </trkpt>
      <trkpt lat="45.37216" lon="5.99329">
        <ele>242</ele>
        <time>2014-10-26T13:59:15Z</time>
      </trkpt>
      <trkpt lat="45.37192" lon="5.99315">
        <ele>244</ele>
        <time>2014-10-26T13:59:25Z</time>
      </trkpt>
      <trkpt lat="45.3719" lon="5.99308">
        <ele>242</ele>
        <time>2014-10-26T13:59:27Z</time>
      </trkpt>
      <trkpt lat="45.37181" lon="5.99289">
        <ele>244</ele>
        <time>2014-10-26T13:59:33Z</time>
      </trkpt>
      <trkpt lat="45.37157" lon="5.99254">
        <ele>240</ele>
        <time>2014-10-26T13:59:44Z</time>
      </trkpt>
      <trkpt lat="45.37155" lon="5.99252">
        <ele>240</ele>
        <time>2014-10-26T13:59:45Z</time>
      </trkpt>
      <trkpt lat="45.37144" lon="5.99233">
        <ele>238</ele>
        <time>2014-10-26T13:59:51Z</time>
      </trkpt>
      <trkpt lat="45.37139" lon="5.99222">
        <ele>242</ele>
        <time>2014-10-26T13:59:57Z</time>
      </trkpt>
      <trkpt lat="45.37101" lon="5.9923">
        <ele>246</ele>
        <time>2014-10-26T14:00:08Z</time>
      </trkpt>
      <trkpt lat="45.37098" lon="5.9924">
        <ele>242</ele>
        <time>2014-10-26T14:00:10Z</time>
      </trkpt>
      <trkpt lat="45.37096" lon="5.99229">
        <ele>240</ele>
        <time>2014-10-26T14:00:18Z</time>
      </trkpt>
      <trkpt lat="45.37091" lon="5.99226">
        <ele>248</ele>
        <time>2014-10-26T14:00:21Z</time>
      </trkpt>
      <trkpt lat="45.37089" lon="5.99225">
        <ele>253</ele>
        <time>2014-10-26T14:00:27Z</time>
      </trkpt>
      <trkpt lat="45.37086" lon="5.9922">
        <ele>258</ele>
        <time>2014-10-26T14:00:33Z</time>
      </trkpt>
      <trkpt lat="45.37079" lon="5.99218">
        <ele>259</ele>
        <time>2014-10-26T14:00:44Z</time>
      </trkpt>
      <trkpt lat="45.37077" lon="5.99215">
        <ele>258</ele>
        <time>2014-10-26T14:00:48Z</time>
      </trkpt>
      <trkpt lat="45.37075" lon="5.99213">
        <ele>258</ele>
        <time>2014-10-26T14:00:51Z</time>
      </trkpt>
      <trkpt lat="45.37075" lon="5.99212">
        <ele>258</ele>
        <time>2014-10-26T14:00:57Z</time>
      </trkpt>
      <trkpt lat="45.37075" lon="5.99212">
        <ele>258</ele>
        <time>2014-10-26T14:01:06Z</time>
      </trkpt>
      <trkpt lat="45.37075" lon="5.99212">
        <ele>257</ele>
        <time>2014-10-26T14:01:13Z</time>
      </trkpt>
      <trkpt lat="45.37075" lon="5.99212">
        <ele>257</ele>
        <time>2014-10-26T14:01:16Z</time>
      </trkpt>
      <trkpt lat="45.37075" lon="5.99211">
        <ele>258</ele>
        <time>2014-10-26T14:01:21Z</time>
      </trkpt>
      <trkpt lat="45.37072" lon="5.99208">
        <ele>258</ele>
        <time>2014-10-26T14:01:30Z</time>
      </trkpt>
      <trkpt lat="45.37072" lon="5.99206">
        <ele>257</ele>
        <time>2014-10-26T14:01:34Z</time>
      </trkpt>
      <trkpt lat="45.37064" lon="5.99213">
        <ele>255</ele>
        <time>2014-10-26T14:01:44Z</time>
      </trkpt>
      <trkpt lat="45.3706" lon="5.99214">
        <ele>253</ele>
        <time>2014-10-26T14:01:45Z</time>
      </trkpt>
      <trkpt lat="45.37043" lon="5.99239">
        <ele>253</ele>
        <time>2014-10-26T14:01:55Z</time>
      </trkpt>
      <trkpt lat="45.37037" lon="5.99245">
        <ele>256</ele>
        <time>2014-10-26T14:01:57Z</time>
      </trkpt>
      <trkpt lat="45.37008" lon="5.99264">
        <ele>252</ele>
        <time>2014-10-26T14:02:07Z</time>
      </trkpt>
      <trkpt lat="45.37002" lon="5.99265">
        <ele>254</ele>
        <time>2014-10-26T14:02:09Z</time>
      </trkpt>
      <trkpt lat="45.36988" lon="5.99277">
        <ele>248</ele>
        <time>2014-10-26T14:02:16Z</time>
      </trkpt>
      <trkpt lat="45.36967" lon="5.99314">
        <ele>248</ele>
        <time>2014-10-26T14:02:26Z</time>
      </trkpt>
      <trkpt lat="45.36964" lon="5.99318">
        <ele>248</ele>
        <time>2014-10-26T14:02:27Z</time>
      </trkpt>
      <trkpt lat="45.36945" lon="5.99343">
        <ele>251</ele>
        <time>2014-10-26T14:02:36Z</time>
      </trkpt>
      <trkpt lat="45.36938" lon="5.99352">
        <ele>251</ele>
        <time>2014-10-26T14:02:39Z</time>
      </trkpt>
      <trkpt lat="45.36915" lon="5.99358">
        <ele>258</ele>
        <time>2014-10-26T14:02:47Z</time>
      </trkpt>
      <trkpt lat="45.36911" lon="5.9937">
        <ele>257</ele>
        <time>2014-10-26T14:02:51Z</time>
      </trkpt>
      <trkpt lat="45.36901" lon="5.99385">
        <ele>259</ele>
        <time>2014-10-26T14:02:57Z</time>
      </trkpt>
      <trkpt lat="45.36899" lon="5.99407">
        <ele>263</ele>
        <time>2014-10-26T14:03:03Z</time>
      </trkpt>
      <trkpt lat="45.369" lon="5.99438">
        <ele>264</ele>
        <time>2014-10-26T14:03:12Z</time>
      </trkpt>
      <trkpt lat="45.369" lon="5.99452">
        <ele>268</ele>
        <time>2014-10-26T14:03:16Z</time>
      </trkpt>
      <trkpt lat="45.3689" lon="5.99495">
        <ele>273</ele>
        <time>2014-10-26T14:03:26Z</time>
      </trkpt>
      <trkpt lat="45.3689" lon="5.99499">
        <ele>272</ele>
        <time>2014-10-26T14:03:27Z</time>
      </trkpt>
      <trkpt lat="45.36886" lon="5.9953">
        <ele>270</ele>
        <time>2014-10-26T14:03:34Z</time>
      </trkpt>
      <trkpt lat="45.36887" lon="5.99549">
        <ele>269</ele>
        <time>2014-10-26T14:03:39Z</time>
      </trkpt>
      <trkpt lat="45.36884" lon="5.99572">
        <ele>268</ele>
        <time>2014-10-26T14:03:47Z</time>
      </trkpt>
      <trkpt lat="45.36879" lon="5.99584">
        <ele>268</ele>
        <time>2014-10-26T14:03:51Z</time>
      </trkpt>
      <trkpt lat="45.36852" lon="5.99595">
        <ele>268</ele>
        <time>2014-10-26T14:04:02Z</time>
      </trkpt>
      <trkpt lat="45.36849" lon="5.99595">
        <ele>266</ele>
        <time>2014-10-26T14:04:03Z</time>
      </trkpt>
      <trkpt lat="45.36833" lon="5.99605">
        <ele>263</ele>
        <time>2014-10-26T14:04:09Z</time>
      </trkpt>
      <trkpt lat="45.36816" lon="5.99618">
        <ele>267</ele>
        <time>2014-10-26T14:04:17Z</time>
      </trkpt>
      <trkpt lat="45.36808" lon="5.9963">
        <ele>269</ele>
        <time>2014-10-26T14:04:23Z</time>
      </trkpt>
      <trkpt lat="45.36784" lon="5.99648">
        <ele>275</ele>
        <time>2014-10-26T14:04:31Z</time>
      </trkpt>
      <trkpt lat="45.36779" lon="5.99648">
        <ele>276</ele>
        <time>2014-10-26T14:04:33Z</time>
      </trkpt>
      <trkpt lat="45.36768" lon="5.99654">
        <ele>278</ele>
        <time>2014-10-26T14:04:40Z</time>
      </trkpt>
      <trkpt lat="45.36761" lon="5.99663">
        <ele>278</ele>
        <time>2014-10-26T14:04:45Z</time>
      </trkpt>
      <trkpt lat="45.3675" lon="5.99658">
        <ele>286</ele>
        <time>2014-10-26T14:04:51Z</time>
      </trkpt>
      <trkpt lat="45.36735" lon="5.99649">
        <ele>290</ele>
        <time>2014-10-26T14:04:57Z</time>
      </trkpt>
      <trkpt lat="45.36718" lon="5.99653">
        <ele>291</ele>
        <time>2014-10-26T14:05:03Z</time>
      </trkpt>
      <trkpt lat="45.36703" lon="5.99649">
        <ele>290</ele>
        <time>2014-10-26T14:05:10Z</time>
      </trkpt>
      <trkpt lat="45.3669" lon="5.99655">
        <ele>291</ele>
        <time>2014-10-26T14:05:15Z</time>
      </trkpt>
      <trkpt lat="45.3668" lon="5.99681">
        <ele>289</ele>
        <time>2014-10-26T14:05:21Z</time>
      </trkpt>
      <trkpt lat="45.36675" lon="5.99715">
        <ele>285</ele>
        <time>2014-10-26T14:05:27Z</time>
      </trkpt>
      <trkpt lat="45.36674" lon="5.99757">
        <ele>280</ele>
        <time>2014-10-26T14:05:35Z</time>
      </trkpt>
      <trkpt lat="45.36663" lon="5.99773">
        <ele>278</ele>
        <time>2014-10-26T14:05:39Z</time>
      </trkpt>
      <trkpt lat="45.36649" lon="5.99792">
        <ele>278</ele>
        <time>2014-10-26T14:05:45Z</time>
      </trkpt>
      <trkpt lat="45.36636" lon="5.99833">
        <ele>277</ele>
        <time>2014-10-26T14:05:56Z</time>
      </trkpt>
      <trkpt lat="45.36635" lon="5.99837">
        <ele>278</ele>
        <time>2014-10-26T14:05:57Z</time>
      </trkpt>
      <trkpt lat="45.36627" lon="5.99857">
        <ele>270</ele>
        <time>2014-10-26T14:06:03Z</time>
      </trkpt>
      <trkpt lat="45.36615" lon="5.99874">
        <ele>268</ele>
        <time>2014-10-26T14:06:09Z</time>
      </trkpt>
      <trkpt lat="45.36604" lon="5.99903">
        <ele>267</ele>
        <time>2014-10-26T14:06:17Z</time>
      </trkpt>
      <trkpt lat="45.36593" lon="5.99923">
        <ele>265</ele>
        <time>2014-10-26T14:06:24Z</time>
      </trkpt>
      <trkpt lat="45.36587" lon="5.9993">
        <ele>266</ele>
        <time>2014-10-26T14:06:27Z</time>
      </trkpt>
      <trkpt lat="45.36575" lon="5.99942">
        <ele>264</ele>
        <time>2014-10-26T14:06:33Z</time>
      </trkpt>
      <trkpt lat="45.36553" lon="5.99985">
        <ele>264</ele>
        <time>2014-10-26T14:06:44Z</time>
      </trkpt>
      <trkpt lat="45.36545" lon="5.99995">
        <ele>266</ele>
        <time>2014-10-26T14:06:50Z</time>
      </trkpt>
      <trkpt lat="45.36544" lon="5.99998">
        <ele>266</ele>
        <time>2014-10-26T14:06:51Z</time>
      </trkpt>
      <trkpt lat="45.3654" lon="6.0001">
        <ele>268</ele>
        <time>2014-10-26T14:06:57Z</time>
      </trkpt>
      <trkpt lat="45.36543" lon="6.00032">
        <ele>267</ele>
        <time>2014-10-26T14:07:04Z</time>
      </trkpt>
      <trkpt lat="45.36542" lon="6.00049">
        <ele>263</ele>
        <time>2014-10-26T14:07:10Z</time>
      </trkpt>
      <trkpt lat="45.36547" lon="6.00061">
        <ele>262</ele>
        <time>2014-10-26T14:07:15Z</time>
      </trkpt>
      <trkpt lat="45.36551" lon="6.00079">
        <ele>260</ele>
        <time>2014-10-26T14:07:24Z</time>
      </trkpt>
      <trkpt lat="45.36551" lon="6.0008">
        <ele>261</ele>
        <time>2014-10-26T14:07:27Z</time>
      </trkpt>
      <trkpt lat="45.36551" lon="6.00085">
        <ele>260</ele>
        <time>2014-10-26T14:07:37Z</time>
      </trkpt>
      <trkpt lat="45.36551" lon="6.00085">
        <ele>260</ele>
        <time>2014-10-26T14:07:39Z</time>
      </trkpt>
      <trkpt lat="45.36551" lon="6.00085">
        <ele>260</ele>
        <time>2014-10-26T14:07:46Z</time>
      </trkpt>
      <trkpt lat="45.36551" lon="6.00085">
        <ele>260</ele>
        <time>2014-10-26T14:07:51Z</time>
      </trkpt>
      <trkpt lat="45.36551" lon="6.00086">
        <ele>260</ele>
        <time>2014-10-26T14:08:01Z</time>
      </trkpt>
      <trkpt lat="45.36551" lon="6.00086">
        <ele>260</ele>
        <time>2014-10-26T14:08:04Z</time>
      </trkpt>
      <trkpt lat="45.3655" lon="6.00088">
        <ele>262</ele>
        <time>2014-10-26T14:08:09Z</time>
      </trkpt>
      <trkpt lat="45.36624" lon="6.00293">
        <ele>244</ele>
        <time>2014-10-26T14:09:29Z</time>
      </trkpt>
      <trkpt lat="45.36641" lon="6.00269">
        <ele>275</ele>
        <time>2014-10-26T14:10:14Z</time>
      </trkpt>
      <trkpt lat="45.36641" lon="6.00268">
        <ele>275</ele>
        <time>2014-10-26T14:10:21Z</time>
      </trkpt>
      <trkpt lat="45.3664" lon="6.00157">
        <ele>303</ele>
        <time>2014-10-26T14:10:46Z</time>
      </trkpt>
      <trkpt lat="45.36655" lon="6.00069">
        <ele>327</ele>
        <time>2014-10-26T14:11:12Z</time>
      </trkpt>
      <trkpt lat="45.36664" lon="6.00042">
        <ele>323</ele>
        <time>2014-10-26T14:11:19Z</time>
      </trkpt>
      <trkpt lat="45.36667" lon="6.00014">
        <ele>324</ele>
        <time>2014-10-26T14:11:26Z</time>
      </trkpt>
      <trkpt lat="45.36669" lon="6.00001">
        <ele>322</ele>
        <time>2014-10-26T14:11:31Z</time>
      </trkpt>
      <trkpt lat="45.36669" lon="5.99995">
        <ele>324</ele>
        <time>2014-10-26T14:11:33Z</time>
      </trkpt>
      <trkpt lat="45.36665" lon="5.9997">
        <ele>331</ele>
        <time>2014-10-26T14:11:39Z</time>
      </trkpt>
      <trkpt lat="45.36673" lon="5.99949">
        <ele>333</ele>
        <time>2014-10-26T14:11:46Z</time>
      </trkpt>
      <trkpt lat="45.36677" lon="5.99934">
        <ele>337</ele>
        <time>2014-10-26T14:11:51Z</time>
      </trkpt>
      <trkpt lat="45.36706" lon="5.99905">
        <ele>339</ele>
        <time>2014-10-26T14:12:02Z</time>
      </trkpt>
      <trkpt lat="45.36715" lon="5.99891">
        <ele>347</ele>
        <time>2014-10-26T14:12:08Z</time>
      </trkpt>
      <trkpt lat="45.36716" lon="5.99889">
        <ele>347</ele>
        <time>2014-10-26T14:12:09Z</time>
      </trkpt>
      <trkpt lat="45.36727" lon="5.99867">
        <ele>352</ele>
        <time>2014-10-26T14:12:15Z</time>
      </trkpt>
      <trkpt lat="45.36753" lon="5.9985">
        <ele>348</ele>
        <time>2014-10-26T14:12:25Z</time>
      </trkpt>
      <trkpt lat="45.36759" lon="5.99852">
        <ele>350</ele>
        <time>2014-10-26T14:12:27Z</time>
      </trkpt>
      <trkpt lat="45.36775" lon="5.9984">
        <ele>352</ele>
        <time>2014-10-26T14:12:34Z</time>
      </trkpt>
      <trkpt lat="45.36792" lon="5.99818">
        <ele>357</ele>
        <time>2014-10-26T14:12:44Z</time>
      </trkpt>
      <trkpt lat="45.36794" lon="5.99818">
        <ele>358</ele>
        <time>2014-10-26T14:12:45Z</time>
      </trkpt>
      <trkpt lat="45.36808" lon="5.99821">
        <ele>359</ele>
        <time>2014-10-26T14:12:51Z</time>
      </trkpt>
      <trkpt lat="45.36824" lon="5.998">
        <ele>349</ele>
        <time>2014-10-26T14:12:58Z</time>
      </trkpt>
      <trkpt lat="45.3683" lon="5.99789">
        <ele>341</ele>
        <time>2014-10-26T14:13:03Z</time>
      </trkpt>
      <trkpt lat="45.36829" lon="5.99789">
        <ele>347</ele>
        <time>2014-10-26T14:13:11Z</time>
      </trkpt>
      <trkpt lat="45.36828" lon="5.99785">
        <ele>349</ele>
        <time>2014-10-26T14:13:18Z</time>
      </trkpt>
      <trkpt lat="45.3683" lon="5.99788">
        <ele>350</ele>
        <time>2014-10-26T14:13:21Z</time>
      </trkpt>
      <trkpt lat="45.36834" lon="5.99791">
        <ele>352</ele>
        <time>2014-10-26T14:13:27Z</time>
      </trkpt>
      <trkpt lat="45.36828" lon="5.99796">
        <ele>354</ele>
        <time>2014-10-26T14:13:33Z</time>
      </trkpt>
      <trkpt lat="45.36822" lon="5.99802">
        <ele>357</ele>
        <time>2014-10-26T14:13:39Z</time>
      </trkpt>
      <trkpt lat="45.36819" lon="5.99815">
        <ele>353</ele>
        <time>2014-10-26T14:13:45Z</time>
      </trkpt>
      <trkpt lat="45.3682" lon="5.9983">
        <ele>354</ele>
        <time>2014-10-26T14:13:51Z</time>
      </trkpt>
      <trkpt lat="45.36823" lon="5.99833">
        <ele>357</ele>
        <time>2014-10-26T14:13:57Z</time>
      </trkpt>
      <trkpt lat="45.36825" lon="5.99839">
        <ele>360</ele>
        <time>2014-10-26T14:14:03Z</time>
      </trkpt>
      <trkpt lat="45.36827" lon="5.99843">
        <ele>360</ele>
        <time>2014-10-26T14:14:09Z</time>
      </trkpt>
      <trkpt lat="45.36839" lon="5.99845">
        <ele>365</ele>
        <time>2014-10-26T14:14:20Z</time>
      </trkpt>
      <trkpt lat="45.36837" lon="5.99844">
        <ele>369</ele>
        <time>2014-10-26T14:14:24Z</time>
      </trkpt>
      <trkpt lat="45.36837" lon="5.99845">
        <ele>369</ele>
        <time>2014-10-26T14:14:27Z</time>
      </trkpt>
      <trkpt lat="45.36833" lon="5.99847">
        <ele>374</ele>
        <time>2014-10-26T14:14:36Z</time>
      </trkpt>
      <trkpt lat="45.3683" lon="5.99844">
        <ele>373</ele>
        <time>2014-10-26T14:14:39Z</time>
      </trkpt>
      <trkpt lat="45.36817" lon="5.99851">
        <ele>373</ele>
        <time>2014-10-26T14:14:45Z</time>
      </trkpt>
      <trkpt lat="45.36811" lon="5.99852">
        <ele>375</ele>
        <time>2014-10-26T14:14:53Z</time>
      </trkpt>
      <trkpt lat="45.36808" lon="5.99852">
        <ele>371</ele>
        <time>2014-10-26T14:14:57Z</time>
      </trkpt>
      <trkpt lat="45.36798" lon="5.99868">
        <ele>376</ele>
        <time>2014-10-26T14:15:07Z</time>
      </trkpt>
      <trkpt lat="45.36796" lon="5.99871">
        <ele>376</ele>
        <time>2014-10-26T14:15:09Z</time>
      </trkpt>
      <trkpt lat="45.3679" lon="5.99879">
        <ele>378</ele>
        <time>2014-10-26T14:15:16Z</time>
      </trkpt>
      <trkpt lat="45.36782" lon="5.99881">
        <ele>385</ele>
        <time>2014-10-26T14:15:24Z</time>
      </trkpt>
      <trkpt lat="45.36779" lon="5.99878">
        <ele>389</ele>
        <time>2014-10-26T14:15:27Z</time>
      </trkpt>
      <trkpt lat="45.36777" lon="5.99885">
        <ele>393</ele>
        <time>2014-10-26T14:15:33Z</time>
      </trkpt>
      <trkpt lat="45.36772" lon="5.99881">
        <ele>403</ele>
        <time>2014-10-26T14:15:40Z</time>
      </trkpt>
      <trkpt lat="45.36766" lon="5.99885">
        <ele>406</ele>
        <time>2014-10-26T14:15:45Z</time>
      </trkpt>
      <trkpt lat="45.36761" lon="5.99892">
        <ele>410</ele>
        <time>2014-10-26T14:15:51Z</time>
      </trkpt>
      <trkpt lat="45.36752" lon="5.99897">
        <ele>412</ele>
        <time>2014-10-26T14:15:59Z</time>
      </trkpt>
      <trkpt lat="45.36747" lon="5.99903">
        <ele>407</ele>
        <time>2014-10-26T14:16:07Z</time>
      </trkpt>
      <trkpt lat="45.36746" lon="5.99906">
        <ele>407</ele>
        <time>2014-10-26T14:16:09Z</time>
      </trkpt>
      <trkpt lat="45.36754" lon="5.99914">
        <ele>413</ele>
        <time>2014-10-26T14:16:18Z</time>
      </trkpt>
      <trkpt lat="45.36756" lon="5.99914">
        <ele>414</ele>
        <time>2014-10-26T14:16:21Z</time>
      </trkpt>
      <trkpt lat="45.3676" lon="5.99922">
        <ele>416</ele>
        <time>2014-10-26T14:16:27Z</time>
      </trkpt>
      <trkpt lat="45.36766" lon="5.99922">
        <ele>413</ele>
        <time>2014-10-26T14:16:36Z</time>
      </trkpt>
      <trkpt lat="45.36767" lon="5.99918">
        <ele>417</ele>
        <time>2014-10-26T14:16:40Z</time>
      </trkpt>
      <trkpt lat="45.36772" lon="5.99915">
        <ele>417</ele>
        <time>2014-10-26T14:16:46Z</time>
      </trkpt>
      <trkpt lat="45.36776" lon="5.99911">
        <ele>420</ele>
        <time>2014-10-26T14:16:51Z</time>
      </trkpt>
      <trkpt lat="45.36787" lon="5.99923">
        <ele>423</ele>
        <time>2014-10-26T14:17:01Z</time>
      </trkpt>
      <trkpt lat="45.36794" lon="5.99926">
        <ele>423</ele>
        <time>2014-10-26T14:17:05Z</time>
      </trkpt>
      <trkpt lat="45.368" lon="5.99929">
        <ele>425</ele>
        <time>2014-10-26T14:17:09Z</time>
      </trkpt>
      <trkpt lat="45.36813" lon="5.99924">
        <ele>429</ele>
        <time>2014-10-26T14:17:19Z</time>
      </trkpt>
      <trkpt lat="45.36814" lon="5.99925">
        <ele>430</ele>
        <time>2014-10-26T14:17:21Z</time>
      </trkpt>
      <trkpt lat="45.3682" lon="5.99933">
        <ele>426</ele>
        <time>2014-10-26T14:17:27Z</time>
      </trkpt>
      <trkpt lat="45.36827" lon="5.99943">
        <ele>422</ele>
        <time>2014-10-26T14:17:33Z</time>
      </trkpt>
      <trkpt lat="45.36831" lon="5.99949">
        <ele>424</ele>
        <time>2014-10-26T14:17:39Z</time>
      </trkpt>
      <trkpt lat="45.36838" lon="5.99958">
        <ele>427</ele>
        <time>2014-10-26T14:17:46Z</time>
      </trkpt>
      <trkpt lat="45.3684" lon="5.9996">
        <ele>428</ele>
        <time>2014-10-26T14:17:52Z</time>
      </trkpt>
      <trkpt lat="45.36842" lon="5.99962">
        <ele>429</ele>
        <time>2014-10-26T14:17:58Z</time>
      </trkpt>
      <trkpt lat="45.3684" lon="5.99974">
        <ele>431</ele>
        <time>2014-10-26T14:18:04Z</time>
      </trkpt>
      <trkpt lat="45.36828" lon="5.99982">
        <ele>432</ele>
        <time>2014-10-26T14:18:09Z</time>
      </trkpt>
      <trkpt lat="45.36817" lon="6">
        <ele>434</ele>
        <time>2014-10-26T14:18:16Z</time>
      </trkpt>
      <trkpt lat="45.36816" lon="6.00023">
        <ele>431</ele>
        <time>2014-10-26T14:18:21Z</time>
      </trkpt>
      <trkpt lat="45.36822" lon="6.0005">
        <ele>433</ele>
        <time>2014-10-26T14:18:27Z</time>
      </trkpt>
      <trkpt lat="45.36824" lon="6.00075">
        <ele>430</ele>
        <time>2014-10-26T14:18:34Z</time>
      </trkpt>
      <trkpt lat="45.36822" lon="6.00103">
        <ele>430</ele>
        <time>2014-10-26T14:18:41Z</time>
      </trkpt>
      <trkpt lat="45.36824" lon="6.00119">
        <ele>432</ele>
        <time>2014-10-26T14:18:45Z</time>
      </trkpt>
      <trkpt lat="45.36841" lon="6.00121">
        <ele>433</ele>
        <time>2014-10-26T14:18:51Z</time>
      </trkpt>
      <trkpt lat="45.36862" lon="6.00132">
        <ele>440</ele>
        <time>2014-10-26T14:19:00Z</time>
      </trkpt>
      <trkpt lat="45.36867" lon="6.0013">
        <ele>440</ele>
        <time>2014-10-26T14:19:03Z</time>
      </trkpt>
      <trkpt lat="45.36881" lon="6.00127">
        <ele>433</ele>
        <time>2014-10-26T14:19:09Z</time>
      </trkpt>
      <trkpt lat="45.36895" lon="6.00119">
        <ele>431</ele>
        <time>2014-10-26T14:19:17Z</time>
      </trkpt>
      <trkpt lat="45.36899" lon="6.0012">
        <ele>429</ele>
        <time>2014-10-26T14:19:21Z</time>
      </trkpt>
      <trkpt lat="45.36912" lon="6.00112">
        <ele>424</ele>
        <time>2014-10-26T14:19:31Z</time>
      </trkpt>
      <trkpt lat="45.36915" lon="6.0011">
        <ele>427</ele>
        <time>2014-10-26T14:19:33Z</time>
      </trkpt>
      <trkpt lat="45.36925" lon="6.00052">
        <ele>434</ele>
        <time>2014-10-26T14:19:44Z</time>
      </trkpt>
      <trkpt lat="45.36926" lon="6.00049">
        <ele>434</ele>
        <time>2014-10-26T14:19:45Z</time>
      </trkpt>
      <trkpt lat="45.36934" lon="6.00036">
        <ele>431</ele>
        <time>2014-10-26T14:19:51Z</time>
      </trkpt>
      <trkpt lat="45.36942" lon="6.00035">
        <ele>440</ele>
        <time>2014-10-26T14:20:01Z</time>
      </trkpt>
      <trkpt lat="45.36944" lon="6.0004">
        <ele>447</ele>
        <time>2014-10-26T14:20:08Z</time>
      </trkpt>
      <trkpt lat="45.36951" lon="6.00044">
        <ele>448</ele>
        <time>2014-10-26T14:20:11Z</time>
      </trkpt>
      <trkpt lat="45.3696" lon="6.00052">
        <ele>450</ele>
        <time>2014-10-26T14:20:17Z</time>
      </trkpt>
      <trkpt lat="45.36966" lon="6.00055">
        <ele>452</ele>
        <time>2014-10-26T14:20:21Z</time>
      </trkpt>
      <trkpt lat="45.36985" lon="6.00067">
        <ele>451</ele>
        <time>2014-10-26T14:20:31Z</time>
      </trkpt>
      <trkpt lat="45.36991" lon="6.00073">
        <ele>451</ele>
        <time>2014-10-26T14:20:34Z</time>
      </trkpt>
      <trkpt lat="45.37001" lon="6.00078">
        <ele>452</ele>
        <time>2014-10-26T14:20:39Z</time>
      </trkpt>
      <trkpt lat="45.37009" lon="6.0008">
        <ele>452</ele>
        <time>2014-10-26T14:20:45Z</time>
      </trkpt>
      <trkpt lat="45.37016" lon="6.00086">
        <ele>457</ele>
        <time>2014-10-26T14:20:52Z</time>
      </trkpt>
      <trkpt lat="45.37032" lon="6.00089">
        <ele>459</ele>
        <time>2014-10-26T14:20:58Z</time>
      </trkpt>
      <trkpt lat="45.37041" lon="6.00082">
        <ele>464</ele>
        <time>2014-10-26T14:21:04Z</time>
      </trkpt>
      <trkpt lat="45.37049" lon="6.0008">
        <ele>470</ele>
        <time>2014-10-26T14:21:09Z</time>
      </trkpt>
      <trkpt lat="45.37059" lon="6.00078">
        <ele>475</ele>
        <time>2014-10-26T14:21:15Z</time>
      </trkpt>
      <trkpt lat="45.3707" lon="6.00081">
        <ele>480</ele>
        <time>2014-10-26T14:21:22Z</time>
      </trkpt>
      <trkpt lat="45.37074" lon="6.00082">
        <ele>477</ele>
        <time>2014-10-26T14:21:27Z</time>
      </trkpt>
      <trkpt lat="45.3708" lon="6.00084">
        <ele>475</ele>
        <time>2014-10-26T14:21:33Z</time>
      </trkpt>
      <trkpt lat="45.37081" lon="6.00084">
        <ele>469</ele>
        <time>2014-10-26T14:21:39Z</time>
      </trkpt>
      <trkpt lat="45.37085" lon="6.00093">
        <ele>465</ele>
        <time>2014-10-26T14:21:46Z</time>
      </trkpt>
      <trkpt lat="45.37094" lon="6.00096">
        <ele>462</ele>
        <time>2014-10-26T14:21:52Z</time>
      </trkpt>
      <trkpt lat="45.37106" lon="6.001">
        <ele>464</ele>
        <time>2014-10-26T14:21:59Z</time>
      </trkpt>
      <trkpt lat="45.37115" lon="6.00106">
        <ele>464</ele>
        <time>2014-10-26T14:22:03Z</time>
      </trkpt>
      <trkpt lat="45.37131" lon="6.00117">
        <ele>463</ele>
        <time>2014-10-26T14:22:09Z</time>
      </trkpt>
      <trkpt lat="45.3715" lon="6.00132">
        <ele>466</ele>
        <time>2014-10-26T14:22:17Z</time>
      </trkpt>
      <trkpt lat="45.37166" lon="6.00136">
        <ele>467</ele>
        <time>2014-10-26T14:22:21Z</time>
      </trkpt>
      <trkpt lat="45.37186" lon="6.00144">
        <ele>466</ele>
        <time>2014-10-26T14:22:27Z</time>
      </trkpt>
      <trkpt lat="45.37233" lon="6.00157">
        <ele>467</ele>
        <time>2014-10-26T14:22:36Z</time>
      </trkpt>
      <trkpt lat="45.3724" lon="6.00162">
        <ele>469</ele>
        <time>2014-10-26T14:22:42Z</time>
      </trkpt>
      <trkpt lat="45.37244" lon="6.00165">
        <ele>469</ele>
        <time>2014-10-26T14:22:46Z</time>
      </trkpt>
      <trkpt lat="45.37261" lon="6.00178">
        <ele>472</ele>
        <time>2014-10-26T14:22:55Z</time>
      </trkpt>
      <trkpt lat="45.37271" lon="6.00177">
        <ele>473</ele>
        <time>2014-10-26T14:22:58Z</time>
      </trkpt>
      <trkpt lat="45.37281" lon="6.00176">
        <ele>474</ele>
        <time>2014-10-26T14:23:03Z</time>
      </trkpt>
      <trkpt lat="45.37287" lon="6.00178">
        <ele>473</ele>
        <time>2014-10-26T14:23:13Z</time>
      </trkpt>
      <trkpt lat="45.37287" lon="6.00178">
        <ele>473</ele>
        <time>2014-10-26T14:23:15Z</time>
      </trkpt>
      <trkpt lat="45.37288" lon="6.00178">
        <ele>472</ele>
        <time>2014-10-26T14:23:21Z</time>
      </trkpt>
      <trkpt lat="45.37289" lon="6.00183">
        <ele>473</ele>
        <time>2014-10-26T14:23:27Z</time>
      </trkpt>
      <trkpt lat="45.37441" lon="6.00281">
        <ele>466</ele>
        <time>2014-10-26T14:24:02Z</time>
      </trkpt>
      <trkpt lat="45.37454" lon="6.00294">
        <ele>455</ele>
        <time>2014-10-26T14:24:07Z</time>
      </trkpt>
      <trkpt lat="45.37472" lon="6.00316">
        <ele>454</ele>
        <time>2014-10-26T14:24:14Z</time>
      </trkpt>
      <trkpt lat="45.37493" lon="6.00329">
        <ele>453</ele>
        <time>2014-10-26T14:24:20Z</time>
      </trkpt>
      <trkpt lat="45.37499" lon="6.00329">
        <ele>454</ele>
        <time>2014-10-26T14:24:22Z</time>
      </trkpt>
      <trkpt lat="45.37527" lon="6.00352">
        <ele>449</ele>
        <time>2014-10-26T14:24:32Z</time>
      </trkpt>
      <trkpt lat="45.3753" lon="6.00361">
        <ele>445</ele>
        <time>2014-10-26T14:24:35Z</time>
      </trkpt>
      <trkpt lat="45.37535" lon="6.00372">
        <ele>449</ele>
        <time>2014-10-26T14:24:39Z</time>
      </trkpt>
      <trkpt lat="45.37543" lon="6.00382">
        <ele>446</ele>
        <time>2014-10-26T14:24:45Z</time>
      </trkpt>
      <trkpt lat="45.37552" lon="6.00392">
        <ele>452</ele>
        <time>2014-10-26T14:24:51Z</time>
      </trkpt>
      <trkpt lat="45.37564" lon="6.00408">
        <ele>449</ele>
        <time>2014-10-26T14:25:00Z</time>
      </trkpt>
      <trkpt lat="45.37569" lon="6.00409">
        <ele>444</ele>
        <time>2014-10-26T14:25:07Z</time>
      </trkpt>
      <trkpt lat="45.37571" lon="6.00409">
        <ele>446</ele>
        <time>2014-10-26T14:25:09Z</time>
      </trkpt>
      <trkpt lat="45.37573" lon="6.00414">
        <ele>446</ele>
        <time>2014-10-26T14:25:16Z</time>
      </trkpt>
      <trkpt lat="45.37589" lon="6.00424">
        <ele>451</ele>
        <time>2014-10-26T14:25:25Z</time>
      </trkpt>
      <trkpt lat="45.37607" lon="6.0043">
        <ele>454</ele>
        <time>2014-10-26T14:25:31Z</time>
      </trkpt>
      <trkpt lat="45.37611" lon="6.00434">
        <ele>454</ele>
        <time>2014-10-26T14:25:33Z</time>
      </trkpt>
      <trkpt lat="45.37622" lon="6.00448">
        <ele>459</ele>
        <time>2014-10-26T14:25:41Z</time>
      </trkpt>
      <trkpt lat="45.37626" lon="6.0045">
        <ele>462</ele>
        <time>2014-10-26T14:25:45Z</time>
      </trkpt>
      <trkpt lat="45.37638" lon="6.00454">
        <ele>473</ele>
        <time>2014-10-26T14:25:53Z</time>
      </trkpt>
      <trkpt lat="45.37655" lon="6.00458">
        <ele>470</ele>
        <time>2014-10-26T14:26:01Z</time>
      </trkpt>
      <trkpt lat="45.37665" lon="6.00459">
        <ele>470</ele>
        <time>2014-10-26T14:26:07Z</time>
      </trkpt>
      <trkpt lat="45.37671" lon="6.00455">
        <ele>474</ele>
        <time>2014-10-26T14:26:13Z</time>
      </trkpt>
      <trkpt lat="45.37675" lon="6.00454">
        <ele>473</ele>
        <time>2014-10-26T14:26:18Z</time>
      </trkpt>
      <trkpt lat="45.37676" lon="6.00454">
        <ele>473</ele>
        <time>2014-10-26T14:26:21Z</time>
      </trkpt>
      <trkpt lat="45.37676" lon="6.00454">
        <ele>473</ele>
        <time>2014-10-26T14:26:29Z</time>
      </trkpt>
      <trkpt lat="45.37676" lon="6.00454">
        <ele>473</ele>
        <time>2014-10-26T14:26:34Z</time>
      </trkpt>
      <trkpt lat="45.37676" lon="6.00454">
        <ele>473</ele>
        <time>2014-10-26T14:26:39Z</time>
      </trkpt>
      <trkpt lat="45.37676" lon="6.00454">
        <ele>473</ele>
        <time>2014-10-26T14:26:47Z</time>
      </trkpt>
      <trkpt lat="45.37683" lon="6.00466">
        <ele>471</ele>
        <time>2014-10-26T14:26:52Z</time>
      </trkpt>
      <trkpt lat="45.37695" lon="6.00473">
        <ele>474</ele>
        <time>2014-10-26T14:26:58Z</time>
      </trkpt>
      <trkpt lat="45.37713" lon="6.00485">
        <ele>477</ele>
        <time>2014-10-26T14:27:06Z</time>
      </trkpt>
      <trkpt lat="45.3772" lon="6.00488">
        <ele>480</ele>
        <time>2014-10-26T14:27:11Z</time>
      </trkpt>
      <trkpt lat="45.37728" lon="6.00495">
        <ele>483</ele>
        <time>2014-10-26T14:27:18Z</time>
      </trkpt>
      <trkpt lat="45.37732" lon="6.00497">
        <ele>481</ele>
        <time>2014-10-26T14:27:21Z</time>
      </trkpt>
      <trkpt lat="45.37738" lon="6.00496">
        <ele>479</ele>
        <time>2014-10-26T14:27:27Z</time>
      </trkpt>
      <trkpt lat="45.37753" lon="6.00503">
        <ele>484</ele>
        <time>2014-10-26T14:27:38Z</time>
      </trkpt>
      <trkpt lat="45.37754" lon="6.00503">
        <ele>485</ele>
        <time>2014-10-26T14:27:39Z</time>
      </trkpt>
      <trkpt lat="45.37756" lon="6.00502">
        <ele>486</ele>
        <time>2014-10-26T14:27:50Z</time>
      </trkpt>
      <trkpt lat="45.37756" lon="6.00502">
        <ele>486</ele>
        <time>2014-10-26T14:27:51Z</time>
      </trkpt>
      <trkpt lat="45.37756" lon="6.00502">
        <ele>486</ele>
        <time>2014-10-26T14:27:57Z</time>
      </trkpt>
      <trkpt lat="45.37756" lon="6.00502">
        <ele>486</ele>
        <time>2014-10-26T14:28:04Z</time>
      </trkpt>
      <trkpt lat="45.37756" lon="6.00502">
        <ele>486</ele>
        <time>2014-10-26T14:28:09Z</time>
      </trkpt>
      <trkpt lat="45.37756" lon="6.00502">
        <ele>486</ele>
        <time>2014-10-26T14:28:16Z</time>
      </trkpt>
      <trkpt lat="45.37756" lon="6.00502">
        <ele>486</ele>
        <time>2014-10-26T14:28:23Z</time>
      </trkpt>
      <trkpt lat="45.37756" lon="6.00502">
        <ele>486</ele>
        <time>2014-10-26T14:28:27Z</time>
      </trkpt>
      <trkpt lat="45.37756" lon="6.00502">
        <ele>486</ele>
        <time>2014-10-26T14:28:33Z</time>
      </trkpt>
      <trkpt lat="45.37756" lon="6.00502">
        <ele>486</ele>
        <time>2014-10-26T14:28:39Z</time>
      </trkpt>
      <trkpt lat="45.37756" lon="6.00502">
        <ele>486</ele>
        <time>2014-10-26T14:28:45Z</time>
      </trkpt>
      <trkpt lat="45.37757" lon="6.00504">
        <ele>489</ele>
        <time>2014-10-26T14:28:55Z</time>
      </trkpt>
      <trkpt lat="45.37757" lon="6.00506">
        <ele>489</ele>
        <time>2014-10-26T14:28:57Z</time>
      </trkpt>
      <trkpt lat="45.37764" lon="6.00511">
        <ele>483</ele>
        <time>2014-10-26T14:29:04Z</time>
      </trkpt>
      <trkpt lat="45.3777" lon="6.00509">
        <ele>486</ele>
        <time>2014-10-26T14:29:09Z</time>
      </trkpt>
      <trkpt lat="45.37783" lon="6.00509">
        <ele>486</ele>
        <time>2014-10-26T14:29:19Z</time>
      </trkpt>
      <trkpt lat="45.37783" lon="6.00521">
        <ele>484</ele>
        <time>2014-10-26T14:29:26Z</time>
      </trkpt>
      <trkpt lat="45.37783" lon="6.00523">
        <ele>483</ele>
        <time>2014-10-26T14:29:29Z</time>
      </trkpt>
      <trkpt lat="45.37782" lon="6.0052">
        <ele>484</ele>
        <time>2014-10-26T14:29:38Z</time>
      </trkpt>
      <trkpt lat="45.37782" lon="6.0052">
        <ele>484</ele>
        <time>2014-10-26T14:29:43Z</time>
      </trkpt>
      <trkpt lat="45.37782" lon="6.0052">
        <ele>484</ele>
        <time>2014-10-26T14:29:45Z</time>
      </trkpt>
      <trkpt lat="45.37782" lon="6.0052">
        <ele>484</ele>
        <time>2014-10-26T14:29:53Z</time>
      </trkpt>
      <trkpt lat="45.37782" lon="6.0052">
        <ele>484</ele>
        <time>2014-10-26T14:30:01Z</time>
      </trkpt>
      <trkpt lat="45.37782" lon="6.0052">
        <ele>484</ele>
        <time>2014-10-26T14:30:03Z</time>
      </trkpt>
      <trkpt lat="45.37782" lon="6.0052">
        <ele>484</ele>
        <time>2014-10-26T14:30:09Z</time>
      </trkpt>
      <trkpt lat="45.37782" lon="6.0052">
        <ele>484</ele>
        <time>2014-10-26T14:30:16Z</time>
      </trkpt>
      <trkpt lat="45.37782" lon="6.0052">
        <ele>484</ele>
        <time>2014-10-26T14:30:21Z</time>
      </trkpt>
      <trkpt lat="45.37773" lon="6.00512">
        <ele>483</ele>
        <time>2014-10-26T14:30:27Z</time>
      </trkpt>
      <trkpt lat="45.37747" lon="6.0049">
        <ele>487</ele>
        <time>2014-10-26T14:30:38Z</time>
      </trkpt>
      <trkpt lat="45.37747" lon="6.0049">
        <ele>487</ele>
        <time>2014-10-26T14:30:39Z</time>
      </trkpt>
      <trkpt lat="45.37741" lon="6.00489">
        <ele>487</ele>
        <time>2014-10-26T14:30:46Z</time>
      </trkpt>
      <trkpt lat="45.37735" lon="6.00486">
        <ele>484</ele>
        <time>2014-10-26T14:30:52Z</time>
      </trkpt>
      <trkpt lat="45.37729" lon="6.00483">
        <ele>481</ele>
        <time>2014-10-26T14:31:00Z</time>
      </trkpt>
      <trkpt lat="45.37728" lon="6.00482">
        <ele>480</ele>
        <time>2014-10-26T14:31:03Z</time>
      </trkpt>
      <trkpt lat="45.37725" lon="6.00482">
        <ele>477</ele>
        <time>2014-10-26T14:31:09Z</time>
      </trkpt>
      <trkpt lat="45.37724" lon="6.00482">
        <ele>476</ele>
        <time>2014-10-26T14:31:19Z</time>
      </trkpt>
      <trkpt lat="45.37724" lon="6.00482">
        <ele>476</ele>
        <time>2014-10-26T14:31:23Z</time>
      </trkpt>
      <trkpt lat="45.37724" lon="6.00482">
        <ele>476</ele>
        <time>2014-10-26T14:31:28Z</time>
      </trkpt>
      <trkpt lat="45.37712" lon="6.00475">
        <ele>472</ele>
        <time>2014-10-26T14:31:33Z</time>
      </trkpt>
      <trkpt lat="45.37702" lon="6.00466">
        <ele>472</ele>
        <time>2014-10-26T14:31:40Z</time>
      </trkpt>
      <trkpt lat="45.37702" lon="6.00462">
        <ele>474</ele>
        <time>2014-10-26T14:31:45Z</time>
      </trkpt>
      <trkpt lat="45.37701" lon="6.00458">
        <ele>476</ele>
        <time>2014-10-26T14:31:56Z</time>
      </trkpt>
      <trkpt lat="45.37701" lon="6.00458">
        <ele>475</ele>
        <time>2014-10-26T14:31:57Z</time>
      </trkpt>
      <trkpt lat="45.37701" lon="6.00458">
        <ele>475</ele>
        <time>2014-10-26T14:32:03Z</time>
      </trkpt>
      <trkpt lat="45.37701" lon="6.00458">
        <ele>475</ele>
        <time>2014-10-26T14:32:12Z</time>
      </trkpt>
      <trkpt lat="45.37701" lon="6.00458">
        <ele>475</ele>
        <time>2014-10-26T14:32:15Z</time>
      </trkpt>
      <trkpt lat="45.37701" lon="6.00458">
        <ele>475</ele>
        <time>2014-10-26T14:32:21Z</time>
      </trkpt>
      <trkpt lat="45.37734" lon="6.00458">
        <ele>461</ele>
        <time>2014-10-26T14:32:27Z</time>
      </trkpt>
      <trkpt lat="45.37758" lon="6.00468">
        <ele>451</ele>
        <time>2014-10-26T14:32:33Z</time>
      </trkpt>
      <trkpt lat="45.37792" lon="6.00481">
        <ele>448</ele>
        <time>2014-10-26T14:32:44Z</time>
      </trkpt>
      <trkpt lat="45.37797" lon="6.00481">
        <ele>450</ele>
        <time>2014-10-26T14:32:46Z</time>
      </trkpt>
      <trkpt lat="45.37806" lon="6.00465">
        <ele>460</ele>
        <time>2014-10-26T14:32:56Z</time>
      </trkpt>
      <trkpt lat="45.37807" lon="6.00464">
        <ele>461</ele>
        <time>2014-10-26T14:32:57Z</time>
      </trkpt>
      <trkpt lat="45.37814" lon="6.00464">
        <ele>463</ele>
        <time>2014-10-26T14:33:03Z</time>
      </trkpt>
      <trkpt lat="45.37827" lon="6.00462">
        <ele>464</ele>
        <time>2014-10-26T14:33:11Z</time>
      </trkpt>
      <trkpt lat="45.37838" lon="6.0046">
        <ele>464</ele>
        <time>2014-10-26T14:33:17Z</time>
      </trkpt>
      <trkpt lat="45.37844" lon="6.00457">
        <ele>464</ele>
        <time>2014-10-26T14:33:21Z</time>
      </trkpt>
      <trkpt lat="45.37864" lon="6.00456">
        <ele>471</ele>
        <time>2014-10-26T14:33:30Z</time>
      </trkpt>
      <trkpt lat="45.3787" lon="6.00459">
        <ele>471</ele>
        <time>2014-10-26T14:33:33Z</time>
      </trkpt>
      <trkpt lat="45.37884" lon="6.00464">
        <ele>476</ele>
        <time>2014-10-26T14:33:41Z</time>
      </trkpt>
      <trkpt lat="45.37896" lon="6.00467">
        <ele>476</ele>
        <time>2014-10-26T14:33:45Z</time>
      </trkpt>
      <trkpt lat="45.37914" lon="6.00472">
        <ele>472</ele>
        <time>2014-10-26T14:33:51Z</time>
      </trkpt>
      <trkpt lat="45.37955" lon="6.00483">
        <ele>460</ele>
        <time>2014-10-26T14:34:01Z</time>
      </trkpt>
      <trkpt lat="45.37961" lon="6.00485">
        <ele>460</ele>
        <time>2014-10-26T14:34:06Z</time>
      </trkpt>
      <trkpt lat="45.37985" lon="6.00491">
        <ele>459</ele>
        <time>2014-10-26T14:34:14Z</time>
      </trkpt>
      <trkpt lat="45.37988" lon="6.00493">
        <ele>457</ele>
        <time>2014-10-26T14:34:15Z</time>
      </trkpt>
      <trkpt lat="45.38003" lon="6.005">
        <ele>457</ele>
        <time>2014-10-26T14:34:21Z</time>
      </trkpt>
      <trkpt lat="45.38052" lon="6.00508">
        <ele>460</ele>
        <time>2014-10-26T14:34:32Z</time>
      </trkpt>
      <trkpt lat="45.38055" lon="6.0051">
        <ele>458</ele>
        <time>2014-10-26T14:34:33Z</time>
      </trkpt>
      <trkpt lat="45.38072" lon="6.00511">
        <ele>462</ele>
        <time>2014-10-26T14:34:39Z</time>
      </trkpt>
      <trkpt lat="45.38091" lon="6.0052">
        <ele>464</ele>
        <time>2014-10-26T14:34:46Z</time>
      </trkpt>
      <trkpt lat="45.38127" lon="6.00528">
        <ele>460</ele>
        <time>2014-10-26T14:34:53Z</time>
      </trkpt>
      <trkpt lat="45.38139" lon="6.00532">
        <ele>459</ele>
        <time>2014-10-26T14:34:57Z</time>
      </trkpt>
      <trkpt lat="45.38161" lon="6.00551">
        <ele>443</ele>
        <time>2014-10-26T14:35:03Z</time>
      </trkpt>
      <trkpt lat="45.38207" lon="6.0058">
        <ele>436</ele>
        <time>2014-10-26T14:35:14Z</time>
      </trkpt>
      <trkpt lat="45.38227" lon="6.00593">
        <ele>436</ele>
        <time>2014-10-26T14:35:18Z</time>
      </trkpt>
      <trkpt lat="45.38241" lon="6.00601">
        <ele>436</ele>
        <time>2014-10-26T14:35:21Z</time>
      </trkpt>
      <trkpt lat="45.38253" lon="6.00597">
        <ele>444</ele>
        <time>2014-10-26T14:35:28Z</time>
      </trkpt>
      <trkpt lat="45.38255" lon="6.00592">
        <ele>449</ele>
        <time>2014-10-26T14:35:33Z</time>
      </trkpt>
      <trkpt lat="45.38268" lon="6.00596">
        <ele>450</ele>
        <time>2014-10-26T14:35:39Z</time>
      </trkpt>
      <trkpt lat="45.38284" lon="6.00599">
        <ele>449</ele>
        <time>2014-10-26T14:35:45Z</time>
      </trkpt>
      <trkpt lat="45.38297" lon="6.00615">
        <ele>450</ele>
        <time>2014-10-26T14:35:52Z</time>
      </trkpt>
      <trkpt lat="45.38315" lon="6.00633">
        <ele>448</ele>
        <time>2014-10-26T14:36:01Z</time>
      </trkpt>
      <trkpt lat="45.38317" lon="6.00637">
        <ele>452</ele>
        <time>2014-10-26T14:36:03Z</time>
      </trkpt>
      <trkpt lat="45.38333" lon="6.00647">
        <ele>459</ele>
        <time>2014-10-26T14:36:11Z</time>
      </trkpt>
      <trkpt lat="45.38346" lon="6.00655">
        <ele>458</ele>
        <time>2014-10-26T14:36:15Z</time>
      </trkpt>
      <trkpt lat="45.38373" lon="6.00685">
        <ele>459</ele>
        <time>2014-10-26T14:36:23Z</time>
      </trkpt>
      <trkpt lat="45.38379" lon="6.00689">
        <ele>459</ele>
        <time>2014-10-26T14:36:27Z</time>
      </trkpt>
      <trkpt lat="45.38395" lon="6.007">
        <ele>458</ele>
        <time>2014-10-26T14:36:33Z</time>
      </trkpt>
      <trkpt lat="45.38417" lon="6.00709">
        <ele>467</ele>
        <time>2014-10-26T14:36:41Z</time>
      </trkpt>
      <trkpt lat="45.38418" lon="6.00714">
        <ele>468</ele>
        <time>2014-10-26T14:36:45Z</time>
      </trkpt>
      <trkpt lat="45.38463" lon="6.00728">
        <ele>458</ele>
        <time>2014-10-26T14:36:55Z</time>
      </trkpt>
      <trkpt lat="45.38465" lon="6.00733">
        <ele>456</ele>
        <time>2014-10-26T14:36:57Z</time>
      </trkpt>
      <trkpt lat="45.38475" lon="6.0075">
        <ele>456</ele>
        <time>2014-10-26T14:37:04Z</time>
      </trkpt>
      <trkpt lat="45.38481" lon="6.00758">
        <ele>457</ele>
        <time>2014-10-26T14:37:09Z</time>
      </trkpt>
      <trkpt lat="45.38486" lon="6.00771">
        <ele>461</ele>
        <time>2014-10-26T14:37:20Z</time>
      </trkpt>
      <trkpt lat="45.38495" lon="6.00783">
        <ele>464</ele>
        <time>2014-10-26T14:37:26Z</time>
      </trkpt>
      <trkpt lat="45.38496" lon="6.00786">
        <ele>462</ele>
        <time>2014-10-26T14:37:27Z</time>
      </trkpt>
      <trkpt lat="45.38506" lon="6.00805">
        <ele>463</ele>
        <time>2014-10-26T14:37:35Z</time>
      </trkpt>
      <trkpt lat="45.38515" lon="6.00818">
        <ele>462</ele>
        <time>2014-10-26T14:37:39Z</time>
      </trkpt>
      <trkpt lat="45.38525" lon="6.0083">
        <ele>462</ele>
        <time>2014-10-26T14:37:45Z</time>
      </trkpt>
      <trkpt lat="45.38532" lon="6.00835">
        <ele>469</ele>
        <time>2014-10-26T14:37:51Z</time>
      </trkpt>
      <trkpt lat="45.38552" lon="6.0084">
        <ele>470</ele>
        <time>2014-10-26T14:38:01Z</time>
      </trkpt>
      <trkpt lat="45.38562" lon="6.00849">
        <ele>470</ele>
        <time>2014-10-26T14:38:07Z</time>
      </trkpt>
      <trkpt lat="45.38564" lon="6.00851">
        <ele>469</ele>
        <time>2014-10-26T14:38:09Z</time>
      </trkpt>
      <trkpt lat="45.38569" lon="6.00861">
        <ele>472</ele>
        <time>2014-10-26T14:38:15Z</time>
      </trkpt>
      <trkpt lat="45.38581" lon="6.00869">
        <ele>475</ele>
        <time>2014-10-26T14:38:21Z</time>
      </trkpt>
      <trkpt lat="45.38616" lon="6.00875">
        <ele>479</ele>
        <time>2014-10-26T14:38:31Z</time>
      </trkpt>
      <trkpt lat="45.38624" lon="6.00883">
        <ele>482</ele>
        <time>2014-10-26T14:38:34Z</time>
      </trkpt>
      <trkpt lat="45.38633" lon="6.00894">
        <ele>482</ele>
        <time>2014-10-26T14:38:39Z</time>
      </trkpt>
      <trkpt lat="45.38652" lon="6.00909">
        <ele>486</ele>
        <time>2014-10-26T14:38:47Z</time>
      </trkpt>
      <trkpt lat="45.38674" lon="6.00922">
        <ele>489</ele>
        <time>2014-10-26T14:38:56Z</time>
      </trkpt>
      <trkpt lat="45.38676" lon="6.00924">
        <ele>487</ele>
        <time>2014-10-26T14:38:57Z</time>
      </trkpt>
      <trkpt lat="45.38678" lon="6.00952">
        <ele>488</ele>
        <time>2014-10-26T14:39:08Z</time>
      </trkpt>
      <trkpt lat="45.38678" lon="6.00954">
        <ele>488</ele>
        <time>2014-10-26T14:39:09Z</time>
      </trkpt>
      <trkpt lat="45.3867" lon="6.00958">
        <ele>489</ele>
        <time>2014-10-26T14:39:15Z</time>
      </trkpt>
      <trkpt lat="45.38705" lon="6.00988">
        <ele>492</ele>
        <time>2014-10-26T14:39:23Z</time>
      </trkpt>
      <trkpt lat="45.38712" lon="6.00989">
        <ele>493</ele>
        <time>2014-10-26T14:39:27Z</time>
      </trkpt>
      <trkpt lat="45.38727" lon="6.01006">
        <ele>492</ele>
        <time>2014-10-26T14:39:38Z</time>
      </trkpt>
      <trkpt lat="45.3873" lon="6.01015">
        <ele>493</ele>
        <time>2014-10-26T14:39:42Z</time>
      </trkpt>
      <trkpt lat="45.38733" lon="6.01027">
        <ele>492</ele>
        <time>2014-10-26T14:39:46Z</time>
      </trkpt>
      <trkpt lat="45.38746" lon="6.01042">
        <ele>496</ele>
        <time>2014-10-26T14:39:51Z</time>
      </trkpt>
      <trkpt lat="45.38762" lon="6.01063">
        <ele>497</ele>
        <time>2014-10-26T14:40:02Z</time>
      </trkpt>
      <trkpt lat="45.38763" lon="6.01063">
        <ele>498</ele>
        <time>2014-10-26T14:40:03Z</time>
      </trkpt>
      <trkpt lat="45.38767" lon="6.01066">
        <ele>497</ele>
        <time>2014-10-26T14:40:09Z</time>
      </trkpt>
      <trkpt lat="45.38769" lon="6.01067">
        <ele>499</ele>
        <time>2014-10-26T14:40:16Z</time>
      </trkpt>
      <trkpt lat="45.38769" lon="6.01067">
        <ele>499</ele>
        <time>2014-10-26T14:40:21Z</time>
      </trkpt>
      <trkpt lat="45.38769" lon="6.01067">
        <ele>499</ele>
        <time>2014-10-26T14:40:27Z</time>
      </trkpt>
      <trkpt lat="45.38785" lon="6.01076">
        <ele>502</ele>
        <time>2014-10-26T14:40:33Z</time>
      </trkpt>
      <trkpt lat="45.38905" lon="6.01153">
        <ele>498</ele>
        <time>2014-10-26T14:40:57Z</time>
      </trkpt>
      <trkpt lat="45.38916" lon="6.01156">
        <ele>503</ele>
        <time>2014-10-26T14:41:04Z</time>
      </trkpt>
      <trkpt lat="45.38918" lon="6.01153">
        <ele>503</ele>
        <time>2014-10-26T14:41:11Z</time>
      </trkpt>
      <trkpt lat="45.38924" lon="6.0115">
        <ele>501</ele>
        <time>2014-10-26T14:41:16Z</time>
      </trkpt>
      <trkpt lat="45.3893" lon="6.01155">
        <ele>498</ele>
        <time>2014-10-26T14:41:21Z</time>
      </trkpt>
      <trkpt lat="45.38952" lon="6.01163">
        <ele>500</ele>
        <time>2014-10-26T14:41:27Z</time>
      </trkpt>
      <trkpt lat="45.38971" lon="6.01175">
        <ele>500</ele>
        <time>2014-10-26T14:41:35Z</time>
      </trkpt>
      <trkpt lat="45.38979" lon="6.01185">
        <ele>499</ele>
        <time>2014-10-26T14:41:39Z</time>
      </trkpt>
      <trkpt lat="45.38987" lon="6.01197">
        <ele>502</ele>
        <time>2014-10-26T14:41:45Z</time>
      </trkpt>
      <trkpt lat="45.39006" lon="6.01216">
        <ele>504</ele>
        <time>2014-10-26T14:41:56Z</time>
      </trkpt>
      <trkpt lat="45.39012" lon="6.01217">
        <ele>506</ele>
        <time>2014-10-26T14:41:59Z</time>
      </trkpt>
      <trkpt lat="45.3902" lon="6.01221">
        <ele>503</ele>
        <time>2014-10-26T14:42:03Z</time>
      </trkpt>
      <trkpt lat="45.39044" lon="6.01237">
        <ele>499</ele>
        <time>2014-10-26T14:42:12Z</time>
      </trkpt>
      <trkpt lat="45.39054" lon="6.01247">
        <ele>498</ele>
        <time>2014-10-26T14:42:15Z</time>
      </trkpt>
      <trkpt lat="45.39075" lon="6.01262">
        <ele>499</ele>
        <time>2014-10-26T14:42:22Z</time>
      </trkpt>
      <trkpt lat="45.39084" lon="6.01263">
        <ele>501</ele>
        <time>2014-10-26T14:42:27Z</time>
      </trkpt>
      <trkpt lat="45.39109" lon="6.01277">
        <ele>501</ele>
        <time>2014-10-26T14:42:34Z</time>
      </trkpt>
      <trkpt lat="45.39144" lon="6.01301">
        <ele>500</ele>
        <time>2014-10-26T14:42:42Z</time>
      </trkpt>
      <trkpt lat="45.39167" lon="6.01319">
        <ele>500</ele>
        <time>2014-10-26T14:42:50Z</time>
      </trkpt>
      <trkpt lat="45.39164" lon="6.01329">
        <ele>501</ele>
        <time>2014-10-26T14:42:55Z</time>
      </trkpt>
      <trkpt lat="45.39162" lon="6.01333">
        <ele>501</ele>
        <time>2014-10-26T14:42:57Z</time>
      </trkpt>
      <trkpt lat="45.3916" lon="6.01346">
        <ele>503</ele>
        <time>2014-10-26T14:43:03Z</time>
      </trkpt>
      <trkpt lat="45.39155" lon="6.01351">
        <ele>507</ele>
        <time>2014-10-26T14:43:09Z</time>
      </trkpt>
      <trkpt lat="45.39148" lon="6.01356">
        <ele>511</ele>
        <time>2014-10-26T14:43:15Z</time>
      </trkpt>
      <trkpt lat="45.39143" lon="6.01374">
        <ele>511</ele>
        <time>2014-10-26T14:43:26Z</time>
      </trkpt>
      <trkpt lat="45.39143" lon="6.01376">
        <ele>512</ele>
        <time>2014-10-26T14:43:27Z</time>
      </trkpt>
      <trkpt lat="45.39136" lon="6.01382">
        <ele>513</ele>
        <time>2014-10-26T14:43:33Z</time>
      </trkpt>
      <trkpt lat="45.39136" lon="6.01394">
        <ele>516</ele>
        <time>2014-10-26T14:43:39Z</time>
      </trkpt>
      <trkpt lat="45.39138" lon="6.01407">
        <ele>516</ele>
        <time>2014-10-26T14:43:45Z</time>
      </trkpt>
      <trkpt lat="45.39153" lon="6.01423">
        <ele>522</ele>
        <time>2014-10-26T14:43:53Z</time>
      </trkpt>
      <trkpt lat="45.39162" lon="6.01427">
        <ele>521</ele>
        <time>2014-10-26T14:43:58Z</time>
      </trkpt>
      <trkpt lat="45.39166" lon="6.01429">
        <ele>521</ele>
        <time>2014-10-26T14:44:03Z</time>
      </trkpt>
      <trkpt lat="45.39166" lon="6.01425">
        <ele>527</ele>
        <time>2014-10-26T14:44:11Z</time>
      </trkpt>
      <trkpt lat="45.39164" lon="6.01425">
        <ele>530</ele>
        <time>2014-10-26T14:44:15Z</time>
      </trkpt>
      <trkpt lat="45.39171" lon="6.01423">
        <ele>532</ele>
        <time>2014-10-26T14:44:21Z</time>
      </trkpt>
      <trkpt lat="45.39177" lon="6.01431">
        <ele>531</ele>
        <time>2014-10-26T14:44:27Z</time>
      </trkpt>
      <trkpt lat="45.39182" lon="6.01438">
        <ele>531</ele>
        <time>2014-10-26T14:44:33Z</time>
      </trkpt>
      <trkpt lat="45.39188" lon="6.01445">
        <ele>534</ele>
        <time>2014-10-26T14:44:40Z</time>
      </trkpt>
      <trkpt lat="45.39189" lon="6.01455">
        <ele>526</ele>
        <time>2014-10-26T14:44:48Z</time>
      </trkpt>
      <trkpt lat="45.39191" lon="6.01459">
        <ele>526</ele>
        <time>2014-10-26T14:44:54Z</time>
      </trkpt>
      <trkpt lat="45.39195" lon="6.01462">
        <ele>529</ele>
        <time>2014-10-26T14:45:00Z</time>
      </trkpt>
      <trkpt lat="45.39195" lon="6.01461">
        <ele>529</ele>
        <time>2014-10-26T14:45:03Z</time>
      </trkpt>
      <trkpt lat="45.39194" lon="6.01461">
        <ele>530</ele>
        <time>2014-10-26T14:45:09Z</time>
      </trkpt>
      <trkpt lat="45.39194" lon="6.0146">
        <ele>531</ele>
        <time>2014-10-26T14:45:15Z</time>
      </trkpt>
      <trkpt lat="45.39191" lon="6.01469">
        <ele>537</ele>
        <time>2014-10-26T14:45:24Z</time>
      </trkpt>
      <trkpt lat="45.39188" lon="6.01471">
        <ele>538</ele>
        <time>2014-10-26T14:45:27Z</time>
      </trkpt>
      <trkpt lat="45.39175" lon="6.01478">
        <ele>544</ele>
        <time>2014-10-26T14:45:35Z</time>
      </trkpt>
      <trkpt lat="45.39171" lon="6.01481">
        <ele>547</ele>
        <time>2014-10-26T14:45:39Z</time>
      </trkpt>
      <trkpt lat="45.3917" lon="6.0149">
        <ele>549</ele>
        <time>2014-10-26T14:45:45Z</time>
      </trkpt>
      <trkpt lat="45.39167" lon="6.01499">
        <ele>545</ele>
        <time>2014-10-26T14:45:51Z</time>
      </trkpt>
      <trkpt lat="45.39164" lon="6.01504">
        <ele>553</ele>
        <time>2014-10-26T14:46:01Z</time>
      </trkpt>
      <trkpt lat="45.39164" lon="6.01504">
        <ele>559</ele>
        <time>2014-10-26T14:46:03Z</time>
      </trkpt>
      <trkpt lat="45.39164" lon="6.01513">
        <ele>556</ele>
        <time>2014-10-26T14:46:12Z</time>
      </trkpt>
      <trkpt lat="45.39163" lon="6.01518">
        <ele>556</ele>
        <time>2014-10-26T14:46:15Z</time>
      </trkpt>
      <trkpt lat="45.39165" lon="6.01541">
        <ele>555</ele>
        <time>2014-10-26T14:46:24Z</time>
      </trkpt>
      <trkpt lat="45.3916" lon="6.01538">
        <ele>561</ele>
        <time>2014-10-26T14:46:28Z</time>
      </trkpt>
      <trkpt lat="45.39156" lon="6.01536">
        <ele>565</ele>
        <time>2014-10-26T14:46:33Z</time>
      </trkpt>
      <trkpt lat="45.39153" lon="6.01541">
        <ele>568</ele>
        <time>2014-10-26T14:46:43Z</time>
      </trkpt>
      <trkpt lat="45.39151" lon="6.01545">
        <ele>568</ele>
        <time>2014-10-26T14:46:45Z</time>
      </trkpt>
      <trkpt lat="45.39147" lon="6.01556">
        <ele>572</ele>
        <time>2014-10-26T14:46:51Z</time>
      </trkpt>
      <trkpt lat="45.39144" lon="6.01565">
        <ele>580</ele>
        <time>2014-10-26T14:46:57Z</time>
      </trkpt>
      <trkpt lat="45.39142" lon="6.0159">
        <ele>580</ele>
        <time>2014-10-26T14:47:08Z</time>
      </trkpt>
      <trkpt lat="45.39143" lon="6.01593">
        <ele>581</ele>
        <time>2014-10-26T14:47:09Z</time>
      </trkpt>
      <trkpt lat="45.39143" lon="6.01605">
        <ele>579</ele>
        <time>2014-10-26T14:47:15Z</time>
      </trkpt>
      <trkpt lat="45.39138" lon="6.01615">
        <ele>579</ele>
        <time>2014-10-26T14:47:21Z</time>
      </trkpt>
      <trkpt lat="45.39143" lon="6.01625">
        <ele>576</ele>
        <time>2014-10-26T14:47:31Z</time>
      </trkpt>
      <trkpt lat="45.3914" lon="6.01629">
        <ele>578</ele>
        <time>2014-10-26T14:47:38Z</time>
      </trkpt>
      <trkpt lat="45.3914" lon="6.01629">
        <ele>579</ele>
        <time>2014-10-26T14:47:39Z</time>
      </trkpt>
      <trkpt lat="45.39139" lon="6.01621">
        <ele>591</ele>
        <time>2014-10-26T14:47:45Z</time>
      </trkpt>
      <trkpt lat="45.39132" lon="6.01609">
        <ele>607</ele>
        <time>2014-10-26T14:47:51Z</time>
      </trkpt>
      <trkpt lat="45.39119" lon="6.01589">
        <ele>615</ele>
        <time>2014-10-26T14:47:58Z</time>
      </trkpt>
      <trkpt lat="45.39115" lon="6.01577">
        <ele>621</ele>
        <time>2014-10-26T14:48:03Z</time>
      </trkpt>
      <trkpt lat="45.39104" lon="6.0156">
        <ele>639</ele>
        <time>2014-10-26T14:48:12Z</time>
      </trkpt>
      <trkpt lat="45.391" lon="6.01552">
        <ele>642</ele>
        <time>2014-10-26T14:48:15Z</time>
      </trkpt>
      <trkpt lat="45.3908" lon="6.01537">
        <ele>635</ele>
        <time>2014-10-26T14:48:25Z</time>
      </trkpt>
      <trkpt lat="45.39075" lon="6.01537">
        <ele>632</ele>
        <time>2014-10-26T14:48:27Z</time>
      </trkpt>
      <trkpt lat="45.39063" lon="6.0153">
        <ele>628</ele>
        <time>2014-10-26T14:48:33Z</time>
      </trkpt>
      <trkpt lat="45.39042" lon="6.01521">
        <ele>611</ele>
        <time>2014-10-26T14:48:40Z</time>
      </trkpt>
      <trkpt lat="45.39032" lon="6.01517">
        <ele>608</ele>
        <time>2014-10-26T14:48:45Z</time>
      </trkpt>
      <trkpt lat="45.39019" lon="6.01518">
        <ele>604</ele>
        <time>2014-10-26T14:48:51Z</time>
      </trkpt>
      <trkpt lat="45.39" lon="6.01517">
        <ele>606</ele>
        <time>2014-10-26T14:48:59Z</time>
      </trkpt>
      <trkpt lat="45.38994" lon="6.01515">
        <ele>614</ele>
        <time>2014-10-26T14:49:05Z</time>
      </trkpt>
      <trkpt lat="45.3899" lon="6.01511">
        <ele>618</ele>
        <time>2014-10-26T14:49:10Z</time>
      </trkpt>
      <trkpt lat="45.38985" lon="6.01509">
        <ele>623</ele>
        <time>2014-10-26T14:49:15Z</time>
      </trkpt>
      <trkpt lat="45.38979" lon="6.01505">
        <ele>631</ele>
        <time>2014-10-26T14:49:21Z</time>
      </trkpt>
      <trkpt lat="45.38974" lon="6.015">
        <ele>636</ele>
        <time>2014-10-26T14:49:27Z</time>
      </trkpt>
      <trkpt lat="45.38958" lon="6.01494">
        <ele>625</ele>
        <time>2014-10-26T14:49:33Z</time>
      </trkpt>
      <trkpt lat="45.38947" lon="6.01497">
        <ele>624</ele>
        <time>2014-10-26T14:49:39Z</time>
      </trkpt>
      <trkpt lat="45.38941" lon="6.015">
        <ele>624</ele>
        <time>2014-10-26T14:49:45Z</time>
      </trkpt>
      <trkpt lat="45.38937" lon="6.01504">
        <ele>623</ele>
        <time>2014-10-26T14:49:52Z</time>
      </trkpt>
      <trkpt lat="45.38927" lon="6.015">
        <ele>627</ele>
        <time>2014-10-26T14:50:01Z</time>
      </trkpt>
      <trkpt lat="45.38923" lon="6.01501">
        <ele>624</ele>
        <time>2014-10-26T14:50:06Z</time>
      </trkpt>
      <trkpt lat="45.38921" lon="6.01503">
        <ele>623</ele>
        <time>2014-10-26T14:50:09Z</time>
      </trkpt>
      <trkpt lat="45.38916" lon="6.01504">
        <ele>624</ele>
        <time>2014-10-26T14:50:15Z</time>
      </trkpt>
      <trkpt lat="45.38911" lon="6.01511">
        <ele>624</ele>
        <time>2014-10-26T14:50:21Z</time>
      </trkpt>
      <trkpt lat="45.38901" lon="6.01527">
        <ele>628</ele>
        <time>2014-10-26T14:50:30Z</time>
      </trkpt>
      <trkpt lat="45.38897" lon="6.0153">
        <ele>628</ele>
        <time>2014-10-26T14:50:33Z</time>
      </trkpt>
      <trkpt lat="45.3888" lon="6.01535">
        <ele>633</ele>
        <time>2014-10-26T14:50:39Z</time>
      </trkpt>
      <trkpt lat="45.38868" lon="6.01558">
        <ele>634</ele>
        <time>2014-10-26T14:50:50Z</time>
      </trkpt>
      <trkpt lat="45.3886" lon="6.01567">
        <ele>636</ele>
        <time>2014-10-26T14:50:55Z</time>
      </trkpt>
      <trkpt lat="45.38856" lon="6.01566">
        <ele>634</ele>
        <time>2014-10-26T14:51:00Z</time>
      </trkpt>
      <trkpt lat="45.3885" lon="6.01569">
        <ele>638</ele>
        <time>2014-10-26T14:51:07Z</time>
      </trkpt>
      <trkpt lat="45.38849" lon="6.01573">
        <ele>637</ele>
        <time>2014-10-26T14:51:09Z</time>
      </trkpt>
      <trkpt lat="45.38851" lon="6.0159">
        <ele>641</ele>
        <time>2014-10-26T14:51:18Z</time>
      </trkpt>
      <trkpt lat="45.38851" lon="6.01599">
        <ele>634</ele>
        <time>2014-10-26T14:51:26Z</time>
      </trkpt>
      <trkpt lat="45.38852" lon="6.016">
        <ele>635</ele>
        <time>2014-10-26T14:51:28Z</time>
      </trkpt>
      <trkpt lat="45.38856" lon="6.01602">
        <ele>638</ele>
        <time>2014-10-26T14:51:33Z</time>
      </trkpt>
      <trkpt lat="45.38857" lon="6.01599">
        <ele>643</ele>
        <time>2014-10-26T14:51:39Z</time>
      </trkpt>
      <trkpt lat="45.38844" lon="6.01601">
        <ele>646</ele>
        <time>2014-10-26T14:51:46Z</time>
      </trkpt>
      <trkpt lat="45.3884" lon="6.0161">
        <ele>645</ele>
        <time>2014-10-26T14:51:51Z</time>
      </trkpt>
      <trkpt lat="45.38835" lon="6.01618">
        <ele>641</ele>
        <time>2014-10-26T14:51:58Z</time>
      </trkpt>
      <trkpt lat="45.38835" lon="6.01611">
        <ele>646</ele>
        <time>2014-10-26T14:52:07Z</time>
      </trkpt>
      <trkpt lat="45.38832" lon="6.01607">
        <ele>648</ele>
        <time>2014-10-26T14:52:09Z</time>
      </trkpt>
      <trkpt lat="45.38796" lon="6.01587">
        <ele>637</ele>
        <time>2014-10-26T14:52:20Z</time>
      </trkpt>
      <trkpt lat="45.38789" lon="6.0158">
        <ele>641</ele>
        <time>2014-10-26T14:52:23Z</time>
      </trkpt>
      <trkpt lat="45.38773" lon="6.01568">
        <ele>640</ele>
        <time>2014-10-26T14:52:28Z</time>
      </trkpt>
      <trkpt lat="45.3875" lon="6.01555">
        <ele>635</ele>
        <time>2014-10-26T14:52:33Z</time>
      </trkpt>
      <trkpt lat="45.38735" lon="6.01543">
        <ele>636</ele>
        <time>2014-10-26T14:52:39Z</time>
      </trkpt>
      <trkpt lat="45.38717" lon="6.01533">
        <ele>630</ele>
        <time>2014-10-26T14:52:45Z</time>
      </trkpt>
      <trkpt lat="45.38676" lon="6.01522">
        <ele>623</ele>
        <time>2014-10-26T14:52:56Z</time>
      </trkpt>
      <trkpt lat="45.38665" lon="6.01523">
        <ele>628</ele>
        <time>2014-10-26T14:52:59Z</time>
      </trkpt>
      <trkpt lat="45.38652" lon="6.01524">
        <ele>627</ele>
        <time>2014-10-26T14:53:03Z</time>
      </trkpt>
      <trkpt lat="45.3864" lon="6.01524">
        <ele>625</ele>
        <time>2014-10-26T14:53:09Z</time>
      </trkpt>
      <trkpt lat="45.38641" lon="6.0151">
        <ele>629</ele>
        <time>2014-10-26T14:53:15Z</time>
      </trkpt>
      <trkpt lat="45.38642" lon="6.01483">
        <ele>641</ele>
        <time>2014-10-26T14:53:26Z</time>
      </trkpt>
      <trkpt lat="45.38629" lon="6.01475">
        <ele>647</ele>
        <time>2014-10-26T14:53:31Z</time>
      </trkpt>
      <trkpt lat="45.38625" lon="6.01472">
        <ele>653</ele>
        <time>2014-10-26T14:53:33Z</time>
      </trkpt>
      <trkpt lat="45.38605" lon="6.01451">
        <ele>672</ele>
        <time>2014-10-26T14:53:41Z</time>
      </trkpt>
      <trkpt lat="45.38587" lon="6.01428">
        <ele>672</ele>
        <time>2014-10-26T14:53:49Z</time>
      </trkpt>
      <trkpt lat="45.38581" lon="6.01422">
        <ele>670</ele>
        <time>2014-10-26T14:53:51Z</time>
      </trkpt>
      <trkpt lat="45.38549" lon="6.014">
        <ele>662</ele>
        <time>2014-10-26T14:54:02Z</time>
      </trkpt>
      <trkpt lat="45.38545" lon="6.01398">
        <ele>659</ele>
        <time>2014-10-26T14:54:03Z</time>
      </trkpt>
      <trkpt lat="45.38522" lon="6.01391">
        <ele>658</ele>
        <time>2014-10-26T14:54:09Z</time>
      </trkpt>
      <trkpt lat="45.38504" lon="6.01385">
        <ele>659</ele>
        <time>2014-10-26T14:54:15Z</time>
      </trkpt>
      <trkpt lat="45.38484" lon="6.01373">
        <ele>657</ele>
        <time>2014-10-26T14:54:26Z</time>
      </trkpt>
      <trkpt lat="45.3848" lon="6.0137">
        <ele>660</ele>
        <time>2014-10-26T14:54:28Z</time>
      </trkpt>
      <trkpt lat="45.38471" lon="6.01364">
        <ele>660</ele>
        <time>2014-10-26T14:54:33Z</time>
      </trkpt>
      <trkpt lat="45.38446" lon="6.01353">
        <ele>656</ele>
        <time>2014-10-26T14:54:42Z</time>
      </trkpt>
      <trkpt lat="45.38434" lon="6.01356">
        <ele>657</ele>
        <time>2014-10-26T14:54:46Z</time>
      </trkpt>
      <trkpt lat="45.38424" lon="6.01362">
        <ele>658</ele>
        <time>2014-10-26T14:54:51Z</time>
      </trkpt>
      <trkpt lat="45.38423" lon="6.01379">
        <ele>661</ele>
        <time>2014-10-26T14:54:57Z</time>
      </trkpt>
      <trkpt lat="45.38416" lon="6.01377">
        <ele>670</ele>
        <time>2014-10-26T14:55:08Z</time>
      </trkpt>
      <trkpt lat="45.38415" lon="6.01378">
        <ele>669</ele>
        <time>2014-10-26T14:55:10Z</time>
      </trkpt>
      <trkpt lat="45.38414" lon="6.01379">
        <ele>670</ele>
        <time>2014-10-26T14:55:15Z</time>
      </trkpt>
      <trkpt lat="45.38424" lon="6.01402">
        <ele>660</ele>
        <time>2014-10-26T14:55:26Z</time>
      </trkpt>
      <trkpt lat="45.38425" lon="6.01403">
        <ele>660</ele>
        <time>2014-10-26T14:55:27Z</time>
      </trkpt>
      <trkpt lat="45.38425" lon="6.01403">
        <ele>658</ele>
        <time>2014-10-26T14:55:33Z</time>
      </trkpt>
      <trkpt lat="45.38425" lon="6.01402">
        <ele>658</ele>
        <time>2014-10-26T14:55:39Z</time>
      </trkpt>
      <trkpt lat="45.38425" lon="6.01403">
        <ele>658</ele>
        <time>2014-10-26T14:55:45Z</time>
      </trkpt>
      <trkpt lat="45.38425" lon="6.01403">
        <ele>658</ele>
        <time>2014-10-26T14:55:51Z</time>
      </trkpt>
      <trkpt lat="45.38409" lon="6.01402">
        <ele>667</ele>
        <time>2014-10-26T14:56:02Z</time>
      </trkpt>
      <trkpt lat="45.38407" lon="6.01403">
        <ele>666</ele>
        <time>2014-10-26T14:56:03Z</time>
      </trkpt>
      <trkpt lat="45.38395" lon="6.01412">
        <ele>664</ele>
        <time>2014-10-26T14:56:09Z</time>
      </trkpt>
      <trkpt lat="45.38384" lon="6.01409">
        <ele>670</ele>
        <time>2014-10-26T14:56:17Z</time>
      </trkpt>
      <trkpt lat="45.38382" lon="6.01421">
        <ele>666</ele>
        <time>2014-10-26T14:56:21Z</time>
      </trkpt>
      <trkpt lat="45.3837" lon="6.01419">
        <ele>680</ele>
        <time>2014-10-26T14:56:28Z</time>
      </trkpt>
      <trkpt lat="45.38369" lon="6.0143">
        <ele>686</ele>
        <time>2014-10-26T14:56:38Z</time>
      </trkpt>
      <trkpt lat="45.3837" lon="6.01431">
        <ele>687</ele>
        <time>2014-10-26T14:56:44Z</time>
      </trkpt>
      <trkpt lat="45.3837" lon="6.01431">
        <ele>687</ele>
        <time>2014-10-26T14:56:46Z</time>
      </trkpt>
      <trkpt lat="45.38369" lon="6.0143">
        <ele>685</ele>
        <time>2014-10-26T14:56:51Z</time>
      </trkpt>
      <trkpt lat="45.38368" lon="6.0143">
        <ele>685</ele>
        <time>2014-10-26T14:56:57Z</time>
      </trkpt>
      <trkpt lat="45.38368" lon="6.01429">
        <ele>685</ele>
        <time>2014-10-26T14:57:03Z</time>
      </trkpt>
      <trkpt lat="45.38368" lon="6.01429">
        <ele>685</ele>
        <time>2014-10-26T14:57:09Z</time>
      </trkpt>
      <trkpt lat="45.38367" lon="6.01429">
        <ele>685</ele>
        <time>2014-10-26T14:57:15Z</time>
      </trkpt>
      <trkpt lat="45.38327" lon="6.01404">
        <ele>686</ele>
        <time>2014-10-26T14:57:22Z</time>
      </trkpt>
      <trkpt lat="45.3832" lon="6.01394">
        <ele>702</ele>
        <time>2014-10-26T14:57:27Z</time>
      </trkpt>
      <trkpt lat="45.38306" lon="6.01383">
        <ele>703</ele>
        <time>2014-10-26T14:57:33Z</time>
      </trkpt>
      <trkpt lat="45.38296" lon="6.01376">
        <ele>702</ele>
        <time>2014-10-26T14:57:43Z</time>
      </trkpt>
      <trkpt lat="45.38295" lon="6.01373">
        <ele>701</ele>
        <time>2014-10-26T14:57:46Z</time>
      </trkpt>
      <trkpt lat="45.38289" lon="6.01365">
        <ele>710</ele>
        <time>2014-10-26T14:57:54Z</time>
      </trkpt>
      <trkpt lat="45.38281" lon="6.01352">
        <ele>715</ele>
        <time>2014-10-26T14:57:58Z</time>
      </trkpt>
      <trkpt lat="45.38272" lon="6.01346">
        <ele>719</ele>
        <time>2014-10-26T14:58:03Z</time>
      </trkpt>
      <trkpt lat="45.38251" lon="6.01337">
        <ele>735</ele>
        <time>2014-10-26T14:58:12Z</time>
      </trkpt>
      <trkpt lat="45.38248" lon="6.01332">
        <ele>748</ele>
        <time>2014-10-26T14:58:18Z</time>
      </trkpt>
      <trkpt lat="45.38246" lon="6.01331">
        <ele>751</ele>
        <time>2014-10-26T14:58:21Z</time>
      </trkpt>
      <trkpt lat="45.38227" lon="6.01326">
        <ele>753</ele>
        <time>2014-10-26T14:58:30Z</time>
      </trkpt>
      <trkpt lat="45.3822" lon="6.01324">
        <ele>753</ele>
        <time>2014-10-26T14:58:33Z</time>
      </trkpt>
      <trkpt lat="45.38212" lon="6.0132">
        <ele>756</ele>
        <time>2014-10-26T14:58:40Z</time>
      </trkpt>
      <trkpt lat="45.38204" lon="6.0131">
        <ele>754</ele>
        <time>2014-10-26T14:58:45Z</time>
      </trkpt>
      <trkpt lat="45.38187" lon="6.01308">
        <ele>754</ele>
        <time>2014-10-26T14:58:55Z</time>
      </trkpt>
      <trkpt lat="45.38183" lon="6.01298">
        <ele>757</ele>
        <time>2014-10-26T14:59:01Z</time>
      </trkpt>
      <trkpt lat="45.3818" lon="6.01295">
        <ele>758</ele>
        <time>2014-10-26T14:59:03Z</time>
      </trkpt>
      <trkpt lat="45.38172" lon="6.01281">
        <ele>760</ele>
        <time>2014-10-26T14:59:09Z</time>
      </trkpt>
      <trkpt lat="45.38159" lon="6.01271">
        <ele>763</ele>
        <time>2014-10-26T14:59:15Z</time>
      </trkpt>
      <trkpt lat="45.38143" lon="6.01252">
        <ele>772</ele>
        <time>2014-10-26T14:59:25Z</time>
      </trkpt>
      <trkpt lat="45.38133" lon="6.01245">
        <ele>777</ele>
        <time>2014-10-26T14:59:32Z</time>
      </trkpt>
      <trkpt lat="45.38132" lon="6.01244">
        <ele>777</ele>
        <time>2014-10-26T14:59:33Z</time>
      </trkpt>
      <trkpt lat="45.38119" lon="6.01236">
        <ele>777</ele>
        <time>2014-10-26T14:59:40Z</time>
      </trkpt>
      <trkpt lat="45.38111" lon="6.01231">
        <ele>778</ele>
        <time>2014-10-26T14:59:45Z</time>
      </trkpt>
      <trkpt lat="45.38101" lon="6.01227">
        <ele>781</ele>
        <time>2014-10-26T14:59:51Z</time>
      </trkpt>
      <trkpt lat="45.38085" lon="6.01218">
        <ele>780</ele>
        <time>2014-10-26T15:00:00Z</time>
      </trkpt>
      <trkpt lat="45.38078" lon="6.01216">
        <ele>782</ele>
        <time>2014-10-26T15:00:03Z</time>
      </trkpt>
      <trkpt lat="45.38066" lon="6.01216">
        <ele>786</ele>
        <time>2014-10-26T15:00:09Z</time>
      </trkpt>
      <trkpt lat="45.38054" lon="6.01213">
        <ele>789</ele>
        <time>2014-10-26T15:00:15Z</time>
      </trkpt>
      <trkpt lat="45.38043" lon="6.01213">
        <ele>787</ele>
        <time>2014-10-26T15:00:21Z</time>
      </trkpt>
      <trkpt lat="45.38036" lon="6.0121">
        <ele>796</ele>
        <time>2014-10-26T15:00:30Z</time>
      </trkpt>
      <trkpt lat="45.38033" lon="6.01207">
        <ele>794</ele>
        <time>2014-10-26T15:00:33Z</time>
      </trkpt>
      <trkpt lat="45.38031" lon="6.01207">
        <ele>798</ele>
        <time>2014-10-26T15:00:39Z</time>
      </trkpt>
      <trkpt lat="45.3803" lon="6.01201">
        <ele>801</ele>
        <time>2014-10-26T15:00:45Z</time>
      </trkpt>
      <trkpt lat="45.38017" lon="6.01197">
        <ele>806</ele>
        <time>2014-10-26T15:00:51Z</time>
      </trkpt>
      <trkpt lat="45.38005" lon="6.01186">
        <ele>813</ele>
        <time>2014-10-26T15:00:57Z</time>
      </trkpt>
      <trkpt lat="45.38" lon="6.01184">
        <ele>815</ele>
        <time>2014-10-26T15:01:03Z</time>
      </trkpt>
      <trkpt lat="45.37979" lon="6.01174">
        <ele>825</ele>
        <time>2014-10-26T15:01:14Z</time>
      </trkpt>
      <trkpt lat="45.37973" lon="6.01182">
        <ele>826</ele>
        <time>2014-10-26T15:01:20Z</time>
      </trkpt>
      <trkpt lat="45.37968" lon="6.0118">
        <ele>827</ele>
        <time>2014-10-26T15:01:24Z</time>
      </trkpt>
      <trkpt lat="45.37967" lon="6.01176">
        <ele>828</ele>
        <time>2014-10-26T15:01:27Z</time>
      </trkpt>
      <trkpt lat="45.37957" lon="6.01168">
        <ele>823</ele>
        <time>2014-10-26T15:01:35Z</time>
      </trkpt>
      <trkpt lat="45.37949" lon="6.01167">
        <ele>831</ele>
        <time>2014-10-26T15:01:39Z</time>
      </trkpt>
      <trkpt lat="45.37935" lon="6.01172">
        <ele>826</ele>
        <time>2014-10-26T15:01:45Z</time>
      </trkpt>
      <trkpt lat="45.37927" lon="6.01179">
        <ele>823</ele>
        <time>2014-10-26T15:01:51Z</time>
      </trkpt>
      <trkpt lat="45.37928" lon="6.01182">
        <ele>820</ele>
        <time>2014-10-26T15:01:58Z</time>
      </trkpt>
      <trkpt lat="45.37915" lon="6.0118">
        <ele>819</ele>
        <time>2014-10-26T15:02:04Z</time>
      </trkpt>
      <trkpt lat="45.37904" lon="6.01179">
        <ele>824</ele>
        <time>2014-10-26T15:02:14Z</time>
      </trkpt>
      <trkpt lat="45.37905" lon="6.0118">
        <ele>826</ele>
        <time>2014-10-26T15:02:15Z</time>
      </trkpt>
      <trkpt lat="45.37896" lon="6.01181">
        <ele>834</ele>
        <time>2014-10-26T15:02:23Z</time>
      </trkpt>
      <trkpt lat="45.37893" lon="6.01179">
        <ele>837</ele>
        <time>2014-10-26T15:02:28Z</time>
      </trkpt>
      <trkpt lat="45.3788" lon="6.0117">
        <ele>836</ele>
        <time>2014-10-26T15:02:34Z</time>
      </trkpt>
      <trkpt lat="45.37871" lon="6.01175">
        <ele>835</ele>
        <time>2014-10-26T15:02:40Z</time>
      </trkpt>
      <trkpt lat="45.37873" lon="6.01181">
        <ele>835</ele>
        <time>2014-10-26T15:02:45Z</time>
      </trkpt>
      <trkpt lat="45.37876" lon="6.01192">
        <ele>838</ele>
        <time>2014-10-26T15:02:52Z</time>
      </trkpt>
      <trkpt lat="45.3787" lon="6.01189">
        <ele>837</ele>
        <time>2014-10-26T15:02:56Z</time>
      </trkpt>
      <trkpt lat="45.3786" lon="6.01181">
        <ele>846</ele>
        <time>2014-10-26T15:03:02Z</time>
      </trkpt>
      <trkpt lat="45.37856" lon="6.01181">
        <ele>851</ele>
        <time>2014-10-26T15:03:08Z</time>
      </trkpt>
      <trkpt lat="45.37843" lon="6.01173">
        <ele>851</ele>
        <time>2014-10-26T15:03:17Z</time>
      </trkpt>
      <trkpt lat="45.37836" lon="6.01174">
        <ele>856</ele>
        <time>2014-10-26T15:03:24Z</time>
      </trkpt>
      <trkpt lat="45.37834" lon="6.01174">
        <ele>854</ele>
        <time>2014-10-26T15:03:27Z</time>
      </trkpt>
      <trkpt lat="45.37824" lon="6.01193">
        <ele>858</ele>
        <time>2014-10-26T15:03:34Z</time>
      </trkpt>
      <trkpt lat="45.37818" lon="6.01193">
        <ele>860</ele>
        <time>2014-10-26T15:03:40Z</time>
      </trkpt>
      <trkpt lat="45.37816" lon="6.01205">
        <ele>856</ele>
        <time>2014-10-26T15:03:46Z</time>
      </trkpt>
      <trkpt lat="45.37825" lon="6.01217">
        <ele>862</ele>
        <time>2014-10-26T15:03:51Z</time>
      </trkpt>
      <trkpt lat="45.37828" lon="6.01222">
        <ele>867</ele>
        <time>2014-10-26T15:03:57Z</time>
      </trkpt>
      <trkpt lat="45.37831" lon="6.01226">
        <ele>872</ele>
        <time>2014-10-26T15:04:04Z</time>
      </trkpt>
      <trkpt lat="45.37833" lon="6.01234">
        <ele>870</ele>
        <time>2014-10-26T15:04:08Z</time>
      </trkpt>
      <trkpt lat="45.37827" lon="6.01246">
        <ele>873</ele>
        <time>2014-10-26T15:04:18Z</time>
      </trkpt>
      <trkpt lat="45.37823" lon="6.01247">
        <ele>872</ele>
        <time>2014-10-26T15:04:21Z</time>
      </trkpt>
      <trkpt lat="45.37799" lon="6.01255">
        <ele>865</ele>
        <time>2014-10-26T15:04:28Z</time>
      </trkpt>
      <trkpt lat="45.3779" lon="6.01262">
        <ele>862</ele>
        <time>2014-10-26T15:04:35Z</time>
      </trkpt>
      <trkpt lat="45.37789" lon="6.01265">
        <ele>865</ele>
        <time>2014-10-26T15:04:38Z</time>
      </trkpt>
      <trkpt lat="45.37777" lon="6.01266">
        <ele>867</ele>
        <time>2014-10-26T15:04:45Z</time>
      </trkpt>
      <trkpt lat="45.37761" lon="6.01261">
        <ele>865</ele>
        <time>2014-10-26T15:04:51Z</time>
      </trkpt>
      <trkpt lat="45.37756" lon="6.01275">
        <ele>866</ele>
        <time>2014-10-26T15:04:56Z</time>
      </trkpt>
      <trkpt lat="45.37754" lon="6.0129">
        <ele>871</ele>
        <time>2014-10-26T15:05:03Z</time>
      </trkpt>
      <trkpt lat="45.37752" lon="6.01283">
        <ele>878</ele>
        <time>2014-10-26T15:05:08Z</time>
      </trkpt>
      <trkpt lat="45.37751" lon="6.01292">
        <ele>880</ele>
        <time>2014-10-26T15:05:15Z</time>
      </trkpt>
      <trkpt lat="45.37744" lon="6.01303">
        <ele>878</ele>
        <time>2014-10-26T15:05:24Z</time>
      </trkpt>
      <trkpt lat="45.37743" lon="6.01302">
        <ele>876</ele>
        <time>2014-10-26T15:05:26Z</time>
      </trkpt>
      <trkpt lat="45.3773" lon="6.01306">
        <ele>876</ele>
        <time>2014-10-26T15:05:36Z</time>
      </trkpt>
      <trkpt lat="45.37723" lon="6.01304">
        <ele>879</ele>
        <time>2014-10-26T15:05:38Z</time>
      </trkpt>
      <trkpt lat="45.37676" lon="6.01285">
        <ele>885</ele>
        <time>2014-10-26T15:05:49Z</time>
      </trkpt>
      <trkpt lat="45.37674" lon="6.01287">
        <ele>885</ele>
        <time>2014-10-26T15:05:50Z</time>
      </trkpt>
      <trkpt lat="45.37659" lon="6.01289">
        <ele>889</ele>
        <time>2014-10-26T15:05:57Z</time>
      </trkpt>
      <trkpt lat="45.37632" lon="6.01289">
        <ele>885</ele>
        <time>2014-10-26T15:06:05Z</time>
      </trkpt>
      <trkpt lat="45.37614" lon="6.01283">
        <ele>886</ele>
        <time>2014-10-26T15:06:08Z</time>
      </trkpt>
      <trkpt lat="45.37588" lon="6.01305">
        <ele>881</ele>
        <time>2014-10-26T15:06:19Z</time>
      </trkpt>
      <trkpt lat="45.37588" lon="6.01307">
        <ele>879</ele>
        <time>2014-10-26T15:06:20Z</time>
      </trkpt>
      <trkpt lat="45.37569" lon="6.01328">
        <ele>865</ele>
        <time>2014-10-26T15:06:31Z</time>
      </trkpt>
      <trkpt lat="45.37568" lon="6.01331">
        <ele>867</ele>
        <time>2014-10-26T15:06:32Z</time>
      </trkpt>
      <trkpt lat="45.37552" lon="6.0134">
        <ele>861</ele>
        <time>2014-10-26T15:06:38Z</time>
      </trkpt>
      <trkpt lat="45.37526" lon="6.01364">
        <ele>855</ele>
        <time>2014-10-26T15:06:48Z</time>
      </trkpt>
      <trkpt lat="45.37523" lon="6.0137">
        <ele>851</ele>
        <time>2014-10-26T15:06:50Z</time>
      </trkpt>
      <trkpt lat="45.37518" lon="6.01396">
        <ele>847</ele>
        <time>2014-10-26T15:06:58Z</time>
      </trkpt>
      <trkpt lat="45.37513" lon="6.01403">
        <ele>846</ele>
        <time>2014-10-26T15:07:03Z</time>
      </trkpt>
      <trkpt lat="45.37523" lon="6.01422">
        <ele>846</ele>
        <time>2014-10-26T15:07:13Z</time>
      </trkpt>
      <trkpt lat="45.37526" lon="6.01426">
        <ele>847</ele>
        <time>2014-10-26T15:07:14Z</time>
      </trkpt>
      <trkpt lat="45.37539" lon="6.01445">
        <ele>852</ele>
        <time>2014-10-26T15:07:20Z</time>
      </trkpt>
      <trkpt lat="45.37543" lon="6.0145">
        <ele>848</ele>
        <time>2014-10-26T15:07:26Z</time>
      </trkpt>
      <trkpt lat="45.37551" lon="6.01458">
        <ele>845</ele>
        <time>2014-10-26T15:07:37Z</time>
      </trkpt>
      <trkpt lat="45.37552" lon="6.01459">
        <ele>846</ele>
        <time>2014-10-26T15:07:38Z</time>
      </trkpt>
      <trkpt lat="45.37553" lon="6.0146">
        <ele>846</ele>
        <time>2014-10-26T15:07:46Z</time>
      </trkpt>
      <trkpt lat="45.3756" lon="6.0147">
        <ele>843</ele>
        <time>2014-10-26T15:07:50Z</time>
      </trkpt>
      <trkpt lat="45.37574" lon="6.01486">
        <ele>850</ele>
        <time>2014-10-26T15:07:56Z</time>
      </trkpt>
      <trkpt lat="45.37588" lon="6.01495">
        <ele>853</ele>
        <time>2014-10-26T15:08:02Z</time>
      </trkpt>
      <trkpt lat="45.37607" lon="6.01517">
        <ele>853</ele>
        <time>2014-10-26T15:08:09Z</time>
      </trkpt>
      <trkpt lat="45.37622" lon="6.01537">
        <ele>847</ele>
        <time>2014-10-26T15:08:14Z</time>
      </trkpt>
      <trkpt lat="45.37638" lon="6.01555">
        <ele>845</ele>
        <time>2014-10-26T15:08:21Z</time>
      </trkpt>
      <trkpt lat="45.37648" lon="6.01562">
        <ele>846</ele>
        <time>2014-10-26T15:08:26Z</time>
      </trkpt>
      <trkpt lat="45.37659" lon="6.01558">
        <ele>850</ele>
        <time>2014-10-26T15:08:32Z</time>
      </trkpt>
      <trkpt lat="45.37673" lon="6.01551">
        <ele>845</ele>
        <time>2014-10-26T15:08:41Z</time>
      </trkpt>
      <trkpt lat="45.3768" lon="6.01556">
        <ele>836</ele>
        <time>2014-10-26T15:08:46Z</time>
      </trkpt>
      <trkpt lat="45.3769" lon="6.01555">
        <ele>826</ele>
        <time>2014-10-26T15:08:50Z</time>
      </trkpt>
      <trkpt lat="45.37715" lon="6.01557">
        <ele>817</ele>
        <time>2014-10-26T15:09:01Z</time>
      </trkpt>
      <trkpt lat="45.37728" lon="6.0156">
        <ele>817</ele>
        <time>2014-10-26T15:09:07Z</time>
      </trkpt>
      <trkpt lat="45.37734" lon="6.01563">
        <ele>825</ele>
        <time>2014-10-26T15:09:11Z</time>
      </trkpt>
      <trkpt lat="45.37736" lon="6.01565">
        <ele>830</ele>
        <time>2014-10-26T15:09:14Z</time>
      </trkpt>
      <trkpt lat="45.37746" lon="6.01573">
        <ele>834</ele>
        <time>2014-10-26T15:09:22Z</time>
      </trkpt>
      <trkpt lat="45.37763" lon="6.01579">
        <ele>836</ele>
        <time>2014-10-26T15:09:31Z</time>
      </trkpt>
      <trkpt lat="45.37768" lon="6.01579">
        <ele>837</ele>
        <time>2014-10-26T15:09:34Z</time>
      </trkpt>
      <trkpt lat="45.37775" lon="6.0158">
        <ele>840</ele>
        <time>2014-10-26T15:09:38Z</time>
      </trkpt>
      <trkpt lat="45.37782" lon="6.01588">
        <ele>843</ele>
        <time>2014-10-26T15:09:46Z</time>
      </trkpt>
      <trkpt lat="45.37787" lon="6.01593">
        <ele>844</ele>
        <time>2014-10-26T15:09:50Z</time>
      </trkpt>
      <trkpt lat="45.37802" lon="6.01608">
        <ele>845</ele>
        <time>2014-10-26T15:09:59Z</time>
      </trkpt>
      <trkpt lat="45.37805" lon="6.01617">
        <ele>848</ele>
        <time>2014-10-26T15:10:02Z</time>
      </trkpt>
      <trkpt lat="45.3781" lon="6.01634">
        <ele>851</ele>
        <time>2014-10-26T15:10:09Z</time>
      </trkpt>
      <trkpt lat="45.37813" lon="6.01644">
        <ele>854</ele>
        <time>2014-10-26T15:10:15Z</time>
      </trkpt>
      <trkpt lat="45.37817" lon="6.01667">
        <ele>858</ele>
        <time>2014-10-26T15:10:23Z</time>
      </trkpt>
      <trkpt lat="45.37819" lon="6.01675">
        <ele>859</ele>
        <time>2014-10-26T15:10:26Z</time>
      </trkpt>
      <trkpt lat="45.37818" lon="6.0169">
        <ele>864</ele>
        <time>2014-10-26T15:10:32Z</time>
      </trkpt>
      <trkpt lat="45.37816" lon="6.0171">
        <ele>867</ele>
        <time>2014-10-26T15:10:39Z</time>
      </trkpt>
      <trkpt lat="45.37818" lon="6.01725">
        <ele>869</ele>
        <time>2014-10-26T15:10:44Z</time>
      </trkpt>
      <trkpt lat="45.37825" lon="6.01757">
        <ele>866</ele>
        <time>2014-10-26T15:10:54Z</time>
      </trkpt>
      <trkpt lat="45.37827" lon="6.0177">
        <ele>870</ele>
        <time>2014-10-26T15:10:58Z</time>
      </trkpt>
      <trkpt lat="45.37828" lon="6.0178">
        <ele>871</ele>
        <time>2014-10-26T15:11:03Z</time>
      </trkpt>
      <trkpt lat="45.37827" lon="6.01802">
        <ele>870</ele>
        <time>2014-10-26T15:11:12Z</time>
      </trkpt>
      <trkpt lat="45.37828" lon="6.01811">
        <ele>869</ele>
        <time>2014-10-26T15:11:14Z</time>
      </trkpt>
      <trkpt lat="45.3783" lon="6.01831">
        <ele>874</ele>
        <time>2014-10-26T15:11:20Z</time>
      </trkpt>
      <trkpt lat="45.37834" lon="6.01856">
        <ele>873</ele>
        <time>2014-10-26T15:11:27Z</time>
      </trkpt>
      <trkpt lat="45.37834" lon="6.01868">
        <ele>875</ele>
        <time>2014-10-26T15:11:32Z</time>
      </trkpt>
      <trkpt lat="45.37835" lon="6.01884">
        <ele>877</ele>
        <time>2014-10-26T15:11:38Z</time>
      </trkpt>
      <trkpt lat="45.37835" lon="6.01893">
        <ele>879</ele>
        <time>2014-10-26T15:11:44Z</time>
      </trkpt>
      <trkpt lat="45.37837" lon="6.01912">
        <ele>883</ele>
        <time>2014-10-26T15:11:53Z</time>
      </trkpt>
      <trkpt lat="45.37837" lon="6.01913">
        <ele>888</ele>
        <time>2014-10-26T15:11:56Z</time>
      </trkpt>
      <trkpt lat="45.37837" lon="6.01932">
        <ele>888</ele>
        <time>2014-10-26T15:12:03Z</time>
      </trkpt>
      <trkpt lat="45.37838" lon="6.01947">
        <ele>888</ele>
        <time>2014-10-26T15:12:08Z</time>
      </trkpt>
      <trkpt lat="45.3784" lon="6.01961">
        <ele>886</ele>
        <time>2014-10-26T15:12:14Z</time>
      </trkpt>
      <trkpt lat="45.37843" lon="6.01976">
        <ele>884</ele>
        <time>2014-10-26T15:12:20Z</time>
      </trkpt>
      <trkpt lat="45.37836" lon="6.01982">
        <ele>889</ele>
        <time>2014-10-26T15:12:26Z</time>
      </trkpt>
      <trkpt lat="45.37831" lon="6.01995">
        <ele>889</ele>
        <time>2014-10-26T15:12:34Z</time>
      </trkpt>
      <trkpt lat="45.3783" lon="6.02005">
        <ele>891</ele>
        <time>2014-10-26T15:12:38Z</time>
      </trkpt>
      <trkpt lat="45.37826" lon="6.02025">
        <ele>899</ele>
        <time>2014-10-26T15:12:48Z</time>
      </trkpt>
      <trkpt lat="45.37826" lon="6.02028">
        <ele>900</ele>
        <time>2014-10-26T15:12:50Z</time>
      </trkpt>
      <trkpt lat="45.37822" lon="6.02031">
        <ele>910</ele>
        <time>2014-10-26T15:12:56Z</time>
      </trkpt>
      <trkpt lat="45.37822" lon="6.02045">
        <ele>905</ele>
        <time>2014-10-26T15:13:02Z</time>
      </trkpt>
      <trkpt lat="45.37826" lon="6.02088">
        <ele>907</ele>
        <time>2014-10-26T15:13:13Z</time>
      </trkpt>
      <trkpt lat="45.37826" lon="6.02088">
        <ele>906</ele>
        <time>2014-10-26T15:13:14Z</time>
      </trkpt>
      <trkpt lat="45.37825" lon="6.02098">
        <ele>912</ele>
        <time>2014-10-26T15:13:20Z</time>
      </trkpt>
      <trkpt lat="45.37824" lon="6.02105">
        <ele>913</ele>
        <time>2014-10-26T15:13:26Z</time>
      </trkpt>
      <trkpt lat="45.37822" lon="6.02125">
        <ele>917</ele>
        <time>2014-10-26T15:13:37Z</time>
      </trkpt>
      <trkpt lat="45.37821" lon="6.02126">
        <ele>919</ele>
        <time>2014-10-26T15:13:38Z</time>
      </trkpt>
      <trkpt lat="45.37819" lon="6.02132">
        <ele>918</ele>
        <time>2014-10-26T15:13:45Z</time>
      </trkpt>
      <trkpt lat="45.37824" lon="6.02158">
        <ele>917</ele>
        <time>2014-10-26T15:13:55Z</time>
      </trkpt>
      <trkpt lat="45.37825" lon="6.02161">
        <ele>916</ele>
        <time>2014-10-26T15:13:56Z</time>
      </trkpt>
      <trkpt lat="45.37832" lon="6.02183">
        <ele>924</ele>
        <time>2014-10-26T15:14:06Z</time>
      </trkpt>
      <trkpt lat="45.37833" lon="6.02188">
        <ele>926</ele>
        <time>2014-10-26T15:14:08Z</time>
      </trkpt>
      <trkpt lat="45.37837" lon="6.02211">
        <ele>923</ele>
        <time>2014-10-26T15:14:18Z</time>
      </trkpt>
      <trkpt lat="45.37838" lon="6.02216">
        <ele>922</ele>
        <time>2014-10-26T15:14:20Z</time>
      </trkpt>
      <trkpt lat="45.37839" lon="6.02232">
        <ele>927</ele>
        <time>2014-10-26T15:14:26Z</time>
      </trkpt>
      <trkpt lat="45.37846" lon="6.02244">
        <ele>920</ele>
        <time>2014-10-26T15:14:32Z</time>
      </trkpt>
      <trkpt lat="45.37853" lon="6.02256">
        <ele>918</ele>
        <time>2014-10-26T15:14:38Z</time>
      </trkpt>
      <trkpt lat="45.37856" lon="6.02265">
        <ele>919</ele>
        <time>2014-10-26T15:14:44Z</time>
      </trkpt>
      <trkpt lat="45.37862" lon="6.0228">
        <ele>914</ele>
        <time>2014-10-26T15:14:50Z</time>
      </trkpt>
      <trkpt lat="45.37868" lon="6.02296">
        <ele>916</ele>
        <time>2014-10-26T15:14:57Z</time>
      </trkpt>
      <trkpt lat="45.37875" lon="6.02305">
        <ele>921</ele>
        <time>2014-10-26T15:15:06Z</time>
      </trkpt>
      <trkpt lat="45.37877" lon="6.02305">
        <ele>920</ele>
        <time>2014-10-26T15:15:09Z</time>
      </trkpt>
      <trkpt lat="45.37884" lon="6.02308">
        <ele>921</ele>
        <time>2014-10-26T15:15:19Z</time>
      </trkpt>
      <trkpt lat="45.37889" lon="6.0231">
        <ele>923</ele>
        <time>2014-10-26T15:15:24Z</time>
      </trkpt>
      <trkpt lat="45.37889" lon="6.02311">
        <ele>925</ele>
        <time>2014-10-26T15:15:26Z</time>
      </trkpt>
      <trkpt lat="45.37892" lon="6.02319">
        <ele>918</ele>
        <time>2014-10-26T15:15:32Z</time>
      </trkpt>
      <trkpt lat="45.37897" lon="6.02327">
        <ele>918</ele>
        <time>2014-10-26T15:15:41Z</time>
      </trkpt>
      <trkpt lat="45.37901" lon="6.02327">
        <ele>925</ele>
        <time>2014-10-26T15:15:46Z</time>
      </trkpt>
      <trkpt lat="45.37904" lon="6.0233">
        <ele>925</ele>
        <time>2014-10-26T15:15:50Z</time>
      </trkpt>
      <trkpt lat="45.37907" lon="6.02336">
        <ele>926</ele>
        <time>2014-10-26T15:15:56Z</time>
      </trkpt>
      <trkpt lat="45.3791" lon="6.02343">
        <ele>930</ele>
        <time>2014-10-26T15:16:02Z</time>
      </trkpt>
      <trkpt lat="45.37913" lon="6.02349">
        <ele>933</ele>
        <time>2014-10-26T15:16:08Z</time>
      </trkpt>
      <trkpt lat="45.37918" lon="6.02353">
        <ele>939</ele>
        <time>2014-10-26T15:16:19Z</time>
      </trkpt>
      <trkpt lat="45.37919" lon="6.02353">
        <ele>941</ele>
        <time>2014-10-26T15:16:21Z</time>
      </trkpt>
      <trkpt lat="45.3792" lon="6.02353">
        <ele>943</ele>
        <time>2014-10-26T15:16:26Z</time>
      </trkpt>
      <trkpt lat="45.37921" lon="6.02361">
        <ele>945</ele>
        <time>2014-10-26T15:16:34Z</time>
      </trkpt>
      <trkpt lat="45.37925" lon="6.02369">
        <ele>939</ele>
        <time>2014-10-26T15:16:39Z</time>
      </trkpt>
      <trkpt lat="45.37932" lon="6.02383">
        <ele>938</ele>
        <time>2014-10-26T15:16:47Z</time>
      </trkpt>
      <trkpt lat="45.37939" lon="6.02392">
        <ele>937</ele>
        <time>2014-10-26T15:16:53Z</time>
      </trkpt>
      <trkpt lat="45.37946" lon="6.02398">
        <ele>941</ele>
        <time>2014-10-26T15:17:01Z</time>
      </trkpt>
      <trkpt lat="45.37948" lon="6.02399">
        <ele>942</ele>
        <time>2014-10-26T15:17:03Z</time>
      </trkpt>
      <trkpt lat="45.3795" lon="6.02405">
        <ele>945</ele>
        <time>2014-10-26T15:17:10Z</time>
      </trkpt>
      <trkpt lat="45.37951" lon="6.0241">
        <ele>946</ele>
        <time>2014-10-26T15:17:14Z</time>
      </trkpt>
      <trkpt lat="45.37952" lon="6.02417">
        <ele>948</ele>
        <time>2014-10-26T15:17:20Z</time>
      </trkpt>
      <trkpt lat="45.37955" lon="6.02426">
        <ele>950</ele>
        <time>2014-10-26T15:17:29Z</time>
      </trkpt>
      <trkpt lat="45.37957" lon="6.02428">
        <ele>952</ele>
        <time>2014-10-26T15:17:32Z</time>
      </trkpt>
      <trkpt lat="45.37959" lon="6.02443">
        <ele>956</ele>
        <time>2014-10-26T15:17:43Z</time>
      </trkpt>
      <trkpt lat="45.37959" lon="6.02446">
        <ele>957</ele>
        <time>2014-10-26T15:17:45Z</time>
      </trkpt>
      <trkpt lat="45.37962" lon="6.0246">
        <ele>958</ele>
        <time>2014-10-26T15:17:54Z</time>
      </trkpt>
      <trkpt lat="45.37965" lon="6.02463">
        <ele>958</ele>
        <time>2014-10-26T15:17:57Z</time>
      </trkpt>
      <trkpt lat="45.37969" lon="6.02469">
        <ele>959</ele>
        <time>2014-10-26T15:18:02Z</time>
      </trkpt>
      <trkpt lat="45.3798" lon="6.02473">
        <ele>959</ele>
        <time>2014-10-26T15:18:09Z</time>
      </trkpt>
      <trkpt lat="45.37986" lon="6.02479">
        <ele>961</ele>
        <time>2014-10-26T15:18:15Z</time>
      </trkpt>
      <trkpt lat="45.37992" lon="6.02481">
        <ele>960</ele>
        <time>2014-10-26T15:18:20Z</time>
      </trkpt>
      <trkpt lat="45.38002" lon="6.02486">
        <ele>956</ele>
        <time>2014-10-26T15:18:27Z</time>
      </trkpt>
      <trkpt lat="45.38007" lon="6.02496">
        <ele>956</ele>
        <time>2014-10-26T15:18:36Z</time>
      </trkpt>
      <trkpt lat="45.38011" lon="6.02499">
        <ele>959</ele>
        <time>2014-10-26T15:18:41Z</time>
      </trkpt>
      <trkpt lat="45.38014" lon="6.02501">
        <ele>960</ele>
        <time>2014-10-26T15:18:44Z</time>
      </trkpt>
      <trkpt lat="45.38016" lon="6.02506">
        <ele>961</ele>
        <time>2014-10-26T15:18:50Z</time>
      </trkpt>
      <trkpt lat="45.38023" lon="6.02511">
        <ele>964</ele>
        <time>2014-10-26T15:18:59Z</time>
      </trkpt>
      <trkpt lat="45.38025" lon="6.02513">
        <ele>964</ele>
        <time>2014-10-26T15:19:02Z</time>
      </trkpt>
      <trkpt lat="45.38031" lon="6.02533">
        <ele>966</ele>
        <time>2014-10-26T15:19:13Z</time>
      </trkpt>
      <trkpt lat="45.38033" lon="6.02535">
        <ele>966</ele>
        <time>2014-10-26T15:19:14Z</time>
      </trkpt>
      <trkpt lat="45.38051" lon="6.02549">
        <ele>966</ele>
        <time>2014-10-26T15:19:24Z</time>
      </trkpt>
      <trkpt lat="45.38052" lon="6.02557">
        <ele>966</ele>
        <time>2014-10-26T15:19:28Z</time>
      </trkpt>
      <trkpt lat="45.38056" lon="6.02568">
        <ele>970</ele>
        <time>2014-10-26T15:19:35Z</time>
      </trkpt>
      <trkpt lat="45.38057" lon="6.02573">
        <ele>973</ele>
        <time>2014-10-26T15:19:39Z</time>
      </trkpt>
      <trkpt lat="45.38066" lon="6.02585">
        <ele>977</ele>
        <time>2014-10-26T15:19:49Z</time>
      </trkpt>
      <trkpt lat="45.38067" lon="6.02586">
        <ele>978</ele>
        <time>2014-10-26T15:19:50Z</time>
      </trkpt>
      <trkpt lat="45.38073" lon="6.02594">
        <ele>981</ele>
        <time>2014-10-26T15:19:57Z</time>
      </trkpt>
      <trkpt lat="45.38078" lon="6.02599">
        <ele>980</ele>
        <time>2014-10-26T15:20:02Z</time>
      </trkpt>
      <trkpt lat="45.38085" lon="6.02606">
        <ele>979</ele>
        <time>2014-10-26T15:20:08Z</time>
      </trkpt>
      <trkpt lat="45.38097" lon="6.02613">
        <ele>977</ele>
        <time>2014-10-26T15:20:15Z</time>
      </trkpt>
      <trkpt lat="45.38101" lon="6.02613">
        <ele>980</ele>
        <time>2014-10-26T15:20:21Z</time>
      </trkpt>
      <trkpt lat="45.38101" lon="6.02617">
        <ele>979</ele>
        <time>2014-10-26T15:20:26Z</time>
      </trkpt>
      <trkpt lat="45.38107" lon="6.02627">
        <ele>980</ele>
        <time>2014-10-26T15:20:32Z</time>
      </trkpt>
      <trkpt lat="45.38113" lon="6.02628">
        <ele>981</ele>
        <time>2014-10-26T15:20:38Z</time>
      </trkpt>
      <trkpt lat="45.38117" lon="6.02636">
        <ele>979</ele>
        <time>2014-10-26T15:20:44Z</time>
      </trkpt>
      <trkpt lat="45.38127" lon="6.02641">
        <ele>979</ele>
        <time>2014-10-26T15:20:54Z</time>
      </trkpt>
      <trkpt lat="45.38131" lon="6.02642">
        <ele>979</ele>
        <time>2014-10-26T15:20:58Z</time>
      </trkpt>
      <trkpt lat="45.38137" lon="6.02639">
        <ele>978</ele>
        <time>2014-10-26T15:21:07Z</time>
      </trkpt>
      <trkpt lat="45.38139" lon="6.02638">
        <ele>977</ele>
        <time>2014-10-26T15:21:09Z</time>
      </trkpt>
      <trkpt lat="45.3814" lon="6.02638">
        <ele>977</ele>
        <time>2014-10-26T15:21:14Z</time>
      </trkpt>
      <trkpt lat="45.3814" lon="6.02638">
        <ele>977</ele>
        <time>2014-10-26T15:21:20Z</time>
      </trkpt>
      <trkpt lat="45.3814" lon="6.02638">
        <ele>978</ele>
        <time>2014-10-26T15:21:26Z</time>
      </trkpt>
      <trkpt lat="45.3814" lon="6.02638">
        <ele>978</ele>
        <time>2014-10-26T15:21:33Z</time>
      </trkpt>
      <trkpt lat="45.3814" lon="6.02638">
        <ele>978</ele>
        <time>2014-10-26T15:21:38Z</time>
      </trkpt>
      <trkpt lat="45.3814" lon="6.02638">
        <ele>978</ele>
        <time>2014-10-26T15:21:44Z</time>
      </trkpt>
      <trkpt lat="45.3814" lon="6.02638">
        <ele>978</ele>
        <time>2014-10-26T15:21:53Z</time>
      </trkpt>
      <trkpt lat="45.3814" lon="6.02638">
        <ele>978</ele>
        <time>2014-10-26T15:21:58Z</time>
      </trkpt>
      <trkpt lat="45.38138" lon="6.02623">
        <ele>981</ele>
        <time>2014-10-26T15:22:07Z</time>
      </trkpt>
      <trkpt lat="45.38138" lon="6.0262">
        <ele>982</ele>
        <time>2014-10-26T15:22:08Z</time>
      </trkpt>
      <trkpt lat="45.38136" lon="6.02592">
        <ele>988</ele>
        <time>2014-10-26T15:22:19Z</time>
      </trkpt>
      <trkpt lat="45.38136" lon="6.02592">
        <ele>990</ele>
        <time>2014-10-26T15:22:20Z</time>
      </trkpt>
      <trkpt lat="45.38135" lon="6.02587">
        <ele>990</ele>
        <time>2014-10-26T15:22:26Z</time>
      </trkpt>
      <trkpt lat="45.38135" lon="6.02586">
        <ele>990</ele>
        <time>2014-10-26T15:22:32Z</time>
      </trkpt>
      <trkpt lat="45.38135" lon="6.02586">
        <ele>990</ele>
        <time>2014-10-26T15:22:38Z</time>
      </trkpt>
      <trkpt lat="45.38135" lon="6.02586">
        <ele>989</ele>
        <time>2014-10-26T15:22:44Z</time>
      </trkpt>
      <trkpt lat="45.38135" lon="6.0256">
        <ele>995</ele>
        <time>2014-10-26T15:22:54Z</time>
      </trkpt>
      <trkpt lat="45.38137" lon="6.02553">
        <ele>998</ele>
        <time>2014-10-26T15:22:56Z</time>
      </trkpt>
      <trkpt lat="45.38131" lon="6.02529">
        <ele>1000</ele>
        <time>2014-10-26T15:23:06Z</time>
      </trkpt>
      <trkpt lat="45.38137" lon="6.02476">
        <ele>999</ele>
        <time>2014-10-26T15:23:14Z</time>
      </trkpt>
      <trkpt lat="45.38135" lon="6.02449">
        <ele>1008</ele>
        <time>2014-10-26T15:23:25Z</time>
      </trkpt>
      <trkpt lat="45.38134" lon="6.02448">
        <ele>1007</ele>
        <time>2014-10-26T15:23:26Z</time>
      </trkpt>
      <trkpt lat="45.38125" lon="6.02437">
        <ele>1015</ele>
        <time>2014-10-26T15:23:33Z</time>
      </trkpt>
      <trkpt lat="45.38115" lon="6.0243">
        <ele>1015</ele>
        <time>2014-10-26T15:23:43Z</time>
      </trkpt>
      <trkpt lat="45.38117" lon="6.02417">
        <ele>1014</ele>
        <time>2014-10-26T15:23:47Z</time>
      </trkpt>
      <trkpt lat="45.38111" lon="6.02406">
        <ele>1020</ele>
        <time>2014-10-26T15:23:52Z</time>
      </trkpt>
      <trkpt lat="45.38109" lon="6.02397">
        <ele>1019</ele>
        <time>2014-10-26T15:23:56Z</time>
      </trkpt>
      <trkpt lat="45.38104" lon="6.02383">
        <ele>1020</ele>
        <time>2014-10-26T15:24:02Z</time>
      </trkpt>
      <trkpt lat="45.38089" lon="6.02352">
        <ele>1030</ele>
        <time>2014-10-26T15:24:13Z</time>
      </trkpt>
      <trkpt lat="45.38086" lon="6.02347">
        <ele>1031</ele>
        <time>2014-10-26T15:24:15Z</time>
      </trkpt>
      <trkpt lat="45.38086" lon="6.02332">
        <ele>1034</ele>
        <time>2014-10-26T15:24:25Z</time>
      </trkpt>
      <trkpt lat="45.38088" lon="6.02329">
        <ele>1032</ele>
        <time>2014-10-26T15:24:30Z</time>
      </trkpt>
      <trkpt lat="45.3809" lon="6.02328">
        <ele>1031</ele>
        <time>2014-10-26T15:24:32Z</time>
      </trkpt>
      <trkpt lat="45.38095" lon="6.02328">
        <ele>1035</ele>
        <time>2014-10-26T15:24:38Z</time>
      </trkpt>
      <trkpt lat="45.38098" lon="6.02331">
        <ele>1034</ele>
        <time>2014-10-26T15:24:44Z</time>
      </trkpt>
      <trkpt lat="45.381" lon="6.02334">
        <ele>1040</ele>
        <time>2014-10-26T15:24:50Z</time>
      </trkpt>
      <trkpt lat="45.38101" lon="6.02337">
        <ele>1045</ele>
        <time>2014-10-26T15:25:00Z</time>
      </trkpt>
      <trkpt lat="45.381" lon="6.02337">
        <ele>1045</ele>
        <time>2014-10-26T15:25:04Z</time>
      </trkpt>
      <trkpt lat="45.38101" lon="6.02336">
        <ele>1047</ele>
        <time>2014-10-26T15:25:08Z</time>
      </trkpt>
      <trkpt lat="45.38101" lon="6.02335">
        <ele>1048</ele>
        <time>2014-10-26T15:25:15Z</time>
      </trkpt>
      <trkpt lat="45.38101" lon="6.02335">
        <ele>1048</ele>
        <time>2014-10-26T15:25:20Z</time>
      </trkpt>
      <trkpt lat="45.38101" lon="6.02335">
        <ele>1048</ele>
        <time>2014-10-26T15:25:26Z</time>
      </trkpt>
      <trkpt lat="45.38104" lon="6.02341">
        <ele>1046</ele>
        <time>2014-10-26T15:25:32Z</time>
      </trkpt>
      <trkpt lat="45.38116" lon="6.02344">
        <ele>1042</ele>
        <time>2014-10-26T15:25:38Z</time>
      </trkpt>
      <trkpt lat="45.38135" lon="6.02358">
        <ele>1047</ele>
        <time>2014-10-26T15:25:48Z</time>
      </trkpt>
      <trkpt lat="45.38138" lon="6.0236">
        <ele>1048</ele>
        <time>2014-10-26T15:25:51Z</time>
      </trkpt>
      <trkpt lat="45.38139" lon="6.02364">
        <ele>1050</ele>
        <time>2014-10-26T15:25:57Z</time>
      </trkpt>
      <trkpt lat="45.3814" lon="6.0237">
        <ele>1054</ele>
        <time>2014-10-26T15:26:03Z</time>
      </trkpt>
      <trkpt lat="45.38148" lon="6.02375">
        <ele>1058</ele>
        <time>2014-10-26T15:26:09Z</time>
      </trkpt>
      <trkpt lat="45.38152" lon="6.0238">
        <ele>1059</ele>
        <time>2014-10-26T15:26:14Z</time>
      </trkpt>
      <trkpt lat="45.38153" lon="6.02382">
        <ele>1065</ele>
        <time>2014-10-26T15:26:23Z</time>
      </trkpt>
      <trkpt lat="45.38165" lon="6.02385">
        <ele>1071</ele>
        <time>2014-10-26T15:26:31Z</time>
      </trkpt>
      <trkpt lat="45.38166" lon="6.02387">
        <ele>1066</ele>
        <time>2014-10-26T15:26:32Z</time>
      </trkpt>
      <trkpt lat="45.38169" lon="6.02393">
        <ele>1066</ele>
        <time>2014-10-26T15:26:39Z</time>
      </trkpt>
      <trkpt lat="45.38172" lon="6.024">
        <ele>1072</ele>
        <time>2014-10-26T15:26:46Z</time>
      </trkpt>
      <trkpt lat="45.38178" lon="6.02401">
        <ele>1068</ele>
        <time>2014-10-26T15:26:52Z</time>
      </trkpt>
      <trkpt lat="45.38179" lon="6.02402">
        <ele>1072</ele>
        <time>2014-10-26T15:26:56Z</time>
      </trkpt>
      <trkpt lat="45.38185" lon="6.02404">
        <ele>1070</ele>
        <time>2014-10-26T15:27:02Z</time>
      </trkpt>
      <trkpt lat="45.38196" lon="6.0241">
        <ele>1064</ele>
        <time>2014-10-26T15:27:08Z</time>
      </trkpt>
      <trkpt lat="45.38202" lon="6.02413">
        <ele>1068</ele>
        <time>2014-10-26T15:27:14Z</time>
      </trkpt>
      <trkpt lat="45.38203" lon="6.02415">
        <ele>1074</ele>
        <time>2014-10-26T15:27:22Z</time>
      </trkpt>
      <trkpt lat="45.38204" lon="6.02413">
        <ele>1082</ele>
        <time>2014-10-26T15:27:27Z</time>
      </trkpt>
      <trkpt lat="45.38206" lon="6.02418">
        <ele>1083</ele>
        <time>2014-10-26T15:27:32Z</time>
      </trkpt>
      <trkpt lat="45.38215" lon="6.02429">
        <ele>1083</ele>
        <time>2014-10-26T15:27:39Z</time>
      </trkpt>
      <trkpt lat="45.38223" lon="6.02433">
        <ele>1084</ele>
        <time>2014-10-26T15:27:44Z</time>
      </trkpt>
      <trkpt lat="45.38228" lon="6.02436">
        <ele>1091</ele>
        <time>2014-10-26T15:27:50Z</time>
      </trkpt>
      <trkpt lat="45.38235" lon="6.02438">
        <ele>1097</ele>
        <time>2014-10-26T15:27:56Z</time>
      </trkpt>
      <trkpt lat="45.3824" lon="6.02443">
        <ele>1103</ele>
        <time>2014-10-26T15:28:02Z</time>
      </trkpt>
      <trkpt lat="45.38246" lon="6.02448">
        <ele>1104</ele>
        <time>2014-10-26T15:28:08Z</time>
      </trkpt>
      <trkpt lat="45.38249" lon="6.02455">
        <ele>1101</ele>
        <time>2014-10-26T15:28:14Z</time>
      </trkpt>
      <trkpt lat="45.38256" lon="6.02464">
        <ele>1101</ele>
        <time>2014-10-26T15:28:20Z</time>
      </trkpt>
      <trkpt lat="45.38261" lon="6.02473">
        <ele>1101</ele>
        <time>2014-10-26T15:28:26Z</time>
      </trkpt>
      <trkpt lat="45.38265" lon="6.02482">
        <ele>1095</ele>
        <time>2014-10-26T15:28:32Z</time>
      </trkpt>
      <trkpt lat="45.3827" lon="6.02492">
        <ele>1094</ele>
        <time>2014-10-26T15:28:38Z</time>
      </trkpt>
      <trkpt lat="45.38281" lon="6.02498">
        <ele>1102</ele>
        <time>2014-10-26T15:28:49Z</time>
      </trkpt>
      <trkpt lat="45.38283" lon="6.02505">
        <ele>1101</ele>
        <time>2014-10-26T15:28:54Z</time>
      </trkpt>
      <trkpt lat="45.38285" lon="6.02508">
        <ele>1102</ele>
        <time>2014-10-26T15:28:56Z</time>
      </trkpt>
      <trkpt lat="45.3829" lon="6.02515">
        <ele>1110</ele>
        <time>2014-10-26T15:29:06Z</time>
      </trkpt>
      <trkpt lat="45.38294" lon="6.02522">
        <ele>1111</ele>
        <time>2014-10-26T15:29:12Z</time>
      </trkpt>
      <trkpt lat="45.38297" lon="6.02526">
        <ele>1112</ele>
        <time>2014-10-26T15:29:15Z</time>
      </trkpt>
      <trkpt lat="45.38303" lon="6.02533">
        <ele>1106</ele>
        <time>2014-10-26T15:29:20Z</time>
      </trkpt>
      <trkpt lat="45.38309" lon="6.02536">
        <ele>1107</ele>
        <time>2014-10-26T15:29:26Z</time>
      </trkpt>
      <trkpt lat="45.38316" lon="6.02543">
        <ele>1108</ele>
        <time>2014-10-26T15:29:35Z</time>
      </trkpt>
      <trkpt lat="45.38319" lon="6.02543">
        <ele>1116</ele>
        <time>2014-10-26T15:29:42Z</time>
      </trkpt>
      <trkpt lat="45.38319" lon="6.02541">
        <ele>1117</ele>
        <time>2014-10-26T15:29:44Z</time>
      </trkpt>
      <trkpt lat="45.3832" lon="6.02542">
        <ele>1118</ele>
        <time>2014-10-26T15:29:50Z</time>
      </trkpt>
      <trkpt lat="45.38322" lon="6.02544">
        <ele>1119</ele>
        <time>2014-10-26T15:29:56Z</time>
      </trkpt>
      <trkpt lat="45.3833" lon="6.02556">
        <ele>1121</ele>
        <time>2014-10-26T15:30:02Z</time>
      </trkpt>
      <trkpt lat="45.38338" lon="6.0257">
        <ele>1123</ele>
        <time>2014-10-26T15:30:08Z</time>
      </trkpt>
      <trkpt lat="45.3835" lon="6.02583">
        <ele>1125</ele>
        <time>2014-10-26T15:30:18Z</time>
      </trkpt>
      <trkpt lat="45.38351" lon="6.02586">
        <ele>1127</ele>
        <time>2014-10-26T15:30:20Z</time>
      </trkpt>
      <trkpt lat="45.38355" lon="6.02595">
        <ele>1131</ele>
        <time>2014-10-26T15:30:26Z</time>
      </trkpt>
      <trkpt lat="45.38364" lon="6.02606">
        <ele>1136</ele>
        <time>2014-10-26T15:30:37Z</time>
      </trkpt>
      <trkpt lat="45.3837" lon="6.02612">
        <ele>1138</ele>
        <time>2014-10-26T15:30:42Z</time>
      </trkpt>
      <trkpt lat="45.38372" lon="6.02615">
        <ele>1139</ele>
        <time>2014-10-26T15:30:44Z</time>
      </trkpt>
      <trkpt lat="45.38378" lon="6.02625">
        <ele>1142</ele>
        <time>2014-10-26T15:30:52Z</time>
      </trkpt>
      <trkpt lat="45.38381" lon="6.0263">
        <ele>1142</ele>
        <time>2014-10-26T15:30:56Z</time>
      </trkpt>
      <trkpt lat="45.38386" lon="6.02638">
        <ele>1144</ele>
        <time>2014-10-26T15:31:02Z</time>
      </trkpt>
      <trkpt lat="45.38392" lon="6.02651">
        <ele>1146</ele>
        <time>2014-10-26T15:31:12Z</time>
      </trkpt>
      <trkpt lat="45.38394" lon="6.02654">
        <ele>1147</ele>
        <time>2014-10-26T15:31:14Z</time>
      </trkpt>
      <trkpt lat="45.38397" lon="6.02661">
        <ele>1149</ele>
        <time>2014-10-26T15:31:20Z</time>
      </trkpt>
      <trkpt lat="45.384" lon="6.02668">
        <ele>1151</ele>
        <time>2014-10-26T15:31:26Z</time>
      </trkpt>
      <trkpt lat="45.38405" lon="6.02674">
        <ele>1152</ele>
        <time>2014-10-26T15:31:32Z</time>
      </trkpt>
      <trkpt lat="45.38408" lon="6.0268">
        <ele>1154</ele>
        <time>2014-10-26T15:31:38Z</time>
      </trkpt>
      <trkpt lat="45.38409" lon="6.02688">
        <ele>1157</ele>
        <time>2014-10-26T15:31:44Z</time>
      </trkpt>
      <trkpt lat="45.38412" lon="6.02696">
        <ele>1163</ele>
        <time>2014-10-26T15:31:52Z</time>
      </trkpt>
      <trkpt lat="45.38413" lon="6.02699">
        <ele>1164</ele>
        <time>2014-10-26T15:31:56Z</time>
      </trkpt>
      <trkpt lat="45.38415" lon="6.02704">
        <ele>1167</ele>
        <time>2014-10-26T15:32:02Z</time>
      </trkpt>
      <trkpt lat="45.38418" lon="6.02717">
        <ele>1172</ele>
        <time>2014-10-26T15:32:13Z</time>
      </trkpt>
      <trkpt lat="45.38418" lon="6.02718">
        <ele>1173</ele>
        <time>2014-10-26T15:32:14Z</time>
      </trkpt>
      <trkpt lat="45.38422" lon="6.02725">
        <ele>1175</ele>
        <time>2014-10-26T15:32:20Z</time>
      </trkpt>
      <trkpt lat="45.38427" lon="6.02731">
        <ele>1177</ele>
        <time>2014-10-26T15:32:26Z</time>
      </trkpt>
      <trkpt lat="45.38433" lon="6.02738">
        <ele>1178</ele>
        <time>2014-10-26T15:32:32Z</time>
      </trkpt>
      <trkpt lat="45.38438" lon="6.02744">
        <ele>1180</ele>
        <time>2014-10-26T15:32:38Z</time>
      </trkpt>
      <trkpt lat="45.38442" lon="6.02752">
        <ele>1180</ele>
        <time>2014-10-26T15:32:44Z</time>
      </trkpt>
      <trkpt lat="45.38447" lon="6.0276">
        <ele>1180</ele>
        <time>2014-10-26T15:32:50Z</time>
      </trkpt>
      <trkpt lat="45.38455" lon="6.02772">
        <ele>1181</ele>
        <time>2014-10-26T15:32:58Z</time>
      </trkpt>
      <trkpt lat="45.38461" lon="6.02782">
        <ele>1178</ele>
        <time>2014-10-26T15:33:03Z</time>
      </trkpt>
      <trkpt lat="45.3847" lon="6.02791">
        <ele>1176</ele>
        <time>2014-10-26T15:33:08Z</time>
      </trkpt>
      <trkpt lat="45.38477" lon="6.02802">
        <ele>1177</ele>
        <time>2014-10-26T15:33:14Z</time>
      </trkpt>
      <trkpt lat="45.3848" lon="6.02811">
        <ele>1180</ele>
        <time>2014-10-26T15:33:20Z</time>
      </trkpt>
      <trkpt lat="45.38482" lon="6.02823">
        <ele>1183</ele>
        <time>2014-10-26T15:33:29Z</time>
      </trkpt>
      <trkpt lat="45.38482" lon="6.0283">
        <ele>1184</ele>
        <time>2014-10-26T15:33:34Z</time>
      </trkpt>
      <trkpt lat="45.38482" lon="6.02835">
        <ele>1186</ele>
        <time>2014-10-26T15:33:38Z</time>
      </trkpt>
      <trkpt lat="45.38482" lon="6.02842">
        <ele>1188</ele>
        <time>2014-10-26T15:33:44Z</time>
      </trkpt>
      <trkpt lat="45.38482" lon="6.02851">
        <ele>1189</ele>
        <time>2014-10-26T15:33:50Z</time>
      </trkpt>
      <trkpt lat="45.38481" lon="6.0286">
        <ele>1191</ele>
        <time>2014-10-26T15:33:56Z</time>
      </trkpt>
      <trkpt lat="45.3848" lon="6.02869">
        <ele>1193</ele>
        <time>2014-10-26T15:34:02Z</time>
      </trkpt>
      <trkpt lat="45.38478" lon="6.02877">
        <ele>1195</ele>
        <time>2014-10-26T15:34:08Z</time>
      </trkpt>
      <trkpt lat="45.38476" lon="6.02888">
        <ele>1194</ele>
        <time>2014-10-26T15:34:15Z</time>
      </trkpt>
      <trkpt lat="45.3847" lon="6.02904">
        <ele>1196</ele>
        <time>2014-10-26T15:34:22Z</time>
      </trkpt>
      <trkpt lat="45.38468" lon="6.02917">
        <ele>1195</ele>
        <time>2014-10-26T15:34:27Z</time>
      </trkpt>
      <trkpt lat="45.38466" lon="6.0293">
        <ele>1194</ele>
        <time>2014-10-26T15:34:32Z</time>
      </trkpt>
      <trkpt lat="45.38459" lon="6.02938">
        <ele>1187</ele>
        <time>2014-10-26T15:34:38Z</time>
      </trkpt>
      <trkpt lat="45.38452" lon="6.02941">
        <ele>1180</ele>
        <time>2014-10-26T15:34:44Z</time>
      </trkpt>
      <trkpt lat="45.38441" lon="6.0294">
        <ele>1180</ele>
        <time>2014-10-26T15:34:50Z</time>
      </trkpt>
      <trkpt lat="45.38429" lon="6.02935">
        <ele>1174</ele>
        <time>2014-10-26T15:34:58Z</time>
      </trkpt>
      <trkpt lat="45.38424" lon="6.02928">
        <ele>1172</ele>
        <time>2014-10-26T15:35:02Z</time>
      </trkpt>
      <trkpt lat="45.38416" lon="6.0293">
        <ele>1178</ele>
        <time>2014-10-26T15:35:12Z</time>
      </trkpt>
      <trkpt lat="45.38413" lon="6.02928">
        <ele>1181</ele>
        <time>2014-10-26T15:35:16Z</time>
      </trkpt>
      <trkpt lat="45.38412" lon="6.02926">
        <ele>1183</ele>
        <time>2014-10-26T15:35:24Z</time>
      </trkpt>
      <trkpt lat="45.38413" lon="6.02925">
        <ele>1186</ele>
        <time>2014-10-26T15:35:26Z</time>
      </trkpt>
      <trkpt lat="45.38418" lon="6.02926">
        <ele>1178</ele>
        <time>2014-10-26T15:35:37Z</time>
      </trkpt>
      <trkpt lat="45.3842" lon="6.02932">
        <ele>1176</ele>
        <time>2014-10-26T15:35:42Z</time>
      </trkpt>
      <trkpt lat="45.38418" lon="6.02932">
        <ele>1173</ele>
        <time>2014-10-26T15:35:47Z</time>
      </trkpt>
      <trkpt lat="45.38418" lon="6.02932">
        <ele>1173</ele>
        <time>2014-10-26T15:35:50Z</time>
      </trkpt>
      <trkpt lat="45.38417" lon="6.02933">
        <ele>1174</ele>
        <time>2014-10-26T15:35:56Z</time>
      </trkpt>
      <trkpt lat="45.38417" lon="6.02933">
        <ele>1174</ele>
        <time>2014-10-26T15:36:02Z</time>
      </trkpt>
      <trkpt lat="45.38417" lon="6.02932">
        <ele>1174</ele>
        <time>2014-10-26T15:36:08Z</time>
      </trkpt>
      <trkpt lat="45.3842" lon="6.02932">
        <ele>1172</ele>
        <time>2014-10-26T15:36:14Z</time>
      </trkpt>
      <trkpt lat="45.3843" lon="6.02929">
        <ele>1176</ele>
        <time>2014-10-26T15:36:24Z</time>
      </trkpt>
      <trkpt lat="45.38433" lon="6.0293">
        <ele>1178</ele>
        <time>2014-10-26T15:36:26Z</time>
      </trkpt>
      <trkpt lat="45.38451" lon="6.02936">
        <ele>1181</ele>
        <time>2014-10-26T15:36:34Z</time>
      </trkpt>
      <trkpt lat="45.38464" lon="6.02943">
        <ele>1184</ele>
        <time>2014-10-26T15:36:40Z</time>
      </trkpt>
      <trkpt lat="45.38473" lon="6.02941">
        <ele>1181</ele>
        <time>2014-10-26T15:36:44Z</time>
      </trkpt>
      <trkpt lat="45.38481" lon="6.02922">
        <ele>1179</ele>
        <time>2014-10-26T15:36:50Z</time>
      </trkpt>
      <trkpt lat="45.38489" lon="6.029">
        <ele>1181</ele>
        <time>2014-10-26T15:36:56Z</time>
      </trkpt>
      <trkpt lat="45.38498" lon="6.02876">
        <ele>1171</ele>
        <time>2014-10-26T15:37:07Z</time>
      </trkpt>
      <trkpt lat="45.38497" lon="6.02876">
        <ele>1173</ele>
        <time>2014-10-26T15:37:08Z</time>
      </trkpt>
      <trkpt lat="45.38495" lon="6.02877">
        <ele>1174</ele>
        <time>2014-10-26T15:37:14Z</time>
      </trkpt>
      <trkpt lat="45.38494" lon="6.02877">
        <ele>1175</ele>
        <time>2014-10-26T15:37:20Z</time>
      </trkpt>
      <trkpt lat="45.38494" lon="6.02877">
        <ele>1175</ele>
        <time>2014-10-26T15:37:26Z</time>
      </trkpt>
      <trkpt lat="45.38493" lon="6.02875">
        <ele>1174</ele>
        <time>2014-10-26T15:37:32Z</time>
      </trkpt>
      <trkpt lat="45.38492" lon="6.02872">
        <ele>1177</ele>
        <time>2014-10-26T15:37:38Z</time>
      </trkpt>
      <trkpt lat="45.38491" lon="6.02871">
        <ele>1178</ele>
        <time>2014-10-26T15:37:46Z</time>
      </trkpt>
      <trkpt lat="45.38491" lon="6.02871">
        <ele>1178</ele>
        <time>2014-10-26T15:37:50Z</time>
      </trkpt>
      <trkpt lat="45.38493" lon="6.02843">
        <ele>1175</ele>
        <time>2014-10-26T15:37:57Z</time>
      </trkpt>
      <trkpt lat="45.38491" lon="6.02812">
        <ele>1172</ele>
        <time>2014-10-26T15:38:03Z</time>
      </trkpt>
      <trkpt lat="45.38484" lon="6.02791">
        <ele>1168</ele>
        <time>2014-10-26T15:38:08Z</time>
      </trkpt>
      <trkpt lat="45.38469" lon="6.02771">
        <ele>1159</ele>
        <time>2014-10-26T15:38:15Z</time>
      </trkpt>
      <trkpt lat="45.3846" lon="6.02757">
        <ele>1155</ele>
        <time>2014-10-26T15:38:20Z</time>
      </trkpt>
      <trkpt lat="45.38441" lon="6.02733">
        <ele>1149</ele>
        <time>2014-10-26T15:38:28Z</time>
      </trkpt>
      <trkpt lat="45.38433" lon="6.02718">
        <ele>1144</ele>
        <time>2014-10-26T15:38:32Z</time>
      </trkpt>
      <trkpt lat="45.38428" lon="6.02695">
        <ele>1144</ele>
        <time>2014-10-26T15:38:38Z</time>
      </trkpt>
      <trkpt lat="45.38418" lon="6.02672">
        <ele>1141</ele>
        <time>2014-10-26T15:38:44Z</time>
      </trkpt>
      <trkpt lat="45.38407" lon="6.02649">
        <ele>1143</ele>
        <time>2014-10-26T15:38:50Z</time>
      </trkpt>
      <trkpt lat="45.38397" lon="6.02623">
        <ele>1138</ele>
        <time>2014-10-26T15:38:56Z</time>
      </trkpt>
      <trkpt lat="45.38368" lon="6.02593">
        <ele>1133</ele>
        <time>2014-10-26T15:39:06Z</time>
      </trkpt>
      <trkpt lat="45.38363" lon="6.02587">
        <ele>1136</ele>
        <time>2014-10-26T15:39:08Z</time>
      </trkpt>
      <trkpt lat="45.38349" lon="6.02572">
        <ele>1145</ele>
        <time>2014-10-26T15:39:14Z</time>
      </trkpt>
      <trkpt lat="45.38343" lon="6.02549">
        <ele>1147</ele>
        <time>2014-10-26T15:39:20Z</time>
      </trkpt>
      <trkpt lat="45.38335" lon="6.02542">
        <ele>1148</ele>
        <time>2014-10-26T15:39:26Z</time>
      </trkpt>
      <trkpt lat="45.38326" lon="6.02537">
        <ele>1145</ele>
        <time>2014-10-26T15:39:32Z</time>
      </trkpt>
      <trkpt lat="45.38316" lon="6.02527">
        <ele>1140</ele>
        <time>2014-10-26T15:39:38Z</time>
      </trkpt>
      <trkpt lat="45.38306" lon="6.02509">
        <ele>1136</ele>
        <time>2014-10-26T15:39:45Z</time>
      </trkpt>
      <trkpt lat="45.38299" lon="6.02488">
        <ele>1131</ele>
        <time>2014-10-26T15:39:50Z</time>
      </trkpt>
      <trkpt lat="45.38294" lon="6.0247">
        <ele>1125</ele>
        <time>2014-10-26T15:39:56Z</time>
      </trkpt>
      <trkpt lat="45.38285" lon="6.02454">
        <ele>1124</ele>
        <time>2014-10-26T15:40:02Z</time>
      </trkpt>
      <trkpt lat="45.38267" lon="6.02441">
        <ele>1119</ele>
        <time>2014-10-26T15:40:08Z</time>
      </trkpt>
      <trkpt lat="45.38238" lon="6.02422">
        <ele>1124</ele>
        <time>2014-10-26T15:40:17Z</time>
      </trkpt>
      <trkpt lat="45.38228" lon="6.02416">
        <ele>1124</ele>
        <time>2014-10-26T15:40:20Z</time>
      </trkpt>
      <trkpt lat="45.38207" lon="6.02396">
        <ele>1112</ele>
        <time>2014-10-26T15:40:27Z</time>
      </trkpt>
      <trkpt lat="45.38192" lon="6.02383">
        <ele>1109</ele>
        <time>2014-10-26T15:40:33Z</time>
      </trkpt>
      <trkpt lat="45.38175" lon="6.02378">
        <ele>1105</ele>
        <time>2014-10-26T15:40:38Z</time>
      </trkpt>
      <trkpt lat="45.38163" lon="6.0237">
        <ele>1100</ele>
        <time>2014-10-26T15:40:44Z</time>
      </trkpt>
      <trkpt lat="45.38148" lon="6.0236">
        <ele>1087</ele>
        <time>2014-10-26T15:40:50Z</time>
      </trkpt>
      <trkpt lat="45.38131" lon="6.0235">
        <ele>1082</ele>
        <time>2014-10-26T15:40:56Z</time>
      </trkpt>
      <trkpt lat="45.38089" lon="6.02346">
        <ele>1075</ele>
        <time>2014-10-26T15:41:06Z</time>
      </trkpt>
      <trkpt lat="45.38088" lon="6.02357">
        <ele>1063</ele>
        <time>2014-10-26T15:41:10Z</time>
      </trkpt>
      <trkpt lat="45.38088" lon="6.02367">
        <ele>1058</ele>
        <time>2014-10-26T15:41:14Z</time>
      </trkpt>
      <trkpt lat="45.38085" lon="6.02382">
        <ele>1057</ele>
        <time>2014-10-26T15:41:21Z</time>
      </trkpt>
      <trkpt lat="45.38076" lon="6.02408">
        <ele>1058</ele>
        <time>2014-10-26T15:41:30Z</time>
      </trkpt>
      <trkpt lat="45.38076" lon="6.02417">
        <ele>1060</ele>
        <time>2014-10-26T15:41:32Z</time>
      </trkpt>
      <trkpt lat="45.3808" lon="6.02445">
        <ele>1060</ele>
        <time>2014-10-26T15:41:38Z</time>
      </trkpt>
      <trkpt lat="45.38088" lon="6.02465">
        <ele>1054</ele>
        <time>2014-10-26T15:41:44Z</time>
      </trkpt>
      <trkpt lat="45.3809" lon="6.02485">
        <ele>1054</ele>
        <time>2014-10-26T15:41:50Z</time>
      </trkpt>
      <trkpt lat="45.38087" lon="6.02504">
        <ele>1049</ele>
        <time>2014-10-26T15:41:56Z</time>
      </trkpt>
      <trkpt lat="45.381" lon="6.02554">
        <ele>1028</ele>
        <time>2014-10-26T15:42:07Z</time>
      </trkpt>
      <trkpt lat="45.38102" lon="6.02563">
        <ele>1023</ele>
        <time>2014-10-26T15:42:09Z</time>
      </trkpt>
      <trkpt lat="45.3812" lon="6.0259">
        <ele>1008</ele>
        <time>2014-10-26T15:42:15Z</time>
      </trkpt>
      <trkpt lat="45.38123" lon="6.02598">
        <ele>997</ele>
        <time>2014-10-26T15:42:20Z</time>
      </trkpt>
      <trkpt lat="45.38126" lon="6.02607">
        <ele>992</ele>
        <time>2014-10-26T15:42:26Z</time>
      </trkpt>
      <trkpt lat="45.3812" lon="6.02605">
        <ele>986</ele>
        <time>2014-10-26T15:42:35Z</time>
      </trkpt>
      <trkpt lat="45.38116" lon="6.02607">
        <ele>982</ele>
        <time>2014-10-26T15:42:38Z</time>
      </trkpt>
      <trkpt lat="45.38111" lon="6.02599">
        <ele>967</ele>
        <time>2014-10-26T15:42:46Z</time>
      </trkpt>
      <trkpt lat="45.38104" lon="6.02595">
        <ele>971</ele>
        <time>2014-10-26T15:42:51Z</time>
      </trkpt>
      <trkpt lat="45.38094" lon="6.02587">
        <ele>969</ele>
        <time>2014-10-26T15:42:57Z</time>
      </trkpt>
      <trkpt lat="45.38084" lon="6.02576">
        <ele>965</ele>
        <time>2014-10-26T15:43:02Z</time>
      </trkpt>
      <trkpt lat="45.38063" lon="6.02549">
        <ele>965</ele>
        <time>2014-10-26T15:43:13Z</time>
      </trkpt>
      <trkpt lat="45.38062" lon="6.02546">
        <ele>964</ele>
        <time>2014-10-26T15:43:14Z</time>
      </trkpt>
      <trkpt lat="45.38042" lon="6.02524">
        <ele>962</ele>
        <time>2014-10-26T15:43:21Z</time>
      </trkpt>
      <trkpt lat="45.38033" lon="6.02512">
        <ele>967</ele>
        <time>2014-10-26T15:43:26Z</time>
      </trkpt>
      <trkpt lat="45.38018" lon="6.02495">
        <ele>955</ele>
        <time>2014-10-26T15:43:32Z</time>
      </trkpt>
      <trkpt lat="45.37996" lon="6.02469">
        <ele>954</ele>
        <time>2014-10-26T15:43:40Z</time>
      </trkpt>
      <trkpt lat="45.37987" lon="6.02457">
        <ele>956</ele>
        <time>2014-10-26T15:43:44Z</time>
      </trkpt>
      <trkpt lat="45.37966" lon="6.02418">
        <ele>955</ele>
        <time>2014-10-26T15:43:54Z</time>
      </trkpt>
      <trkpt lat="45.37954" lon="6.02399">
        <ele>957</ele>
        <time>2014-10-26T15:44:01Z</time>
      </trkpt>
      <trkpt lat="45.37953" lon="6.02396">
        <ele>957</ele>
        <time>2014-10-26T15:44:02Z</time>
      </trkpt>
      <trkpt lat="45.37938" lon="6.02375">
        <ele>953</ele>
        <time>2014-10-26T15:44:10Z</time>
      </trkpt>
      <trkpt lat="45.37921" lon="6.02355">
        <ele>945</ele>
        <time>2014-10-26T15:44:17Z</time>
      </trkpt>
      <trkpt lat="45.37916" lon="6.02343">
        <ele>940</ele>
        <time>2014-10-26T15:44:20Z</time>
      </trkpt>
      <trkpt lat="45.37901" lon="6.02323">
        <ele>928</ele>
        <time>2014-10-26T15:44:26Z</time>
      </trkpt>
      <trkpt lat="45.37884" lon="6.02318">
        <ele>933</ele>
        <time>2014-10-26T15:44:34Z</time>
      </trkpt>
      <trkpt lat="45.3788" lon="6.02305">
        <ele>932</ele>
        <time>2014-10-26T15:44:41Z</time>
      </trkpt>
      <trkpt lat="45.37873" lon="6.02293">
        <ele>934</ele>
        <time>2014-10-26T15:44:49Z</time>
      </trkpt>
      <trkpt lat="45.37872" lon="6.02291">
        <ele>934</ele>
        <time>2014-10-26T15:44:50Z</time>
      </trkpt>
      <trkpt lat="45.37868" lon="6.02272">
        <ele>933</ele>
        <time>2014-10-26T15:44:56Z</time>
      </trkpt>
      <trkpt lat="45.37859" lon="6.02261">
        <ele>935</ele>
        <time>2014-10-26T15:45:02Z</time>
      </trkpt>
      <trkpt lat="45.37853" lon="6.02236">
        <ele>933</ele>
        <time>2014-10-26T15:45:08Z</time>
      </trkpt>
      <trkpt lat="45.3785" lon="6.02213">
        <ele>932</ele>
        <time>2014-10-26T15:45:14Z</time>
      </trkpt>
      <trkpt lat="45.37844" lon="6.0219">
        <ele>929</ele>
        <time>2014-10-26T15:45:20Z</time>
      </trkpt>
      <trkpt lat="45.37842" lon="6.02169">
        <ele>923</ele>
        <time>2014-10-26T15:45:26Z</time>
      </trkpt>
      <trkpt lat="45.37841" lon="6.02151">
        <ele>916</ele>
        <time>2014-10-26T15:45:32Z</time>
      </trkpt>
      <trkpt lat="45.37842" lon="6.02133">
        <ele>913</ele>
        <time>2014-10-26T15:45:38Z</time>
      </trkpt>
      <trkpt lat="45.37847" lon="6.02089">
        <ele>903</ele>
        <time>2014-10-26T15:45:48Z</time>
      </trkpt>
      <trkpt lat="45.3785" lon="6.02077">
        <ele>901</ele>
        <time>2014-10-26T15:45:51Z</time>
      </trkpt>
      <trkpt lat="45.37853" lon="6.02053">
        <ele>895</ele>
        <time>2014-10-26T15:45:56Z</time>
      </trkpt>
      <trkpt lat="45.37858" lon="6.02018">
        <ele>890</ele>
        <time>2014-10-26T15:46:03Z</time>
      </trkpt>
      <trkpt lat="45.3786" lon="6.01992">
        <ele>884</ele>
        <time>2014-10-26T15:46:08Z</time>
      </trkpt>
      <trkpt lat="45.3786" lon="6.01958">
        <ele>876</ele>
        <time>2014-10-26T15:46:14Z</time>
      </trkpt>
      <trkpt lat="45.37857" lon="6.01915">
        <ele>878</ele>
        <time>2014-10-26T15:46:24Z</time>
      </trkpt>
      <trkpt lat="45.37857" lon="6.01907">
        <ele>877</ele>
        <time>2014-10-26T15:46:26Z</time>
      </trkpt>
      <trkpt lat="45.37852" lon="6.01884">
        <ele>871</ele>
        <time>2014-10-26T15:46:32Z</time>
      </trkpt>
      <trkpt lat="45.37848" lon="6.0184">
        <ele>862</ele>
        <time>2014-10-26T15:46:38Z</time>
      </trkpt>
      <trkpt lat="45.37839" lon="6.01811">
        <ele>860</ele>
        <time>2014-10-26T15:46:47Z</time>
      </trkpt>
      <trkpt lat="45.37836" lon="6.01797">
        <ele>857</ele>
        <time>2014-10-26T15:46:50Z</time>
      </trkpt>
      <trkpt lat="45.37831" lon="6.01759">
        <ele>851</ele>
        <time>2014-10-26T15:46:57Z</time>
      </trkpt>
      <trkpt lat="45.37829" lon="6.01712">
        <ele>858</ele>
        <time>2014-10-26T15:47:07Z</time>
      </trkpt>
      <trkpt lat="45.37829" lon="6.01707">
        <ele>858</ele>
        <time>2014-10-26T15:47:08Z</time>
      </trkpt>
      <trkpt lat="45.3782" lon="6.01652">
        <ele>863</ele>
        <time>2014-10-26T15:47:19Z</time>
      </trkpt>
      <trkpt lat="45.37819" lon="6.01646">
        <ele>862</ele>
        <time>2014-10-26T15:47:20Z</time>
      </trkpt>
      <trkpt lat="45.37801" lon="6.01614">
        <ele>866</ele>
        <time>2014-10-26T15:47:30Z</time>
      </trkpt>
      <trkpt lat="45.37789" lon="6.01605">
        <ele>865</ele>
        <time>2014-10-26T15:47:34Z</time>
      </trkpt>
      <trkpt lat="45.37777" lon="6.016">
        <ele>863</ele>
        <time>2014-10-26T15:47:38Z</time>
      </trkpt>
      <trkpt lat="45.37761" lon="6.01587">
        <ele>862</ele>
        <time>2014-10-26T15:47:44Z</time>
      </trkpt>
      <trkpt lat="45.37749" lon="6.01578">
        <ele>862</ele>
        <time>2014-10-26T15:47:50Z</time>
      </trkpt>
      <trkpt lat="45.37725" lon="6.01572">
        <ele>856</ele>
        <time>2014-10-26T15:47:56Z</time>
      </trkpt>
      <trkpt lat="45.37691" lon="6.01564">
        <ele>851</ele>
        <time>2014-10-26T15:48:04Z</time>
      </trkpt>
      <trkpt lat="45.37677" lon="6.0156">
        <ele>851</ele>
        <time>2014-10-26T15:48:08Z</time>
      </trkpt>
      <trkpt lat="45.37652" lon="6.01548">
        <ele>849</ele>
        <time>2014-10-26T15:48:17Z</time>
      </trkpt>
      <trkpt lat="45.37643" lon="6.01544">
        <ele>850</ele>
        <time>2014-10-26T15:48:20Z</time>
      </trkpt>
      <trkpt lat="45.37627" lon="6.01534">
        <ele>852</ele>
        <time>2014-10-26T15:48:26Z</time>
      </trkpt>
      <trkpt lat="45.37614" lon="6.01518">
        <ele>850</ele>
        <time>2014-10-26T15:48:32Z</time>
      </trkpt>
      <trkpt lat="45.37602" lon="6.01499">
        <ele>843</ele>
        <time>2014-10-26T15:48:38Z</time>
      </trkpt>
      <trkpt lat="45.37586" lon="6.01484">
        <ele>841</ele>
        <time>2014-10-26T15:48:44Z</time>
      </trkpt>
      <trkpt lat="45.37569" lon="6.01467">
        <ele>833</ele>
        <time>2014-10-26T15:48:51Z</time>
      </trkpt>
      <trkpt lat="45.37551" lon="6.01441">
        <ele>829</ele>
        <time>2014-10-26T15:48:59Z</time>
      </trkpt>
      <trkpt lat="45.37544" lon="6.01425">
        <ele>826</ele>
        <time>2014-10-26T15:49:03Z</time>
      </trkpt>
      <trkpt lat="45.37534" lon="6.014">
        <ele>820</ele>
        <time>2014-10-26T15:49:09Z</time>
      </trkpt>
      <trkpt lat="45.37528" lon="6.01356">
        <ele>810</ele>
        <time>2014-10-26T15:49:18Z</time>
      </trkpt>
      <trkpt lat="45.37531" lon="6.01352">
        <ele>806</ele>
        <time>2014-10-26T15:49:20Z</time>
      </trkpt>
      <trkpt lat="45.37542" lon="6.01344">
        <ele>802</ele>
        <time>2014-10-26T15:49:26Z</time>
      </trkpt>
      <trkpt lat="45.37552" lon="6.01344">
        <ele>805</ele>
        <time>2014-10-26T15:49:32Z</time>
      </trkpt>
      <trkpt lat="45.37567" lon="6.01332">
        <ele>808</ele>
        <time>2014-10-26T15:49:43Z</time>
      </trkpt>
      <trkpt lat="45.3757" lon="6.01326">
        <ele>810</ele>
        <time>2014-10-26T15:49:45Z</time>
      </trkpt>
      <trkpt lat="45.3758" lon="6.01314">
        <ele>813</ele>
        <time>2014-10-26T15:49:50Z</time>
      </trkpt>
      <trkpt lat="45.37603" lon="6.01308">
        <ele>812</ele>
        <time>2014-10-26T15:49:56Z</time>
      </trkpt>
      <trkpt lat="45.37619" lon="6.01302">
        <ele>814</ele>
        <time>2014-10-26T15:50:02Z</time>
      </trkpt>
      <trkpt lat="45.37645" lon="6.01298">
        <ele>814</ele>
        <time>2014-10-26T15:50:12Z</time>
      </trkpt>
      <trkpt lat="45.37651" lon="6.01298">
        <ele>812</ele>
        <time>2014-10-26T15:50:18Z</time>
      </trkpt>
      <trkpt lat="45.37661" lon="6.01298">
        <ele>811</ele>
        <time>2014-10-26T15:50:23Z</time>
      </trkpt>
      <trkpt lat="45.3767" lon="6.01292">
        <ele>812</ele>
        <time>2014-10-26T15:50:26Z</time>
      </trkpt>
      <trkpt lat="45.37676" lon="6.0129">
        <ele>813</ele>
        <time>2014-10-26T15:50:32Z</time>
      </trkpt>
      <trkpt lat="45.37682" lon="6.01295">
        <ele>811</ele>
        <time>2014-10-26T15:50:41Z</time>
      </trkpt>
      <trkpt lat="45.37688" lon="6.01307">
        <ele>804</ele>
        <time>2014-10-26T15:50:48Z</time>
      </trkpt>
      <trkpt lat="45.37696" lon="6.0131">
        <ele>801</ele>
        <time>2014-10-26T15:50:54Z</time>
      </trkpt>
      <trkpt lat="45.37699" lon="6.0131">
        <ele>800</ele>
        <time>2014-10-26T15:50:56Z</time>
      </trkpt>
      <trkpt lat="45.37727" lon="6.01288">
        <ele>798</ele>
        <time>2014-10-26T15:51:06Z</time>
      </trkpt>
      <trkpt lat="45.37741" lon="6.01272">
        <ele>800</ele>
        <time>2014-10-26T15:51:12Z</time>
      </trkpt>
      <trkpt lat="45.37746" lon="6.01267">
        <ele>799</ele>
        <time>2014-10-26T15:51:14Z</time>
      </trkpt>
      <trkpt lat="45.37763" lon="6.01252">
        <ele>791</ele>
        <time>2014-10-26T15:51:20Z</time>
      </trkpt>
      <trkpt lat="45.37783" lon="6.01243">
        <ele>792</ele>
        <time>2014-10-26T15:51:26Z</time>
      </trkpt>
      <trkpt lat="45.37793" lon="6.01227">
        <ele>789</ele>
        <time>2014-10-26T15:51:33Z</time>
      </trkpt>
      <trkpt lat="45.37787" lon="6.01218">
        <ele>788</ele>
        <time>2014-10-26T15:51:38Z</time>
      </trkpt>
      <trkpt lat="45.37781" lon="6.01206">
        <ele>790</ele>
        <time>2014-10-26T15:51:44Z</time>
      </trkpt>
      <trkpt lat="45.37773" lon="6.01187">
        <ele>790</ele>
        <time>2014-10-26T15:51:50Z</time>
      </trkpt>
      <trkpt lat="45.37767" lon="6.01171">
        <ele>786</ele>
        <time>2014-10-26T15:51:56Z</time>
      </trkpt>
      <trkpt lat="45.37758" lon="6.01142">
        <ele>782</ele>
        <time>2014-10-26T15:52:02Z</time>
      </trkpt>
      <trkpt lat="45.37744" lon="6.0109">
        <ele>780</ele>
        <time>2014-10-26T15:52:12Z</time>
      </trkpt>
      <trkpt lat="45.37737" lon="6.01077">
        <ele>776</ele>
        <time>2014-10-26T15:52:15Z</time>
      </trkpt>
      <trkpt lat="45.37719" lon="6.01059">
        <ele>769</ele>
        <time>2014-10-26T15:52:22Z</time>
      </trkpt>
      <trkpt lat="45.37713" lon="6.01054">
        <ele>766</ele>
        <time>2014-10-26T15:52:26Z</time>
      </trkpt>
      <trkpt lat="45.37697" lon="6.01032">
        <ele>766</ele>
        <time>2014-10-26T15:52:32Z</time>
      </trkpt>
      <trkpt lat="45.37602" lon="6.00924">
        <ele>719</ele>
        <time>2014-10-26T15:53:02Z</time>
      </trkpt>
      <trkpt lat="45.37486" lon="6.00854">
        <ele>697</ele>
        <time>2014-10-26T15:53:25Z</time>
      </trkpt>
      <trkpt lat="45.37452" lon="6.0084">
        <ele>684</ele>
        <time>2014-10-26T15:53:32Z</time>
      </trkpt>
      <trkpt lat="45.37446" lon="6.00838">
        <ele>678</ele>
        <time>2014-10-26T15:53:40Z</time>
      </trkpt>
      <trkpt lat="45.37448" lon="6.00838">
        <ele>678</ele>
        <time>2014-10-26T15:53:48Z</time>
      </trkpt>
      <trkpt lat="45.3745" lon="6.00836">
        <ele>676</ele>
        <time>2014-10-26T15:53:55Z</time>
      </trkpt>
      <trkpt lat="45.3745" lon="6.00836">
        <ele>676</ele>
        <time>2014-10-26T15:53:56Z</time>
      </trkpt>
      <trkpt lat="45.37449" lon="6.00833">
        <ele>675</ele>
        <time>2014-10-26T15:54:07Z</time>
      </trkpt>
      <trkpt lat="45.37448" lon="6.00831">
        <ele>676</ele>
        <time>2014-10-26T15:54:08Z</time>
      </trkpt>
      <trkpt lat="45.37442" lon="6.0081">
        <ele>674</ele>
        <time>2014-10-26T15:54:14Z</time>
      </trkpt>
      <trkpt lat="45.37431" lon="6.00787">
        <ele>671</ele>
        <time>2014-10-26T15:54:20Z</time>
      </trkpt>
      <trkpt lat="45.37414" lon="6.00757">
        <ele>666</ele>
        <time>2014-10-26T15:54:26Z</time>
      </trkpt>
      <trkpt lat="45.37401" lon="6.00741">
        <ele>668</ele>
        <time>2014-10-26T15:54:32Z</time>
      </trkpt>
      <trkpt lat="45.37382" lon="6.0071">
        <ele>663</ele>
        <time>2014-10-26T15:54:40Z</time>
      </trkpt>
      <trkpt lat="45.37368" lon="6.00696">
        <ele>658</ele>
        <time>2014-10-26T15:54:44Z</time>
      </trkpt>
      <trkpt lat="45.37347" lon="6.00684">
        <ele>658</ele>
        <time>2014-10-26T15:54:50Z</time>
      </trkpt>
      <trkpt lat="45.37308" lon="6.00669">
        <ele>652</ele>
        <time>2014-10-26T15:54:59Z</time>
      </trkpt>
      <trkpt lat="45.37288" lon="6.00646">
        <ele>647</ele>
        <time>2014-10-26T15:55:06Z</time>
      </trkpt>
      <trkpt lat="45.37275" lon="6.00627">
        <ele>639</ele>
        <time>2014-10-26T15:55:13Z</time>
      </trkpt>
      <trkpt lat="45.37272" lon="6.00624">
        <ele>637</ele>
        <time>2014-10-26T15:55:14Z</time>
      </trkpt>
      <trkpt lat="45.37251" lon="6.00616">
        <ele>633</ele>
        <time>2014-10-26T15:55:20Z</time>
      </trkpt>
      <trkpt lat="45.37211" lon="6.00607">
        <ele>629</ele>
        <time>2014-10-26T15:55:30Z</time>
      </trkpt>
      <trkpt lat="45.37207" lon="6.00601">
        <ele>629</ele>
        <time>2014-10-26T15:55:32Z</time>
      </trkpt>
      <trkpt lat="45.37199" lon="6.00583">
        <ele>628</ele>
        <time>2014-10-26T15:55:38Z</time>
      </trkpt>
      <trkpt lat="45.37191" lon="6.00556">
        <ele>623</ele>
        <time>2014-10-26T15:55:44Z</time>
      </trkpt>
      <trkpt lat="45.37174" lon="6.0052">
        <ele>619</ele>
        <time>2014-10-26T15:55:54Z</time>
      </trkpt>
      <trkpt lat="45.37169" lon="6.00514">
        <ele>618</ele>
        <time>2014-10-26T15:55:56Z</time>
      </trkpt>
      <trkpt lat="45.37154" lon="6.00491">
        <ele>615</ele>
        <time>2014-10-26T15:56:03Z</time>
      </trkpt>
      <trkpt lat="45.37147" lon="6.0046">
        <ele>614</ele>
        <time>2014-10-26T15:56:11Z</time>
      </trkpt>
      <trkpt lat="45.3714" lon="6.00446">
        <ele>610</ele>
        <time>2014-10-26T15:56:16Z</time>
      </trkpt>
      <trkpt lat="45.37129" lon="6.00446">
        <ele>606</ele>
        <time>2014-10-26T15:56:20Z</time>
      </trkpt>
      <trkpt lat="45.37103" lon="6.00479">
        <ele>602</ele>
        <time>2014-10-26T15:56:28Z</time>
      </trkpt>
      <trkpt lat="45.37093" lon="6.00503">
        <ele>600</ele>
        <time>2014-10-26T15:56:33Z</time>
      </trkpt>
      <trkpt lat="45.37072" lon="6.00541">
        <ele>593</ele>
        <time>2014-10-26T15:56:43Z</time>
      </trkpt>
      <trkpt lat="45.37064" lon="6.00555">
        <ele>594</ele>
        <time>2014-10-26T15:56:47Z</time>
      </trkpt>
      <trkpt lat="45.37059" lon="6.00565">
        <ele>591</ele>
        <time>2014-10-26T15:56:50Z</time>
      </trkpt>
      <trkpt lat="45.37048" lon="6.00603">
        <ele>582</ele>
        <time>2014-10-26T15:56:58Z</time>
      </trkpt>
      <trkpt lat="45.37047" lon="6.00628">
        <ele>580</ele>
        <time>2014-10-26T15:57:02Z</time>
      </trkpt>
      <trkpt lat="45.37052" lon="6.00686">
        <ele>570</ele>
        <time>2014-10-26T15:57:11Z</time>
      </trkpt>
      <trkpt lat="45.37056" lon="6.00735">
        <ele>569</ele>
        <time>2014-10-26T15:57:19Z</time>
      </trkpt>
      <trkpt lat="45.37055" lon="6.00747">
        <ele>567</ele>
        <time>2014-10-26T15:57:21Z</time>
      </trkpt>
      <trkpt lat="45.3706" lon="6.0079">
        <ele>564</ele>
        <time>2014-10-26T15:57:31Z</time>
      </trkpt>
      <trkpt lat="45.37061" lon="6.00792">
        <ele>563</ele>
        <time>2014-10-26T15:57:32Z</time>
      </trkpt>
      <trkpt lat="45.37066" lon="6.00815">
        <ele>561</ele>
        <time>2014-10-26T15:57:40Z</time>
      </trkpt>
      <trkpt lat="45.37068" lon="6.00832">
        <ele>558</ele>
        <time>2014-10-26T15:57:45Z</time>
      </trkpt>
      <trkpt lat="45.37069" lon="6.00849">
        <ele>552</ele>
        <time>2014-10-26T15:57:52Z</time>
      </trkpt>
      <trkpt lat="45.37059" lon="6.00847">
        <ele>550</ele>
        <time>2014-10-26T15:57:58Z</time>
      </trkpt>
      <trkpt lat="45.37053" lon="6.00885">
        <ele>548</ele>
        <time>2014-10-26T15:58:07Z</time>
      </trkpt>
      <trkpt lat="45.37054" lon="6.00894">
        <ele>550</ele>
        <time>2014-10-26T15:58:09Z</time>
      </trkpt>
      <trkpt lat="45.37051" lon="6.00913">
        <ele>550</ele>
        <time>2014-10-26T15:58:14Z</time>
      </trkpt>
      <trkpt lat="45.37045" lon="6.00925">
        <ele>545</ele>
        <time>2014-10-26T15:58:20Z</time>
      </trkpt>
      <trkpt lat="45.37039" lon="6.00945">
        <ele>542</ele>
        <time>2014-10-26T15:58:27Z</time>
      </trkpt>
      <trkpt lat="45.37029" lon="6.00967">
        <ele>542</ele>
        <time>2014-10-26T15:58:32Z</time>
      </trkpt>
      <trkpt lat="45.37026" lon="6.0103">
        <ele>537</ele>
        <time>2014-10-26T15:58:40Z</time>
      </trkpt>
      <trkpt lat="45.37022" lon="6.01044">
        <ele>525</ele>
        <time>2014-10-26T15:58:44Z</time>
      </trkpt>
      <trkpt lat="45.37006" lon="6.01045">
        <ele>523</ele>
        <time>2014-10-26T15:58:50Z</time>
      </trkpt>
      <trkpt lat="45.36985" lon="6.01057">
        <ele>517</ele>
        <time>2014-10-26T15:58:57Z</time>
      </trkpt>
      <trkpt lat="45.36958" lon="6.01071">
        <ele>510</ele>
        <time>2014-10-26T15:59:05Z</time>
      </trkpt>
      <trkpt lat="45.36947" lon="6.01075">
        <ele>507</ele>
        <time>2014-10-26T15:59:09Z</time>
      </trkpt>
      <trkpt lat="45.36944" lon="6.01071">
        <ele>506</ele>
        <time>2014-10-26T15:59:14Z</time>
      </trkpt>
      <trkpt lat="45.36924" lon="6.01071">
        <ele>504</ele>
        <time>2014-10-26T15:59:23Z</time>
      </trkpt>
      <trkpt lat="45.36897" lon="6.01077">
        <ele>498</ele>
        <time>2014-10-26T15:59:30Z</time>
      </trkpt>
      <trkpt lat="45.36882" lon="6.01059">
        <ele>499</ele>
        <time>2014-10-26T15:59:36Z</time>
      </trkpt>
      <trkpt lat="45.36881" lon="6.0105">
        <ele>496</ele>
        <time>2014-10-26T15:59:38Z</time>
      </trkpt>
      <trkpt lat="45.36876" lon="6.01">
        <ele>493</ele>
        <time>2014-10-26T15:59:49Z</time>
      </trkpt>
      <trkpt lat="45.36876" lon="6.00996">
        <ele>494</ele>
        <time>2014-10-26T15:59:50Z</time>
      </trkpt>
      <trkpt lat="45.36868" lon="6.00954">
        <ele>493</ele>
        <time>2014-10-26T16:00:00Z</time>
      </trkpt>
      <trkpt lat="45.36868" lon="6.0094">
        <ele>493</ele>
        <time>2014-10-26T16:00:03Z</time>
      </trkpt>
      <trkpt lat="45.36873" lon="6.00923">
        <ele>492</ele>
        <time>2014-10-26T16:00:08Z</time>
      </trkpt>
      <trkpt lat="45.3687" lon="6.00902">
        <ele>499</ele>
        <time>2014-10-26T16:00:14Z</time>
      </trkpt>
      <trkpt lat="45.36869" lon="6.00881">
        <ele>499</ele>
        <time>2014-10-26T16:00:20Z</time>
      </trkpt>
      <trkpt lat="45.3687" lon="6.00852">
        <ele>495</ele>
        <time>2014-10-26T16:00:27Z</time>
      </trkpt>
      <trkpt lat="45.36874" lon="6.00833">
        <ele>492</ele>
        <time>2014-10-26T16:00:32Z</time>
      </trkpt>
      <trkpt lat="45.36873" lon="6.00816">
        <ele>502</ele>
        <time>2014-10-26T16:00:38Z</time>
      </trkpt>
      <trkpt lat="45.36874" lon="6.00761">
        <ele>495</ele>
        <time>2014-10-26T16:00:47Z</time>
      </trkpt>
      <trkpt lat="45.36877" lon="6.00745">
        <ele>495</ele>
        <time>2014-10-26T16:00:50Z</time>
      </trkpt>
      <trkpt lat="45.36873" lon="6.00704">
        <ele>496</ele>
        <time>2014-10-26T16:00:56Z</time>
      </trkpt>
      <trkpt lat="45.36882" lon="6.00671">
        <ele>494</ele>
        <time>2014-10-26T16:01:04Z</time>
      </trkpt>
      <trkpt lat="45.36886" lon="6.00661">
        <ele>491</ele>
        <time>2014-10-26T16:01:08Z</time>
      </trkpt>
      <trkpt lat="45.36889" lon="6.0064">
        <ele>490</ele>
        <time>2014-10-26T16:01:14Z</time>
      </trkpt>
      <trkpt lat="45.36884" lon="6.00616">
        <ele>495</ele>
        <time>2014-10-26T16:01:21Z</time>
      </trkpt>
      <trkpt lat="45.36885" lon="6.00598">
        <ele>491</ele>
        <time>2014-10-26T16:01:26Z</time>
      </trkpt>
      <trkpt lat="45.36887" lon="6.00582">
        <ele>490</ele>
        <time>2014-10-26T16:01:32Z</time>
      </trkpt>
      <trkpt lat="45.36866" lon="6.0054">
        <ele>490</ele>
        <time>2014-10-26T16:01:40Z</time>
      </trkpt>
      <trkpt lat="45.36862" lon="6.00524">
        <ele>486</ele>
        <time>2014-10-26T16:01:44Z</time>
      </trkpt>
      <trkpt lat="45.36854" lon="6.00473">
        <ele>481</ele>
        <time>2014-10-26T16:01:52Z</time>
      </trkpt>
      <trkpt lat="45.36839" lon="6.00434">
        <ele>475</ele>
        <time>2014-10-26T16:01:59Z</time>
      </trkpt>
      <trkpt lat="45.3684" lon="6.00385">
        <ele>480</ele>
        <time>2014-10-26T16:02:06Z</time>
      </trkpt>
      <trkpt lat="45.36845" lon="6.00357">
        <ele>479</ele>
        <time>2014-10-26T16:02:11Z</time>
      </trkpt>
      <trkpt lat="45.36847" lon="6.00342">
        <ele>478</ele>
        <time>2014-10-26T16:02:14Z</time>
      </trkpt>
      <trkpt lat="45.36854" lon="6.00312">
        <ele>475</ele>
        <time>2014-10-26T16:02:20Z</time>
      </trkpt>
      <trkpt lat="45.36868" lon="6.00284">
        <ele>472</ele>
        <time>2014-10-26T16:02:26Z</time>
      </trkpt>
      <trkpt lat="45.36894" lon="6.00259">
        <ele>472</ele>
        <time>2014-10-26T16:02:35Z</time>
      </trkpt>
      <trkpt lat="45.36906" lon="6.00249">
        <ele>470</ele>
        <time>2014-10-26T16:02:39Z</time>
      </trkpt>
      <trkpt lat="45.36931" lon="6.00226">
        <ele>465</ele>
        <time>2014-10-26T16:02:48Z</time>
      </trkpt>
      <trkpt lat="45.36934" lon="6.00225">
        <ele>463</ele>
        <time>2014-10-26T16:02:55Z</time>
      </trkpt>
      <trkpt lat="45.36934" lon="6.00224">
        <ele>464</ele>
        <time>2014-10-26T16:02:57Z</time>
      </trkpt>
      <trkpt lat="45.36942" lon="6.0022">
        <ele>463</ele>
        <time>2014-10-26T16:03:05Z</time>
      </trkpt>
      <trkpt lat="45.36946" lon="6.00217">
        <ele>467</ele>
        <time>2014-10-26T16:03:10Z</time>
      </trkpt>
      <trkpt lat="45.3696" lon="6.0021">
        <ele>466</ele>
        <time>2014-10-26T16:03:17Z</time>
      </trkpt>
      <trkpt lat="45.36967" lon="6.00206">
        <ele>463</ele>
        <time>2014-10-26T16:03:20Z</time>
      </trkpt>
      <trkpt lat="45.36978" lon="6.00196">
        <ele>464</ele>
        <time>2014-10-26T16:03:28Z</time>
      </trkpt>
      <trkpt lat="45.36981" lon="6.00191">
        <ele>468</ele>
        <time>2014-10-26T16:03:32Z</time>
      </trkpt>
      <trkpt lat="45.36985" lon="6.00183">
        <ele>467</ele>
        <time>2014-10-26T16:03:38Z</time>
      </trkpt>
      <trkpt lat="45.36993" lon="6.00171">
        <ele>465</ele>
        <time>2014-10-26T16:03:45Z</time>
      </trkpt>
      <trkpt lat="45.36997" lon="6.00162">
        <ele>467</ele>
        <time>2014-10-26T16:03:50Z</time>
      </trkpt>
      <trkpt lat="45.36995" lon="6.00157">
        <ele>467</ele>
        <time>2014-10-26T16:03:56Z</time>
      </trkpt>
      <trkpt lat="45.37001" lon="6.00158">
        <ele>463</ele>
        <time>2014-10-26T16:04:06Z</time>
      </trkpt>
      <trkpt lat="45.37002" lon="6.00157">
        <ele>462</ele>
        <time>2014-10-26T16:04:09Z</time>
      </trkpt>
      <trkpt lat="45.37009" lon="6.0015">
        <ele>459</ele>
        <time>2014-10-26T16:04:14Z</time>
      </trkpt>
      <trkpt lat="45.37017" lon="6.00141">
        <ele>458</ele>
        <time>2014-10-26T16:04:20Z</time>
      </trkpt>
      <trkpt lat="45.37024" lon="6.00133">
        <ele>462</ele>
        <time>2014-10-26T16:04:27Z</time>
      </trkpt>
      <trkpt lat="45.37029" lon="6.00126">
        <ele>464</ele>
        <time>2014-10-26T16:04:33Z</time>
      </trkpt>
      <trkpt lat="45.3703" lon="6.00125">
        <ele>464</ele>
        <time>2014-10-26T16:04:38Z</time>
      </trkpt>
      <trkpt lat="45.3703" lon="6.00123">
        <ele>463</ele>
        <time>2014-10-26T16:04:44Z</time>
      </trkpt>
      <trkpt lat="45.37047" lon="6.00108">
        <ele>458</ele>
        <time>2014-10-26T16:04:55Z</time>
      </trkpt>
      <trkpt lat="45.37048" lon="6.00106">
        <ele>458</ele>
        <time>2014-10-26T16:04:56Z</time>
      </trkpt>
      <trkpt lat="45.37046" lon="6.00092">
        <ele>452</ele>
        <time>2014-10-26T16:05:05Z</time>
      </trkpt>
      <trkpt lat="45.37042" lon="6.00096">
        <ele>451</ele>
        <time>2014-10-26T16:05:08Z</time>
      </trkpt>
      <trkpt lat="45.37027" lon="6.00096">
        <ele>444</ele>
        <time>2014-10-26T16:05:18Z</time>
      </trkpt>
      <trkpt lat="45.37024" lon="6.00095">
        <ele>443</ele>
        <time>2014-10-26T16:05:20Z</time>
      </trkpt>
      <trkpt lat="45.37019" lon="6.00098">
        <ele>442</ele>
        <time>2014-10-26T16:05:26Z</time>
      </trkpt>
      <trkpt lat="45.3701" lon="6.00091">
        <ele>441</ele>
        <time>2014-10-26T16:05:35Z</time>
      </trkpt>
      <trkpt lat="45.36994" lon="6.00083">
        <ele>442</ele>
        <time>2014-10-26T16:05:42Z</time>
      </trkpt>
      <trkpt lat="45.3699" lon="6.0008">
        <ele>444</ele>
        <time>2014-10-26T16:05:44Z</time>
      </trkpt>
      <trkpt lat="45.36981" lon="6.00067">
        <ele>443</ele>
        <time>2014-10-26T16:05:52Z</time>
      </trkpt>
      <trkpt lat="45.36976" lon="6.00061">
        <ele>441</ele>
        <time>2014-10-26T16:05:56Z</time>
      </trkpt>
      <trkpt lat="45.36958" lon="6.00048">
        <ele>438</ele>
        <time>2014-10-26T16:06:03Z</time>
      </trkpt>
      <trkpt lat="45.36949" lon="6.00034">
        <ele>440</ele>
        <time>2014-10-26T16:06:09Z</time>
      </trkpt>
      <trkpt lat="45.36927" lon="6.00042">
        <ele>431</ele>
        <time>2014-10-26T16:06:18Z</time>
      </trkpt>
      <trkpt lat="45.3691" lon="6.00057">
        <ele>439</ele>
        <time>2014-10-26T16:06:24Z</time>
      </trkpt>
      <trkpt lat="45.369" lon="6.00065">
        <ele>434</ele>
        <time>2014-10-26T16:06:28Z</time>
      </trkpt>
      <trkpt lat="45.36892" lon="6.00083">
        <ele>428</ele>
        <time>2014-10-26T16:06:33Z</time>
      </trkpt>
      <trkpt lat="45.36885" lon="6.00097">
        <ele>429</ele>
        <time>2014-10-26T16:06:38Z</time>
      </trkpt>
      <trkpt lat="45.36875" lon="6.00111">
        <ele>429</ele>
        <time>2014-10-26T16:06:44Z</time>
      </trkpt>
      <trkpt lat="45.36863" lon="6.00124">
        <ele>423</ele>
        <time>2014-10-26T16:06:50Z</time>
      </trkpt>
      <trkpt lat="45.3685" lon="6.00141">
        <ele>419</ele>
        <time>2014-10-26T16:06:57Z</time>
      </trkpt>
      <trkpt lat="45.36839" lon="6.00135">
        <ele>419</ele>
        <time>2014-10-26T16:07:02Z</time>
      </trkpt>
      <trkpt lat="45.36841" lon="6.00109">
        <ele>409</ele>
        <time>2014-10-26T16:07:10Z</time>
      </trkpt>
      <trkpt lat="45.36839" lon="6.00081">
        <ele>409</ele>
        <time>2014-10-26T16:07:18Z</time>
      </trkpt>
      <trkpt lat="45.36837" lon="6.00073">
        <ele>408</ele>
        <time>2014-10-26T16:07:20Z</time>
      </trkpt>
      <trkpt lat="45.36839" lon="6.00045">
        <ele>403</ele>
        <time>2014-10-26T16:07:27Z</time>
      </trkpt>
      <trkpt lat="45.36844" lon="6.00027">
        <ele>403</ele>
        <time>2014-10-26T16:07:32Z</time>
      </trkpt>
      <trkpt lat="45.36859" lon="5.99995">
        <ele>404</ele>
        <time>2014-10-26T16:07:43Z</time>
      </trkpt>
      <trkpt lat="45.36857" lon="5.99988">
        <ele>407</ele>
        <time>2014-10-26T16:07:49Z</time>
      </trkpt>
      <trkpt lat="45.36856" lon="5.99987">
        <ele>407</ele>
        <time>2014-10-26T16:07:53Z</time>
      </trkpt>
      <trkpt lat="45.36856" lon="5.99986">
        <ele>408</ele>
        <time>2014-10-26T16:07:56Z</time>
      </trkpt>
      <trkpt lat="45.36856" lon="5.99986">
        <ele>408</ele>
        <time>2014-10-26T16:08:02Z</time>
      </trkpt>
      <trkpt lat="45.36856" lon="5.99986">
        <ele>408</ele>
        <time>2014-10-26T16:08:10Z</time>
      </trkpt>
      <trkpt lat="45.36856" lon="5.99983">
        <ele>406</ele>
        <time>2014-10-26T16:08:14Z</time>
      </trkpt>
      <trkpt lat="45.3685" lon="5.9997">
        <ele>403</ele>
        <time>2014-10-26T16:08:20Z</time>
      </trkpt>
      <trkpt lat="45.36835" lon="5.99955">
        <ele>398</ele>
        <time>2014-10-26T16:08:29Z</time>
      </trkpt>
      <trkpt lat="45.36827" lon="5.99949">
        <ele>398</ele>
        <time>2014-10-26T16:08:35Z</time>
      </trkpt>
      <trkpt lat="45.36819" lon="5.99942">
        <ele>400</ele>
        <time>2014-10-26T16:08:41Z</time>
      </trkpt>
      <trkpt lat="45.36815" lon="5.99939">
        <ele>398</ele>
        <time>2014-10-26T16:08:44Z</time>
      </trkpt>
      <trkpt lat="45.368" lon="5.99935">
        <ele>395</ele>
        <time>2014-10-26T16:08:50Z</time>
      </trkpt>
      <trkpt lat="45.36785" lon="5.99936">
        <ele>389</ele>
        <time>2014-10-26T16:08:56Z</time>
      </trkpt>
      <trkpt lat="45.36779" lon="5.99932">
        <ele>386</ele>
        <time>2014-10-26T16:09:02Z</time>
      </trkpt>
      <trkpt lat="45.36761" lon="5.99929">
        <ele>386</ele>
        <time>2014-10-26T16:09:11Z</time>
      </trkpt>
      <trkpt lat="45.36763" lon="5.99927">
        <ele>383</ele>
        <time>2014-10-26T16:09:15Z</time>
      </trkpt>
      <trkpt lat="45.3677" lon="5.99924">
        <ele>379</ele>
        <time>2014-10-26T16:09:20Z</time>
      </trkpt>
      <trkpt lat="45.36776" lon="5.99913">
        <ele>379</ele>
        <time>2014-10-26T16:09:27Z</time>
      </trkpt>
      <trkpt lat="45.36785" lon="5.99904">
        <ele>378</ele>
        <time>2014-10-26T16:09:37Z</time>
      </trkpt>
      <trkpt lat="45.36789" lon="5.99897">
        <ele>379</ele>
        <time>2014-10-26T16:09:41Z</time>
      </trkpt>
      <trkpt lat="45.36792" lon="5.99896">
        <ele>379</ele>
        <time>2014-10-26T16:09:44Z</time>
      </trkpt>
      <trkpt lat="45.36798" lon="5.99887">
        <ele>379</ele>
        <time>2014-10-26T16:09:50Z</time>
      </trkpt>
      <trkpt lat="45.36812" lon="5.99886">
        <ele>376</ele>
        <time>2014-10-26T16:09:56Z</time>
      </trkpt>
      <trkpt lat="45.36829" lon="5.99887">
        <ele>373</ele>
        <time>2014-10-26T16:10:03Z</time>
      </trkpt>
      <trkpt lat="45.36842" lon="5.99889">
        <ele>362</ele>
        <time>2014-10-26T16:10:08Z</time>
      </trkpt>
      <trkpt lat="45.36848" lon="5.99873">
        <ele>362</ele>
        <time>2014-10-26T16:10:16Z</time>
      </trkpt>
      <trkpt lat="45.36851" lon="5.99864">
        <ele>361</ele>
        <time>2014-10-26T16:10:20Z</time>
      </trkpt>
      <trkpt lat="45.36842" lon="5.99853">
        <ele>350</ele>
        <time>2014-10-26T16:10:29Z</time>
      </trkpt>
      <trkpt lat="45.3684" lon="5.99849">
        <ele>348</ele>
        <time>2014-10-26T16:10:32Z</time>
      </trkpt>
      <trkpt lat="45.36837" lon="5.99836">
        <ele>347</ele>
        <time>2014-10-26T16:10:40Z</time>
      </trkpt>
      <trkpt lat="45.36842" lon="5.99828">
        <ele>345</ele>
        <time>2014-10-26T16:10:47Z</time>
      </trkpt>
      <trkpt lat="45.36846" lon="5.99822">
        <ele>347</ele>
        <time>2014-10-26T16:10:52Z</time>
      </trkpt>
      <trkpt lat="45.36846" lon="5.99811">
        <ele>347</ele>
        <time>2014-10-26T16:10:57Z</time>
      </trkpt>
      <trkpt lat="45.36841" lon="5.99811">
        <ele>344</ele>
        <time>2014-10-26T16:11:05Z</time>
      </trkpt>
      <trkpt lat="45.36843" lon="5.99808">
        <ele>345</ele>
        <time>2014-10-26T16:11:09Z</time>
      </trkpt>
      <trkpt lat="45.3684" lon="5.9981">
        <ele>338</ele>
        <time>2014-10-26T16:11:14Z</time>
      </trkpt>
      <trkpt lat="45.36834" lon="5.99801">
        <ele>333</ele>
        <time>2014-10-26T16:11:25Z</time>
      </trkpt>
      <trkpt lat="45.36833" lon="5.99801">
        <ele>331</ele>
        <time>2014-10-26T16:11:26Z</time>
      </trkpt>
      <trkpt lat="45.36828" lon="5.99799">
        <ele>331</ele>
        <time>2014-10-26T16:11:35Z</time>
      </trkpt>
      <trkpt lat="45.36826" lon="5.99799">
        <ele>327</ele>
        <time>2014-10-26T16:11:39Z</time>
      </trkpt>
      <trkpt lat="45.36815" lon="5.99796">
        <ele>313</ele>
        <time>2014-10-26T16:11:46Z</time>
      </trkpt>
      <trkpt lat="45.36805" lon="5.99798">
        <ele>307</ele>
        <time>2014-10-26T16:11:51Z</time>
      </trkpt>
      <trkpt lat="45.3679" lon="5.99796">
        <ele>308</ele>
        <time>2014-10-26T16:12:01Z</time>
      </trkpt>
      <trkpt lat="45.36788" lon="5.99795">
        <ele>307</ele>
        <time>2014-10-26T16:12:02Z</time>
      </trkpt>
      <trkpt lat="45.36773" lon="5.99793">
        <ele>310</ele>
        <time>2014-10-26T16:12:08Z</time>
      </trkpt>
      <trkpt lat="45.36757" lon="5.99789">
        <ele>307</ele>
        <time>2014-10-26T16:12:14Z</time>
      </trkpt>
      <trkpt lat="45.36736" lon="5.99784">
        <ele>301</ele>
        <time>2014-10-26T16:12:24Z</time>
      </trkpt>
      <trkpt lat="45.36729" lon="5.99787">
        <ele>292</ele>
        <time>2014-10-26T16:12:29Z</time>
      </trkpt>
      <trkpt lat="45.36728" lon="5.99786">
        <ele>292</ele>
        <time>2014-10-26T16:12:33Z</time>
      </trkpt>
      <trkpt lat="45.36713" lon="5.99784">
        <ele>288</ele>
        <time>2014-10-26T16:12:42Z</time>
      </trkpt>
      <trkpt lat="45.36709" lon="5.99785">
        <ele>287</ele>
        <time>2014-10-26T16:12:44Z</time>
      </trkpt>
      <trkpt lat="45.36693" lon="5.99786">
        <ele>280</ele>
        <time>2014-10-26T16:12:51Z</time>
      </trkpt>
      <trkpt lat="45.36685" lon="5.9979">
        <ele>280</ele>
        <time>2014-10-26T16:12:57Z</time>
      </trkpt>
      <trkpt lat="45.36682" lon="5.99784">
        <ele>285</ele>
        <time>2014-10-26T16:13:06Z</time>
      </trkpt>
      <trkpt lat="45.36685" lon="5.99783">
        <ele>286</ele>
        <time>2014-10-26T16:13:12Z</time>
      </trkpt>
      <trkpt lat="45.36687" lon="5.99785">
        <ele>285</ele>
        <time>2014-10-26T16:13:14Z</time>
      </trkpt>
      <trkpt lat="45.3669" lon="5.99768">
        <ele>273</ele>
        <time>2014-10-26T16:13:25Z</time>
      </trkpt>
      <trkpt lat="45.3669" lon="5.99766">
        <ele>272</ele>
        <time>2014-10-26T16:13:26Z</time>
      </trkpt>
      <trkpt lat="45.36693" lon="5.99755">
        <ele>263</ele>
        <time>2014-10-26T16:13:33Z</time>
      </trkpt>
      <trkpt lat="45.36695" lon="5.99749">
        <ele>262</ele>
        <time>2014-10-26T16:13:39Z</time>
      </trkpt>
      <trkpt lat="45.36695" lon="5.99749">
        <ele>263</ele>
        <time>2014-10-26T16:13:44Z</time>
      </trkpt>
      <trkpt lat="45.36698" lon="5.99746">
        <ele>265</ele>
        <time>2014-10-26T16:13:50Z</time>
      </trkpt>
      <trkpt lat="45.3671" lon="5.99732">
        <ele>262</ele>
        <time>2014-10-26T16:13:57Z</time>
      </trkpt>
      <trkpt lat="45.36722" lon="5.99725">
        <ele>267</ele>
        <time>2014-10-26T16:14:03Z</time>
      </trkpt>
      <trkpt lat="45.36737" lon="5.99718">
        <ele>264</ele>
        <time>2014-10-26T16:14:09Z</time>
      </trkpt>
      <trkpt lat="45.36753" lon="5.99712">
        <ele>260</ele>
        <time>2014-10-26T16:14:14Z</time>
      </trkpt>
      <trkpt lat="45.36773" lon="5.99708">
        <ele>258</ele>
        <time>2014-10-26T16:14:20Z</time>
      </trkpt>
      <trkpt lat="45.36793" lon="5.99696">
        <ele>259</ele>
        <time>2014-10-26T16:14:26Z</time>
      </trkpt>
      <trkpt lat="45.36819" lon="5.9967">
        <ele>263</ele>
        <time>2014-10-26T16:14:34Z</time>
      </trkpt>
      <trkpt lat="45.36834" lon="5.99659">
        <ele>258</ele>
        <time>2014-10-26T16:14:38Z</time>
      </trkpt>
      <trkpt lat="45.36854" lon="5.99647">
        <ele>260</ele>
        <time>2014-10-26T16:14:44Z</time>
      </trkpt>
      <trkpt lat="45.36871" lon="5.99638">
        <ele>261</ele>
        <time>2014-10-26T16:14:50Z</time>
      </trkpt>
      <trkpt lat="45.36887" lon="5.99622">
        <ele>260</ele>
        <time>2014-10-26T16:14:56Z</time>
      </trkpt>
      <trkpt lat="45.36897" lon="5.99596">
        <ele>261</ele>
        <time>2014-10-26T16:15:03Z</time>
      </trkpt>
      <trkpt lat="45.36906" lon="5.99559">
        <ele>255</ele>
        <time>2014-10-26T16:15:11Z</time>
      </trkpt>
      <trkpt lat="45.36907" lon="5.99536">
        <ele>254</ele>
        <time>2014-10-26T16:15:15Z</time>
      </trkpt>
      <trkpt lat="45.36918" lon="5.99494">
        <ele>254</ele>
        <time>2014-10-26T16:15:24Z</time>
      </trkpt>
      <trkpt lat="45.36922" lon="5.99484">
        <ele>258</ele>
        <time>2014-10-26T16:15:28Z</time>
      </trkpt>
      <trkpt lat="45.36927" lon="5.9946">
        <ele>258</ele>
        <time>2014-10-26T16:15:35Z</time>
      </trkpt>
      <trkpt lat="45.36929" lon="5.99443">
        <ele>257</ele>
        <time>2014-10-26T16:15:38Z</time>
      </trkpt>
      <trkpt lat="45.3694" lon="5.99397">
        <ele>254</ele>
        <time>2014-10-26T16:15:47Z</time>
      </trkpt>
      <trkpt lat="45.36954" lon="5.99371">
        <ele>257</ele>
        <time>2014-10-26T16:15:54Z</time>
      </trkpt>
      <trkpt lat="45.36957" lon="5.99366">
        <ele>258</ele>
        <time>2014-10-26T16:15:56Z</time>
      </trkpt>
      <trkpt lat="45.36974" lon="5.99345">
        <ele>254</ele>
        <time>2014-10-26T16:16:04Z</time>
      </trkpt>
      <trkpt lat="45.36996" lon="5.99315">
        <ele>250</ele>
        <time>2014-10-26T16:16:13Z</time>
      </trkpt>
      <trkpt lat="45.37001" lon="5.99311">
        <ele>250</ele>
        <time>2014-10-26T16:16:15Z</time>
      </trkpt>
      <trkpt lat="45.37018" lon="5.99299">
        <ele>254</ele>
        <time>2014-10-26T16:16:21Z</time>
      </trkpt>
      <trkpt lat="45.37048" lon="5.99283">
        <ele>254</ele>
        <time>2014-10-26T16:16:31Z</time>
      </trkpt>
      <trkpt lat="45.37062" lon="5.99269">
        <ele>253</ele>
        <time>2014-10-26T16:16:36Z</time>
      </trkpt>
      <trkpt lat="45.37067" lon="5.99264">
        <ele>255</ele>
        <time>2014-10-26T16:16:38Z</time>
      </trkpt>
      <trkpt lat="45.37069" lon="5.99253">
        <ele>253</ele>
        <time>2014-10-26T16:16:44Z</time>
      </trkpt>
      <trkpt lat="45.37072" lon="5.99246">
        <ele>258</ele>
        <time>2014-10-26T16:16:51Z</time>
      </trkpt>
      <trkpt lat="45.37073" lon="5.99251">
        <ele>261</ele>
        <time>2014-10-26T16:16:56Z</time>
      </trkpt>
      <trkpt lat="45.37076" lon="5.99236">
        <ele>256</ele>
        <time>2014-10-26T16:17:07Z</time>
      </trkpt>
      <trkpt lat="45.37074" lon="5.99238">
        <ele>255</ele>
        <time>2014-10-26T16:17:12Z</time>
      </trkpt>
      <trkpt lat="45.37092" lon="5.99241">
        <ele>244</ele>
        <time>2014-10-26T16:17:18Z</time>
      </trkpt>
      <trkpt lat="45.371" lon="5.99243">
        <ele>246</ele>
        <time>2014-10-26T16:17:20Z</time>
      </trkpt>
      <trkpt lat="45.37123" lon="5.99265">
        <ele>252</ele>
        <time>2014-10-26T16:17:27Z</time>
      </trkpt>
      <trkpt lat="45.37135" lon="5.9928">
        <ele>253</ele>
        <time>2014-10-26T16:17:32Z</time>
      </trkpt>
      <trkpt lat="45.37149" lon="5.99299">
        <ele>253</ele>
        <time>2014-10-26T16:17:38Z</time>
      </trkpt>
      <trkpt lat="45.37167" lon="5.99321">
        <ele>254</ele>
        <time>2014-10-26T16:17:44Z</time>
      </trkpt>
      <trkpt lat="45.37185" lon="5.99345">
        <ele>254</ele>
        <time>2014-10-26T16:17:51Z</time>
      </trkpt>
      <trkpt lat="45.37198" lon="5.99367">
        <ele>254</ele>
        <time>2014-10-26T16:17:57Z</time>
      </trkpt>
      <trkpt lat="45.37212" lon="5.99388">
        <ele>254</ele>
        <time>2014-10-26T16:18:03Z</time>
      </trkpt>
      <trkpt lat="45.37237" lon="5.9942">
        <ele>251</ele>
        <time>2014-10-26T16:18:12Z</time>
      </trkpt>
      <trkpt lat="45.37242" lon="5.99427">
        <ele>252</ele>
        <time>2014-10-26T16:18:14Z</time>
      </trkpt>
      <trkpt lat="45.3726" lon="5.99451">
        <ele>254</ele>
        <time>2014-10-26T16:18:21Z</time>
      </trkpt>
      <trkpt lat="45.3729" lon="5.99446">
        <ele>245</ele>
        <time>2014-10-26T16:18:31Z</time>
      </trkpt>
      <trkpt lat="45.37301" lon="5.99425">
        <ele>244</ele>
        <time>2014-10-26T16:18:36Z</time>
      </trkpt>
      <trkpt lat="45.37305" lon="5.99417">
        <ele>242</ele>
        <time>2014-10-26T16:18:38Z</time>
      </trkpt>
      <trkpt lat="45.37316" lon="5.99392">
        <ele>242</ele>
        <time>2014-10-26T16:18:44Z</time>
      </trkpt>
      <trkpt lat="45.37326" lon="5.99367">
        <ele>247</ele>
        <time>2014-10-26T16:18:50Z</time>
      </trkpt>
      <trkpt lat="45.37333" lon="5.99351">
        <ele>249</ele>
        <time>2014-10-26T16:18:56Z</time>
      </trkpt>
      <trkpt lat="45.37355" lon="5.99353">
        <ele>245</ele>
        <time>2014-10-26T16:19:04Z</time>
      </trkpt>
      <trkpt lat="45.37377" lon="5.99365">
        <ele>240</ele>
        <time>2014-10-26T16:19:12Z</time>
      </trkpt>
      <trkpt lat="45.37386" lon="5.99369">
        <ele>242</ele>
        <time>2014-10-26T16:19:15Z</time>
      </trkpt>
      <trkpt lat="45.37402" lon="5.99373">
        <ele>239</ele>
        <time>2014-10-26T16:19:20Z</time>
      </trkpt>
      <trkpt lat="45.37428" lon="5.99386">
        <ele>238</ele>
        <time>2014-10-26T16:19:29Z</time>
      </trkpt>
      <trkpt lat="45.37453" lon="5.99391">
        <ele>233</ele>
        <time>2014-10-26T16:19:37Z</time>
      </trkpt>
      <trkpt lat="45.37467" lon="5.99397">
        <ele>234</ele>
        <time>2014-10-26T16:19:42Z</time>
      </trkpt>
      <trkpt lat="45.37473" lon="5.994">
        <ele>234</ele>
        <time>2014-10-26T16:19:44Z</time>
      </trkpt>
      <trkpt lat="45.3749" lon="5.99408">
        <ele>235</ele>
        <time>2014-10-26T16:19:50Z</time>
      </trkpt>
      <trkpt lat="45.37509" lon="5.99417">
        <ele>236</ele>
        <time>2014-10-26T16:19:57Z</time>
      </trkpt>
      <trkpt lat="45.37528" lon="5.99426">
        <ele>234</ele>
        <time>2014-10-26T16:20:04Z</time>
      </trkpt>
      <trkpt lat="45.3754" lon="5.99431">
        <ele>233</ele>
        <time>2014-10-26T16:20:08Z</time>
      </trkpt>
      <trkpt lat="45.3756" lon="5.99442">
        <ele>236</ele>
        <time>2014-10-26T16:20:15Z</time>
      </trkpt>
      <trkpt lat="45.3758" lon="5.99456">
        <ele>240</ele>
        <time>2014-10-26T16:20:23Z</time>
      </trkpt>
      <trkpt lat="45.37588" lon="5.99462">
        <ele>240</ele>
        <time>2014-10-26T16:20:26Z</time>
      </trkpt>
      <trkpt lat="45.3761" lon="5.99479">
        <ele>240</ele>
        <time>2014-10-26T16:20:34Z</time>
      </trkpt>
      <trkpt lat="45.37625" lon="5.99492">
        <ele>239</ele>
        <time>2014-10-26T16:20:40Z</time>
      </trkpt>
      <trkpt lat="45.37635" lon="5.995">
        <ele>238</ele>
        <time>2014-10-26T16:20:44Z</time>
      </trkpt>
      <trkpt lat="45.37657" lon="5.99517">
        <ele>244</ele>
        <time>2014-10-26T16:20:53Z</time>
      </trkpt>
      <trkpt lat="45.37664" lon="5.99521">
        <ele>242</ele>
        <time>2014-10-26T16:20:56Z</time>
      </trkpt>
      <trkpt lat="45.3768" lon="5.99531">
        <ele>240</ele>
        <time>2014-10-26T16:21:02Z</time>
      </trkpt>
      <trkpt lat="45.37693" lon="5.9954">
        <ele>241</ele>
        <time>2014-10-26T16:21:08Z</time>
      </trkpt>
      <trkpt lat="45.37706" lon="5.99544">
        <ele>241</ele>
        <time>2014-10-26T16:21:19Z</time>
      </trkpt>
    </trkseg>
  </trk>
</gpx>